<?xml version="1.0" encoding="UTF-8" standalone="no" ?>
<gpx xmlns="http://www.topografix.com/GPX/1/1" xmlns:xsi="http://www.w3.org/2001/XMLSchema-instance" xsi:schemaLocation="http://www.topografix.com/GPX/1/1 http://www.topografix.com/GPX/1/1/gpx.xsd" version="1.1" creator="VisuGPX - https://www.visugpx.com">
  <metadata>
    <name>2020-11-29 09:10:36 [Suunto App]</name>
  </metadata>
  <trk>
    <name><![CDATA[2020-11-29 09:10:36 [Suunto App]_1]]></name>
    <trkseg>
      <trkpt lat="43.56231" lon="1.44682">
        <ele>238.2</ele>
        <time>2020-11-29T08:10:36Z</time>
      </trkpt>
      <trkpt lat="43.56241" lon="1.44678">
        <ele>859</ele>
        <time>2020-11-29T08:10:40Z</time>
      </trkpt>
      <trkpt lat="43.56251" lon="1.44672">
        <ele>859</ele>
        <time>2020-11-29T08:10:44Z</time>
      </trkpt>
      <trkpt lat="43.5626" lon="1.44668">
        <ele>859</ele>
        <time>2020-11-29T08:10:48Z</time>
      </trkpt>
      <trkpt lat="43.5627" lon="1.44662">
        <ele>859</ele>
        <time>2020-11-29T08:10:52Z</time>
      </trkpt>
      <trkpt lat="43.56279" lon="1.44658">
        <ele>859</ele>
        <time>2020-11-29T08:10:55Z</time>
      </trkpt>
      <trkpt lat="43.56288" lon="1.44652">
        <ele>859</ele>
        <time>2020-11-29T08:10:59Z</time>
      </trkpt>
      <trkpt lat="43.56297" lon="1.44647">
        <ele>859</ele>
        <time>2020-11-29T08:11:03Z</time>
      </trkpt>
      <trkpt lat="43.56305" lon="1.4464">
        <ele>859</ele>
        <time>2020-11-29T08:11:07Z</time>
      </trkpt>
      <trkpt lat="43.56314" lon="1.44631">
        <ele>858</ele>
        <time>2020-11-29T08:11:11Z</time>
      </trkpt>
      <trkpt lat="43.56322" lon="1.44621">
        <ele>857</ele>
        <time>2020-11-29T08:11:15Z</time>
      </trkpt>
      <trkpt lat="43.56331" lon="1.44614">
        <ele>855</ele>
        <time>2020-11-29T08:11:19Z</time>
      </trkpt>
      <trkpt lat="43.56339" lon="1.44603">
        <ele>855</ele>
        <time>2020-11-29T08:11:23Z</time>
      </trkpt>
      <trkpt lat="43.56349" lon="1.44595">
        <ele>855</ele>
        <time>2020-11-29T08:11:27Z</time>
      </trkpt>
      <trkpt lat="43.56357" lon="1.44587">
        <ele>855</ele>
        <time>2020-11-29T08:11:31Z</time>
      </trkpt>
      <trkpt lat="43.56365" lon="1.4458">
        <ele>855</ele>
        <time>2020-11-29T08:11:35Z</time>
      </trkpt>
      <trkpt lat="43.56373" lon="1.44572">
        <ele>856</ele>
        <time>2020-11-29T08:11:39Z</time>
      </trkpt>
      <trkpt lat="43.56382" lon="1.44565">
        <ele>855</ele>
        <time>2020-11-29T08:11:43Z</time>
      </trkpt>
      <trkpt lat="43.56392" lon="1.44557">
        <ele>854</ele>
        <time>2020-11-29T08:11:47Z</time>
      </trkpt>
      <trkpt lat="43.56401" lon="1.4455">
        <ele>854</ele>
        <time>2020-11-29T08:11:51Z</time>
      </trkpt>
      <trkpt lat="43.5641" lon="1.44545">
        <ele>854</ele>
        <time>2020-11-29T08:11:55Z</time>
      </trkpt>
      <trkpt lat="43.5642" lon="1.44538">
        <ele>856</ele>
        <time>2020-11-29T08:11:59Z</time>
      </trkpt>
      <trkpt lat="43.56429" lon="1.44532">
        <ele>855</ele>
        <time>2020-11-29T08:12:03Z</time>
      </trkpt>
      <trkpt lat="43.56439" lon="1.44524">
        <ele>855</ele>
        <time>2020-11-29T08:12:07Z</time>
      </trkpt>
      <trkpt lat="43.56448" lon="1.44517">
        <ele>855</ele>
        <time>2020-11-29T08:12:11Z</time>
      </trkpt>
      <trkpt lat="43.56457" lon="1.4451">
        <ele>855</ele>
        <time>2020-11-29T08:12:15Z</time>
      </trkpt>
      <trkpt lat="43.56467" lon="1.44502">
        <ele>854</ele>
        <time>2020-11-29T08:12:19Z</time>
      </trkpt>
      <trkpt lat="43.56475" lon="1.44496">
        <ele>854</ele>
        <time>2020-11-29T08:12:23Z</time>
      </trkpt>
      <trkpt lat="43.56484" lon="1.44487">
        <ele>854</ele>
        <time>2020-11-29T08:12:27Z</time>
      </trkpt>
      <trkpt lat="43.56493" lon="1.4448">
        <ele>853</ele>
        <time>2020-11-29T08:12:31Z</time>
      </trkpt>
      <trkpt lat="43.56502" lon="1.44474">
        <ele>853</ele>
        <time>2020-11-29T08:12:35Z</time>
      </trkpt>
      <trkpt lat="43.5651" lon="1.44467">
        <ele>853</ele>
        <time>2020-11-29T08:12:38Z</time>
      </trkpt>
      <trkpt lat="43.5652" lon="1.44459">
        <ele>853</ele>
        <time>2020-11-29T08:12:42Z</time>
      </trkpt>
      <trkpt lat="43.56528" lon="1.44453">
        <ele>853</ele>
        <time>2020-11-29T08:12:46Z</time>
      </trkpt>
      <trkpt lat="43.56536" lon="1.44445">
        <ele>853</ele>
        <time>2020-11-29T08:12:50Z</time>
      </trkpt>
      <trkpt lat="43.56546" lon="1.44439">
        <ele>852</ele>
        <time>2020-11-29T08:12:54Z</time>
      </trkpt>
      <trkpt lat="43.56555" lon="1.4443">
        <ele>852</ele>
        <time>2020-11-29T08:12:58Z</time>
      </trkpt>
      <trkpt lat="43.56564" lon="1.44423">
        <ele>852</ele>
        <time>2020-11-29T08:13:02Z</time>
      </trkpt>
      <trkpt lat="43.56574" lon="1.44418">
        <ele>852</ele>
        <time>2020-11-29T08:13:06Z</time>
      </trkpt>
      <trkpt lat="43.56584" lon="1.44415">
        <ele>852</ele>
        <time>2020-11-29T08:13:10Z</time>
      </trkpt>
      <trkpt lat="43.56593" lon="1.44409">
        <ele>851</ele>
        <time>2020-11-29T08:13:14Z</time>
      </trkpt>
      <trkpt lat="43.566" lon="1.44398">
        <ele>850</ele>
        <time>2020-11-29T08:13:18Z</time>
      </trkpt>
      <trkpt lat="43.56603" lon="1.44385">
        <ele>850</ele>
        <time>2020-11-29T08:13:23Z</time>
      </trkpt>
      <trkpt lat="43.56607" lon="1.4437">
        <ele>850</ele>
        <time>2020-11-29T08:13:27Z</time>
      </trkpt>
      <trkpt lat="43.56609" lon="1.44357">
        <ele>848</ele>
        <time>2020-11-29T08:13:31Z</time>
      </trkpt>
      <trkpt lat="43.56614" lon="1.44345">
        <ele>848</ele>
        <time>2020-11-29T08:13:35Z</time>
      </trkpt>
      <trkpt lat="43.56617" lon="1.44332">
        <ele>847</ele>
        <time>2020-11-29T08:13:39Z</time>
      </trkpt>
      <trkpt lat="43.56618" lon="1.44316">
        <ele>845</ele>
        <time>2020-11-29T08:13:43Z</time>
      </trkpt>
      <trkpt lat="43.56622" lon="1.44302">
        <ele>844</ele>
        <time>2020-11-29T08:13:47Z</time>
      </trkpt>
      <trkpt lat="43.56628" lon="1.44288">
        <ele>843</ele>
        <time>2020-11-29T08:13:51Z</time>
      </trkpt>
      <trkpt lat="43.56634" lon="1.44278">
        <ele>843</ele>
        <time>2020-11-29T08:13:55Z</time>
      </trkpt>
      <trkpt lat="43.5664" lon="1.44269">
        <ele>841</ele>
        <time>2020-11-29T08:13:59Z</time>
      </trkpt>
      <trkpt lat="43.56647" lon="1.44258">
        <ele>841</ele>
        <time>2020-11-29T08:14:03Z</time>
      </trkpt>
      <trkpt lat="43.56655" lon="1.44248">
        <ele>841</ele>
        <time>2020-11-29T08:14:07Z</time>
      </trkpt>
      <trkpt lat="43.56662" lon="1.44236">
        <ele>839</ele>
        <time>2020-11-29T08:14:11Z</time>
      </trkpt>
      <trkpt lat="43.56667" lon="1.44222">
        <ele>838</ele>
        <time>2020-11-29T08:14:15Z</time>
      </trkpt>
      <trkpt lat="43.56656" lon="1.44225">
        <ele>836</ele>
        <time>2020-11-29T08:14:23Z</time>
      </trkpt>
      <trkpt lat="43.56647" lon="1.44229">
        <ele>836</ele>
        <time>2020-11-29T08:14:27Z</time>
      </trkpt>
      <trkpt lat="43.56638" lon="1.44237">
        <ele>836</ele>
        <time>2020-11-29T08:14:31Z</time>
      </trkpt>
      <trkpt lat="43.56628" lon="1.44245">
        <ele>836</ele>
        <time>2020-11-29T08:14:35Z</time>
      </trkpt>
      <trkpt lat="43.56618" lon="1.44252">
        <ele>835</ele>
        <time>2020-11-29T08:14:39Z</time>
      </trkpt>
      <trkpt lat="43.56607" lon="1.44257">
        <ele>834</ele>
        <time>2020-11-29T08:14:43Z</time>
      </trkpt>
      <trkpt lat="43.56599" lon="1.44262">
        <ele>833</ele>
        <time>2020-11-29T08:14:46Z</time>
      </trkpt>
      <trkpt lat="43.56592" lon="1.44273">
        <ele>832</ele>
        <time>2020-11-29T08:14:49Z</time>
      </trkpt>
      <trkpt lat="43.56583" lon="1.4428">
        <ele>831</ele>
        <time>2020-11-29T08:14:53Z</time>
      </trkpt>
      <trkpt lat="43.56573" lon="1.44289">
        <ele>831</ele>
        <time>2020-11-29T08:14:57Z</time>
      </trkpt>
      <trkpt lat="43.56563" lon="1.44296">
        <ele>831</ele>
        <time>2020-11-29T08:15:00Z</time>
      </trkpt>
      <trkpt lat="43.56555" lon="1.44304">
        <ele>831</ele>
        <time>2020-11-29T08:15:04Z</time>
      </trkpt>
      <trkpt lat="43.56544" lon="1.44309">
        <ele>831</ele>
        <time>2020-11-29T08:15:08Z</time>
      </trkpt>
      <trkpt lat="43.56541" lon="1.44309">
        <ele>831</ele>
        <time>2020-11-29T08:15:09Z</time>
      </trkpt>
      <trkpt lat="43.56538" lon="1.44309">
        <ele>830</ele>
        <time>2020-11-29T08:15:10Z</time>
      </trkpt>
      <trkpt lat="43.56534" lon="1.4431">
        <ele>829</ele>
        <time>2020-11-29T08:15:11Z</time>
      </trkpt>
      <trkpt lat="43.56531" lon="1.4431">
        <ele>829</ele>
        <time>2020-11-29T08:15:12Z</time>
      </trkpt>
      <trkpt lat="43.56522" lon="1.44311">
        <ele>827</ele>
        <time>2020-11-29T08:15:16Z</time>
      </trkpt>
      <trkpt lat="43.56511" lon="1.44314">
        <ele>826</ele>
        <time>2020-11-29T08:15:20Z</time>
      </trkpt>
      <trkpt lat="43.56509" lon="1.44314">
        <ele>825</ele>
        <time>2020-11-29T08:15:21Z</time>
      </trkpt>
      <trkpt lat="43.56506" lon="1.44315">
        <ele>825</ele>
        <time>2020-11-29T08:15:22Z</time>
      </trkpt>
      <trkpt lat="43.56503" lon="1.44316">
        <ele>825</ele>
        <time>2020-11-29T08:15:23Z</time>
      </trkpt>
      <trkpt lat="43.56501" lon="1.44317">
        <ele>824</ele>
        <time>2020-11-29T08:15:24Z</time>
      </trkpt>
      <trkpt lat="43.5649" lon="1.44322">
        <ele>824</ele>
        <time>2020-11-29T08:15:28Z</time>
      </trkpt>
      <trkpt lat="43.56481" lon="1.44327">
        <ele>824</ele>
        <time>2020-11-29T08:15:32Z</time>
      </trkpt>
      <trkpt lat="43.56472" lon="1.44331">
        <ele>823</ele>
        <time>2020-11-29T08:15:35Z</time>
      </trkpt>
      <trkpt lat="43.56467" lon="1.44334">
        <ele>823</ele>
        <time>2020-11-29T08:15:37Z</time>
      </trkpt>
      <trkpt lat="43.56464" lon="1.44336">
        <ele>823</ele>
        <time>2020-11-29T08:15:38Z</time>
      </trkpt>
      <trkpt lat="43.56462" lon="1.44337">
        <ele>823</ele>
        <time>2020-11-29T08:15:39Z</time>
      </trkpt>
      <trkpt lat="43.56452" lon="1.44341">
        <ele>822</ele>
        <time>2020-11-29T08:15:43Z</time>
      </trkpt>
      <trkpt lat="43.56441" lon="1.44346">
        <ele>821</ele>
        <time>2020-11-29T08:15:47Z</time>
      </trkpt>
      <trkpt lat="43.56432" lon="1.44351">
        <ele>821</ele>
        <time>2020-11-29T08:15:51Z</time>
      </trkpt>
      <trkpt lat="43.56421" lon="1.44354">
        <ele>820</ele>
        <time>2020-11-29T08:15:55Z</time>
      </trkpt>
      <trkpt lat="43.5641" lon="1.44357">
        <ele>818</ele>
        <time>2020-11-29T08:15:59Z</time>
      </trkpt>
      <trkpt lat="43.564" lon="1.4436">
        <ele>817</ele>
        <time>2020-11-29T08:16:03Z</time>
      </trkpt>
      <trkpt lat="43.56389" lon="1.44364">
        <ele>816</ele>
        <time>2020-11-29T08:16:07Z</time>
      </trkpt>
      <trkpt lat="43.56379" lon="1.4437">
        <ele>816</ele>
        <time>2020-11-29T08:16:12Z</time>
      </trkpt>
      <trkpt lat="43.56376" lon="1.4437">
        <ele>816</ele>
        <time>2020-11-29T08:16:13Z</time>
      </trkpt>
      <trkpt lat="43.56373" lon="1.44369">
        <ele>816</ele>
        <time>2020-11-29T08:16:14Z</time>
      </trkpt>
      <trkpt lat="43.56371" lon="1.4437">
        <ele>815</ele>
        <time>2020-11-29T08:16:15Z</time>
      </trkpt>
      <trkpt lat="43.56363" lon="1.44378">
        <ele>815</ele>
        <time>2020-11-29T08:16:19Z</time>
      </trkpt>
      <trkpt lat="43.56359" lon="1.4439">
        <ele>816</ele>
        <time>2020-11-29T08:16:23Z</time>
      </trkpt>
      <trkpt lat="43.56354" lon="1.44401">
        <ele>817</ele>
        <time>2020-11-29T08:16:27Z</time>
      </trkpt>
      <trkpt lat="43.56348" lon="1.44412">
        <ele>818</ele>
        <time>2020-11-29T08:16:31Z</time>
      </trkpt>
      <trkpt lat="43.56341" lon="1.44422">
        <ele>819</ele>
        <time>2020-11-29T08:16:35Z</time>
      </trkpt>
      <trkpt lat="43.56335" lon="1.44434">
        <ele>820</ele>
        <time>2020-11-29T08:16:40Z</time>
      </trkpt>
      <trkpt lat="43.56329" lon="1.44445">
        <ele>821</ele>
        <time>2020-11-29T08:16:44Z</time>
      </trkpt>
      <trkpt lat="43.56322" lon="1.44456">
        <ele>823</ele>
        <time>2020-11-29T08:16:49Z</time>
      </trkpt>
      <trkpt lat="43.56316" lon="1.44468">
        <ele>823</ele>
        <time>2020-11-29T08:16:54Z</time>
      </trkpt>
      <trkpt lat="43.56309" lon="1.44479">
        <ele>825</ele>
        <time>2020-11-29T08:16:59Z</time>
      </trkpt>
      <trkpt lat="43.56301" lon="1.44489">
        <ele>826</ele>
        <time>2020-11-29T08:17:04Z</time>
      </trkpt>
      <trkpt lat="43.56295" lon="1.44497">
        <ele>828</ele>
        <time>2020-11-29T08:17:08Z</time>
      </trkpt>
      <trkpt lat="43.5629" lon="1.44509">
        <ele>830</ele>
        <time>2020-11-29T08:17:13Z</time>
      </trkpt>
      <trkpt lat="43.56288" lon="1.44512">
        <ele>830</ele>
        <time>2020-11-29T08:17:14Z</time>
      </trkpt>
      <trkpt lat="43.56287" lon="1.44514">
        <ele>830</ele>
        <time>2020-11-29T08:17:15Z</time>
      </trkpt>
      <trkpt lat="43.56279" lon="1.44525">
        <ele>832</ele>
        <time>2020-11-29T08:17:20Z</time>
      </trkpt>
      <trkpt lat="43.56271" lon="1.44535">
        <ele>833</ele>
        <time>2020-11-29T08:17:25Z</time>
      </trkpt>
      <trkpt lat="43.56263" lon="1.44541">
        <ele>835</ele>
        <time>2020-11-29T08:17:29Z</time>
      </trkpt>
      <trkpt lat="43.56253" lon="1.44536">
        <ele>835</ele>
        <time>2020-11-29T08:17:33Z</time>
      </trkpt>
      <trkpt lat="43.56244" lon="1.44532">
        <ele>836</ele>
        <time>2020-11-29T08:17:38Z</time>
      </trkpt>
      <trkpt lat="43.56234" lon="1.44539">
        <ele>838</ele>
        <time>2020-11-29T08:17:43Z</time>
      </trkpt>
      <trkpt lat="43.56227" lon="1.44548">
        <ele>839</ele>
        <time>2020-11-29T08:17:48Z</time>
      </trkpt>
      <trkpt lat="43.56219" lon="1.44557">
        <ele>840</ele>
        <time>2020-11-29T08:17:52Z</time>
      </trkpt>
      <trkpt lat="43.56209" lon="1.4456">
        <ele>841</ele>
        <time>2020-11-29T08:17:57Z</time>
      </trkpt>
      <trkpt lat="43.562" lon="1.44558">
        <ele>843</ele>
        <time>2020-11-29T08:18:02Z</time>
      </trkpt>
      <trkpt lat="43.56192" lon="1.44547">
        <ele>845</ele>
        <time>2020-11-29T08:18:07Z</time>
      </trkpt>
      <trkpt lat="43.56187" lon="1.44538">
        <ele>845</ele>
        <time>2020-11-29T08:18:11Z</time>
      </trkpt>
      <trkpt lat="43.56186" lon="1.44528">
        <ele>845</ele>
        <time>2020-11-29T08:18:15Z</time>
      </trkpt>
      <trkpt lat="43.56187" lon="1.44524">
        <ele>845</ele>
        <time>2020-11-29T08:18:16Z</time>
      </trkpt>
      <trkpt lat="43.56188" lon="1.44521">
        <ele>845</ele>
        <time>2020-11-29T08:18:17Z</time>
      </trkpt>
      <trkpt lat="43.5619" lon="1.44518">
        <ele>845</ele>
        <time>2020-11-29T08:18:18Z</time>
      </trkpt>
      <trkpt lat="43.56191" lon="1.44515">
        <ele>845</ele>
        <time>2020-11-29T08:18:19Z</time>
      </trkpt>
      <trkpt lat="43.56192" lon="1.44512">
        <ele>844</ele>
        <time>2020-11-29T08:18:20Z</time>
      </trkpt>
      <trkpt lat="43.56193" lon="1.44509">
        <ele>843</ele>
        <time>2020-11-29T08:18:21Z</time>
      </trkpt>
      <trkpt lat="43.56193" lon="1.44503">
        <ele>843</ele>
        <time>2020-11-29T08:18:23Z</time>
      </trkpt>
      <trkpt lat="43.56194" lon="1.445">
        <ele>843</ele>
        <time>2020-11-29T08:18:24Z</time>
      </trkpt>
      <trkpt lat="43.56188" lon="1.44487">
        <ele>842</ele>
        <time>2020-11-29T08:18:29Z</time>
      </trkpt>
      <trkpt lat="43.56185" lon="1.44484">
        <ele>842</ele>
        <time>2020-11-29T08:18:31Z</time>
      </trkpt>
      <trkpt lat="43.56184" lon="1.44481">
        <ele>842</ele>
        <time>2020-11-29T08:18:32Z</time>
      </trkpt>
      <trkpt lat="43.56183" lon="1.44479">
        <ele>842</ele>
        <time>2020-11-29T08:18:33Z</time>
      </trkpt>
      <trkpt lat="43.56181" lon="1.44477">
        <ele>842</ele>
        <time>2020-11-29T08:18:34Z</time>
      </trkpt>
      <trkpt lat="43.5618" lon="1.44475">
        <ele>842</ele>
        <time>2020-11-29T08:18:35Z</time>
      </trkpt>
      <trkpt lat="43.56178" lon="1.44473">
        <ele>842</ele>
        <time>2020-11-29T08:18:36Z</time>
      </trkpt>
      <trkpt lat="43.56176" lon="1.44471">
        <ele>842</ele>
        <time>2020-11-29T08:18:37Z</time>
      </trkpt>
      <trkpt lat="43.56175" lon="1.44468">
        <ele>842</ele>
        <time>2020-11-29T08:18:38Z</time>
      </trkpt>
      <trkpt lat="43.56173" lon="1.44466">
        <ele>842</ele>
        <time>2020-11-29T08:18:39Z</time>
      </trkpt>
      <trkpt lat="43.56172" lon="1.44464">
        <ele>842</ele>
        <time>2020-11-29T08:18:40Z</time>
      </trkpt>
      <trkpt lat="43.5617" lon="1.44462">
        <ele>842</ele>
        <time>2020-11-29T08:18:41Z</time>
      </trkpt>
      <trkpt lat="43.56169" lon="1.4446">
        <ele>842</ele>
        <time>2020-11-29T08:18:42Z</time>
      </trkpt>
      <trkpt lat="43.56167" lon="1.44458">
        <ele>842</ele>
        <time>2020-11-29T08:18:43Z</time>
      </trkpt>
      <trkpt lat="43.56165" lon="1.44455">
        <ele>842</ele>
        <time>2020-11-29T08:18:44Z</time>
      </trkpt>
      <trkpt lat="43.56163" lon="1.44453">
        <ele>842</ele>
        <time>2020-11-29T08:18:45Z</time>
      </trkpt>
      <trkpt lat="43.56162" lon="1.4445">
        <ele>842</ele>
        <time>2020-11-29T08:18:46Z</time>
      </trkpt>
      <trkpt lat="43.5616" lon="1.44448">
        <ele>842</ele>
        <time>2020-11-29T08:18:47Z</time>
      </trkpt>
      <trkpt lat="43.56158" lon="1.44445">
        <ele>842</ele>
        <time>2020-11-29T08:18:48Z</time>
      </trkpt>
      <trkpt lat="43.56156" lon="1.44443">
        <ele>842</ele>
        <time>2020-11-29T08:18:49Z</time>
      </trkpt>
      <trkpt lat="43.56154" lon="1.4444">
        <ele>842</ele>
        <time>2020-11-29T08:18:50Z</time>
      </trkpt>
      <trkpt lat="43.56153" lon="1.44438">
        <ele>842</ele>
        <time>2020-11-29T08:18:51Z</time>
      </trkpt>
      <trkpt lat="43.56151" lon="1.44435">
        <ele>842</ele>
        <time>2020-11-29T08:18:52Z</time>
      </trkpt>
      <trkpt lat="43.56149" lon="1.44433">
        <ele>842</ele>
        <time>2020-11-29T08:18:53Z</time>
      </trkpt>
      <trkpt lat="43.56148" lon="1.4443">
        <ele>842</ele>
        <time>2020-11-29T08:18:54Z</time>
      </trkpt>
      <trkpt lat="43.56146" lon="1.44428">
        <ele>842</ele>
        <time>2020-11-29T08:18:55Z</time>
      </trkpt>
      <trkpt lat="43.56145" lon="1.44425">
        <ele>842</ele>
        <time>2020-11-29T08:18:56Z</time>
      </trkpt>
      <trkpt lat="43.56143" lon="1.44423">
        <ele>842</ele>
        <time>2020-11-29T08:18:57Z</time>
      </trkpt>
      <trkpt lat="43.56142" lon="1.4442">
        <ele>842</ele>
        <time>2020-11-29T08:18:58Z</time>
      </trkpt>
      <trkpt lat="43.5614" lon="1.44418">
        <ele>842</ele>
        <time>2020-11-29T08:18:59Z</time>
      </trkpt>
      <trkpt lat="43.56138" lon="1.44415">
        <ele>842</ele>
        <time>2020-11-29T08:19:00Z</time>
      </trkpt>
      <trkpt lat="43.56137" lon="1.44412">
        <ele>842</ele>
        <time>2020-11-29T08:19:01Z</time>
      </trkpt>
      <trkpt lat="43.56136" lon="1.44409">
        <ele>842</ele>
        <time>2020-11-29T08:19:02Z</time>
      </trkpt>
      <trkpt lat="43.56134" lon="1.44407">
        <ele>842</ele>
        <time>2020-11-29T08:19:03Z</time>
      </trkpt>
      <trkpt lat="43.56132" lon="1.44404">
        <ele>842</ele>
        <time>2020-11-29T08:19:04Z</time>
      </trkpt>
      <trkpt lat="43.5613" lon="1.44402">
        <ele>841</ele>
        <time>2020-11-29T08:19:05Z</time>
      </trkpt>
      <trkpt lat="43.56128" lon="1.44399">
        <ele>842</ele>
        <time>2020-11-29T08:19:06Z</time>
      </trkpt>
      <trkpt lat="43.56127" lon="1.44396">
        <ele>842</ele>
        <time>2020-11-29T08:19:07Z</time>
      </trkpt>
      <trkpt lat="43.56125" lon="1.44394">
        <ele>842</ele>
        <time>2020-11-29T08:19:08Z</time>
      </trkpt>
      <trkpt lat="43.56124" lon="1.44391">
        <ele>842</ele>
        <time>2020-11-29T08:19:09Z</time>
      </trkpt>
      <trkpt lat="43.56123" lon="1.44388">
        <ele>842</ele>
        <time>2020-11-29T08:19:10Z</time>
      </trkpt>
      <trkpt lat="43.56121" lon="1.44387">
        <ele>841</ele>
        <time>2020-11-29T08:19:11Z</time>
      </trkpt>
      <trkpt lat="43.56119" lon="1.44385">
        <ele>841</ele>
        <time>2020-11-29T08:19:12Z</time>
      </trkpt>
      <trkpt lat="43.56117" lon="1.44383">
        <ele>842</ele>
        <time>2020-11-29T08:19:13Z</time>
      </trkpt>
      <trkpt lat="43.56115" lon="1.44379">
        <ele>843</ele>
        <time>2020-11-29T08:19:15Z</time>
      </trkpt>
      <trkpt lat="43.56113" lon="1.44377">
        <ele>844</ele>
        <time>2020-11-29T08:19:16Z</time>
      </trkpt>
      <trkpt lat="43.56112" lon="1.44375">
        <ele>844</ele>
        <time>2020-11-29T08:19:17Z</time>
      </trkpt>
      <trkpt lat="43.56111" lon="1.44373">
        <ele>845</ele>
        <time>2020-11-29T08:19:18Z</time>
      </trkpt>
      <trkpt lat="43.5611" lon="1.44371">
        <ele>846</ele>
        <time>2020-11-29T08:19:19Z</time>
      </trkpt>
      <trkpt lat="43.5611" lon="1.44369">
        <ele>846</ele>
        <time>2020-11-29T08:19:20Z</time>
      </trkpt>
      <trkpt lat="43.5611" lon="1.44366">
        <ele>847</ele>
        <time>2020-11-29T08:19:21Z</time>
      </trkpt>
      <trkpt lat="43.56109" lon="1.44363">
        <ele>847</ele>
        <time>2020-11-29T08:19:22Z</time>
      </trkpt>
      <trkpt lat="43.56108" lon="1.44361">
        <ele>848</ele>
        <time>2020-11-29T08:19:23Z</time>
      </trkpt>
      <trkpt lat="43.56106" lon="1.44359">
        <ele>849</ele>
        <time>2020-11-29T08:19:25Z</time>
      </trkpt>
      <trkpt lat="43.56103" lon="1.44358">
        <ele>850</ele>
        <time>2020-11-29T08:19:27Z</time>
      </trkpt>
      <trkpt lat="43.561" lon="1.44356">
        <ele>850</ele>
        <time>2020-11-29T08:19:29Z</time>
      </trkpt>
      <trkpt lat="43.56097" lon="1.44355">
        <ele>850</ele>
        <time>2020-11-29T08:19:31Z</time>
      </trkpt>
      <trkpt lat="43.56095" lon="1.44356">
        <ele>852</ele>
        <time>2020-11-29T08:19:33Z</time>
      </trkpt>
      <trkpt lat="43.56092" lon="1.44356">
        <ele>853</ele>
        <time>2020-11-29T08:19:35Z</time>
      </trkpt>
      <trkpt lat="43.5609" lon="1.44356">
        <ele>854</ele>
        <time>2020-11-29T08:19:36Z</time>
      </trkpt>
      <trkpt lat="43.56088" lon="1.44355">
        <ele>854</ele>
        <time>2020-11-29T08:19:37Z</time>
      </trkpt>
      <trkpt lat="43.56085" lon="1.44353">
        <ele>855</ele>
        <time>2020-11-29T08:19:39Z</time>
      </trkpt>
      <trkpt lat="43.56083" lon="1.44352">
        <ele>856</ele>
        <time>2020-11-29T08:19:41Z</time>
      </trkpt>
      <trkpt lat="43.56081" lon="1.44351">
        <ele>857</ele>
        <time>2020-11-29T08:19:42Z</time>
      </trkpt>
      <trkpt lat="43.56077" lon="1.44353">
        <ele>858</ele>
        <time>2020-11-29T08:19:44Z</time>
      </trkpt>
      <trkpt lat="43.56075" lon="1.44355">
        <ele>858</ele>
        <time>2020-11-29T08:19:46Z</time>
      </trkpt>
      <trkpt lat="43.56073" lon="1.44358">
        <ele>859</ele>
        <time>2020-11-29T08:19:48Z</time>
      </trkpt>
      <trkpt lat="43.56072" lon="1.44361">
        <ele>859</ele>
        <time>2020-11-29T08:19:49Z</time>
      </trkpt>
      <trkpt lat="43.56071" lon="1.44364">
        <ele>859</ele>
        <time>2020-11-29T08:19:50Z</time>
      </trkpt>
      <trkpt lat="43.5607" lon="1.44367">
        <ele>859</ele>
        <time>2020-11-29T08:19:51Z</time>
      </trkpt>
      <trkpt lat="43.5607" lon="1.4437">
        <ele>858</ele>
        <time>2020-11-29T08:19:52Z</time>
      </trkpt>
      <trkpt lat="43.56069" lon="1.44373">
        <ele>859</ele>
        <time>2020-11-29T08:19:53Z</time>
      </trkpt>
      <trkpt lat="43.56069" lon="1.44376">
        <ele>859</ele>
        <time>2020-11-29T08:19:54Z</time>
      </trkpt>
      <trkpt lat="43.56067" lon="1.4438">
        <ele>859</ele>
        <time>2020-11-29T08:19:56Z</time>
      </trkpt>
      <trkpt lat="43.56066" lon="1.44383">
        <ele>859</ele>
        <time>2020-11-29T08:19:58Z</time>
      </trkpt>
      <trkpt lat="43.56064" lon="1.44385">
        <ele>859</ele>
        <time>2020-11-29T08:20:00Z</time>
      </trkpt>
      <trkpt lat="43.56062" lon="1.44387">
        <ele>859</ele>
        <time>2020-11-29T08:20:03Z</time>
      </trkpt>
      <trkpt lat="43.56061" lon="1.44389">
        <ele>859</ele>
        <time>2020-11-29T08:21:04Z</time>
      </trkpt>
      <trkpt lat="43.56061" lon="1.44393">
        <ele>859</ele>
        <time>2020-11-29T08:21:06Z</time>
      </trkpt>
      <trkpt lat="43.5606" lon="1.44396">
        <ele>859</ele>
        <time>2020-11-29T08:21:08Z</time>
      </trkpt>
      <trkpt lat="43.56059" lon="1.44399">
        <ele>859</ele>
        <time>2020-11-29T08:21:10Z</time>
      </trkpt>
      <trkpt lat="43.56058" lon="1.44402">
        <ele>859</ele>
        <time>2020-11-29T08:21:12Z</time>
      </trkpt>
      <trkpt lat="43.56057" lon="1.44404">
        <ele>859</ele>
        <time>2020-11-29T08:21:14Z</time>
      </trkpt>
      <trkpt lat="43.56056" lon="1.44406">
        <ele>858</ele>
        <time>2020-11-29T08:21:19Z</time>
      </trkpt>
      <trkpt lat="43.56054" lon="1.44409">
        <ele>858</ele>
        <time>2020-11-29T08:21:20Z</time>
      </trkpt>
      <trkpt lat="43.56053" lon="1.44411">
        <ele>858</ele>
        <time>2020-11-29T08:21:21Z</time>
      </trkpt>
      <trkpt lat="43.56051" lon="1.44413">
        <ele>858</ele>
        <time>2020-11-29T08:21:22Z</time>
      </trkpt>
      <trkpt lat="43.56049" lon="1.44415">
        <ele>858</ele>
        <time>2020-11-29T08:21:23Z</time>
      </trkpt>
      <trkpt lat="43.56047" lon="1.44417">
        <ele>859</ele>
        <time>2020-11-29T08:21:24Z</time>
      </trkpt>
      <trkpt lat="43.56045" lon="1.44419">
        <ele>859</ele>
        <time>2020-11-29T08:21:25Z</time>
      </trkpt>
      <trkpt lat="43.56043" lon="1.44421">
        <ele>859</ele>
        <time>2020-11-29T08:21:26Z</time>
      </trkpt>
      <trkpt lat="43.56041" lon="1.44424">
        <ele>859</ele>
        <time>2020-11-29T08:21:27Z</time>
      </trkpt>
      <trkpt lat="43.56039" lon="1.44426">
        <ele>859</ele>
        <time>2020-11-29T08:21:28Z</time>
      </trkpt>
      <trkpt lat="43.56037" lon="1.44429">
        <ele>859</ele>
        <time>2020-11-29T08:21:29Z</time>
      </trkpt>
      <trkpt lat="43.56035" lon="1.44431">
        <ele>859</ele>
        <time>2020-11-29T08:21:30Z</time>
      </trkpt>
      <trkpt lat="43.56033" lon="1.44434">
        <ele>859</ele>
        <time>2020-11-29T08:21:31Z</time>
      </trkpt>
      <trkpt lat="43.56031" lon="1.44436">
        <ele>859</ele>
        <time>2020-11-29T08:21:32Z</time>
      </trkpt>
      <trkpt lat="43.56028" lon="1.44438">
        <ele>860</ele>
        <time>2020-11-29T08:21:33Z</time>
      </trkpt>
      <trkpt lat="43.56026" lon="1.44441">
        <ele>860</ele>
        <time>2020-11-29T08:21:34Z</time>
      </trkpt>
      <trkpt lat="43.56024" lon="1.44443">
        <ele>860</ele>
        <time>2020-11-29T08:21:35Z</time>
      </trkpt>
      <trkpt lat="43.56022" lon="1.44445">
        <ele>861</ele>
        <time>2020-11-29T08:21:36Z</time>
      </trkpt>
      <trkpt lat="43.5602" lon="1.44447">
        <ele>862</ele>
        <time>2020-11-29T08:21:37Z</time>
      </trkpt>
      <trkpt lat="43.56018" lon="1.4445">
        <ele>862</ele>
        <time>2020-11-29T08:21:38Z</time>
      </trkpt>
      <trkpt lat="43.56016" lon="1.44453">
        <ele>862</ele>
        <time>2020-11-29T08:21:39Z</time>
      </trkpt>
      <trkpt lat="43.56015" lon="1.44455">
        <ele>862</ele>
        <time>2020-11-29T08:21:40Z</time>
      </trkpt>
      <trkpt lat="43.56013" lon="1.44457">
        <ele>862</ele>
        <time>2020-11-29T08:21:41Z</time>
      </trkpt>
      <trkpt lat="43.56011" lon="1.44459">
        <ele>862</ele>
        <time>2020-11-29T08:21:42Z</time>
      </trkpt>
      <trkpt lat="43.56009" lon="1.44461">
        <ele>863</ele>
        <time>2020-11-29T08:21:43Z</time>
      </trkpt>
      <trkpt lat="43.56007" lon="1.44463">
        <ele>864</ele>
        <time>2020-11-29T08:21:44Z</time>
      </trkpt>
      <trkpt lat="43.56005" lon="1.44465">
        <ele>865</ele>
        <time>2020-11-29T08:21:45Z</time>
      </trkpt>
      <trkpt lat="43.56003" lon="1.44467">
        <ele>865</ele>
        <time>2020-11-29T08:21:46Z</time>
      </trkpt>
      <trkpt lat="43.56001" lon="1.44469">
        <ele>866</ele>
        <time>2020-11-29T08:21:47Z</time>
      </trkpt>
      <trkpt lat="43.55999" lon="1.44471">
        <ele>866</ele>
        <time>2020-11-29T08:21:48Z</time>
      </trkpt>
      <trkpt lat="43.55998" lon="1.44473">
        <ele>867</ele>
        <time>2020-11-29T08:21:49Z</time>
      </trkpt>
      <trkpt lat="43.55996" lon="1.44476">
        <ele>867</ele>
        <time>2020-11-29T08:21:50Z</time>
      </trkpt>
      <trkpt lat="43.55994" lon="1.44477">
        <ele>867</ele>
        <time>2020-11-29T08:21:51Z</time>
      </trkpt>
      <trkpt lat="43.55993" lon="1.4448">
        <ele>867</ele>
        <time>2020-11-29T08:21:52Z</time>
      </trkpt>
      <trkpt lat="43.55992" lon="1.44482">
        <ele>868</ele>
        <time>2020-11-29T08:21:53Z</time>
      </trkpt>
      <trkpt lat="43.5599" lon="1.44485">
        <ele>868</ele>
        <time>2020-11-29T08:21:54Z</time>
      </trkpt>
      <trkpt lat="43.55989" lon="1.44488">
        <ele>868</ele>
        <time>2020-11-29T08:21:55Z</time>
      </trkpt>
      <trkpt lat="43.55987" lon="1.4449">
        <ele>868</ele>
        <time>2020-11-29T08:21:56Z</time>
      </trkpt>
      <trkpt lat="43.55985" lon="1.44493">
        <ele>868</ele>
        <time>2020-11-29T08:21:57Z</time>
      </trkpt>
      <trkpt lat="43.55984" lon="1.44496">
        <ele>868</ele>
        <time>2020-11-29T08:21:58Z</time>
      </trkpt>
      <trkpt lat="43.55982" lon="1.44498">
        <ele>869</ele>
        <time>2020-11-29T08:21:59Z</time>
      </trkpt>
      <trkpt lat="43.5598" lon="1.44499">
        <ele>869</ele>
        <time>2020-11-29T08:22:00Z</time>
      </trkpt>
      <trkpt lat="43.55978" lon="1.44501">
        <ele>869</ele>
        <time>2020-11-29T08:22:01Z</time>
      </trkpt>
      <trkpt lat="43.55977" lon="1.44503">
        <ele>869</ele>
        <time>2020-11-29T08:22:02Z</time>
      </trkpt>
      <trkpt lat="43.55975" lon="1.44505">
        <ele>870</ele>
        <time>2020-11-29T08:22:03Z</time>
      </trkpt>
      <trkpt lat="43.55972" lon="1.44509">
        <ele>872</ele>
        <time>2020-11-29T08:22:05Z</time>
      </trkpt>
      <trkpt lat="43.5597" lon="1.44511">
        <ele>872</ele>
        <time>2020-11-29T08:22:06Z</time>
      </trkpt>
      <trkpt lat="43.55968" lon="1.44513">
        <ele>873</ele>
        <time>2020-11-29T08:22:07Z</time>
      </trkpt>
      <trkpt lat="43.55967" lon="1.44515">
        <ele>873</ele>
        <time>2020-11-29T08:22:08Z</time>
      </trkpt>
      <trkpt lat="43.55965" lon="1.44517">
        <ele>873</ele>
        <time>2020-11-29T08:22:09Z</time>
      </trkpt>
      <trkpt lat="43.55963" lon="1.44519">
        <ele>873</ele>
        <time>2020-11-29T08:22:10Z</time>
      </trkpt>
      <trkpt lat="43.55961" lon="1.4452">
        <ele>873</ele>
        <time>2020-11-29T08:22:11Z</time>
      </trkpt>
      <trkpt lat="43.55959" lon="1.44521">
        <ele>873</ele>
        <time>2020-11-29T08:22:12Z</time>
      </trkpt>
      <trkpt lat="43.55957" lon="1.44523">
        <ele>873</ele>
        <time>2020-11-29T08:22:13Z</time>
      </trkpt>
      <trkpt lat="43.55956" lon="1.44525">
        <ele>874</ele>
        <time>2020-11-29T08:22:14Z</time>
      </trkpt>
      <trkpt lat="43.55954" lon="1.44527">
        <ele>874</ele>
        <time>2020-11-29T08:22:15Z</time>
      </trkpt>
      <trkpt lat="43.55952" lon="1.44529">
        <ele>875</ele>
        <time>2020-11-29T08:22:16Z</time>
      </trkpt>
      <trkpt lat="43.55951" lon="1.44531">
        <ele>875</ele>
        <time>2020-11-29T08:22:17Z</time>
      </trkpt>
      <trkpt lat="43.55949" lon="1.44533">
        <ele>876</ele>
        <time>2020-11-29T08:22:18Z</time>
      </trkpt>
      <trkpt lat="43.55947" lon="1.44535">
        <ele>876</ele>
        <time>2020-11-29T08:22:19Z</time>
      </trkpt>
      <trkpt lat="43.55945" lon="1.44537">
        <ele>876</ele>
        <time>2020-11-29T08:22:20Z</time>
      </trkpt>
      <trkpt lat="43.55943" lon="1.44538">
        <ele>876</ele>
        <time>2020-11-29T08:22:21Z</time>
      </trkpt>
      <trkpt lat="43.55941" lon="1.4454">
        <ele>876</ele>
        <time>2020-11-29T08:22:22Z</time>
      </trkpt>
      <trkpt lat="43.55938" lon="1.44542">
        <ele>876</ele>
        <time>2020-11-29T08:22:23Z</time>
      </trkpt>
      <trkpt lat="43.55936" lon="1.44543">
        <ele>877</ele>
        <time>2020-11-29T08:22:24Z</time>
      </trkpt>
      <trkpt lat="43.55934" lon="1.44544">
        <ele>877</ele>
        <time>2020-11-29T08:22:25Z</time>
      </trkpt>
      <trkpt lat="43.55932" lon="1.44545">
        <ele>877</ele>
        <time>2020-11-29T08:22:26Z</time>
      </trkpt>
      <trkpt lat="43.5593" lon="1.44545">
        <ele>877</ele>
        <time>2020-11-29T08:22:27Z</time>
      </trkpt>
      <trkpt lat="43.55928" lon="1.44546">
        <ele>877</ele>
        <time>2020-11-29T08:22:28Z</time>
      </trkpt>
      <trkpt lat="43.55925" lon="1.44546">
        <ele>877</ele>
        <time>2020-11-29T08:22:29Z</time>
      </trkpt>
      <trkpt lat="43.55923" lon="1.44546">
        <ele>877</ele>
        <time>2020-11-29T08:22:30Z</time>
      </trkpt>
      <trkpt lat="43.5592" lon="1.44546">
        <ele>877</ele>
        <time>2020-11-29T08:22:31Z</time>
      </trkpt>
      <trkpt lat="43.55918" lon="1.44547">
        <ele>877</ele>
        <time>2020-11-29T08:22:32Z</time>
      </trkpt>
      <trkpt lat="43.55916" lon="1.44548">
        <ele>877</ele>
        <time>2020-11-29T08:22:33Z</time>
      </trkpt>
      <trkpt lat="43.55913" lon="1.44549">
        <ele>877</ele>
        <time>2020-11-29T08:22:34Z</time>
      </trkpt>
      <trkpt lat="43.55911" lon="1.44551">
        <ele>877</ele>
        <time>2020-11-29T08:22:35Z</time>
      </trkpt>
      <trkpt lat="43.55909" lon="1.44553">
        <ele>878</ele>
        <time>2020-11-29T08:22:36Z</time>
      </trkpt>
      <trkpt lat="43.55907" lon="1.44554">
        <ele>878</ele>
        <time>2020-11-29T08:22:37Z</time>
      </trkpt>
      <trkpt lat="43.55904" lon="1.44556">
        <ele>878</ele>
        <time>2020-11-29T08:22:38Z</time>
      </trkpt>
      <trkpt lat="43.55902" lon="1.44557">
        <ele>878</ele>
        <time>2020-11-29T08:22:39Z</time>
      </trkpt>
      <trkpt lat="43.559" lon="1.44559">
        <ele>878</ele>
        <time>2020-11-29T08:22:40Z</time>
      </trkpt>
      <trkpt lat="43.55898" lon="1.44561">
        <ele>878</ele>
        <time>2020-11-29T08:22:41Z</time>
      </trkpt>
      <trkpt lat="43.55895" lon="1.44562">
        <ele>878</ele>
        <time>2020-11-29T08:22:42Z</time>
      </trkpt>
      <trkpt lat="43.55893" lon="1.44564">
        <ele>878</ele>
        <time>2020-11-29T08:22:43Z</time>
      </trkpt>
      <trkpt lat="43.55891" lon="1.44565">
        <ele>878</ele>
        <time>2020-11-29T08:22:44Z</time>
      </trkpt>
      <trkpt lat="43.55888" lon="1.44567">
        <ele>879</ele>
        <time>2020-11-29T08:22:45Z</time>
      </trkpt>
      <trkpt lat="43.55886" lon="1.44569">
        <ele>879</ele>
        <time>2020-11-29T08:22:46Z</time>
      </trkpt>
      <trkpt lat="43.55884" lon="1.44571">
        <ele>879</ele>
        <time>2020-11-29T08:22:47Z</time>
      </trkpt>
      <trkpt lat="43.55882" lon="1.44573">
        <ele>879</ele>
        <time>2020-11-29T08:22:48Z</time>
      </trkpt>
      <trkpt lat="43.5588" lon="1.44575">
        <ele>879</ele>
        <time>2020-11-29T08:22:49Z</time>
      </trkpt>
      <trkpt lat="43.55878" lon="1.44577">
        <ele>879</ele>
        <time>2020-11-29T08:22:50Z</time>
      </trkpt>
      <trkpt lat="43.55876" lon="1.44578">
        <ele>879</ele>
        <time>2020-11-29T08:22:51Z</time>
      </trkpt>
      <trkpt lat="43.55873" lon="1.44579">
        <ele>879</ele>
        <time>2020-11-29T08:22:52Z</time>
      </trkpt>
      <trkpt lat="43.55871" lon="1.4458">
        <ele>879</ele>
        <time>2020-11-29T08:22:53Z</time>
      </trkpt>
      <trkpt lat="43.55869" lon="1.44582">
        <ele>879</ele>
        <time>2020-11-29T08:22:54Z</time>
      </trkpt>
      <trkpt lat="43.55867" lon="1.44582">
        <ele>879</ele>
        <time>2020-11-29T08:22:55Z</time>
      </trkpt>
      <trkpt lat="43.55864" lon="1.44583">
        <ele>879</ele>
        <time>2020-11-29T08:22:56Z</time>
      </trkpt>
      <trkpt lat="43.55862" lon="1.44584">
        <ele>879</ele>
        <time>2020-11-29T08:22:57Z</time>
      </trkpt>
      <trkpt lat="43.55859" lon="1.44585">
        <ele>879</ele>
        <time>2020-11-29T08:22:58Z</time>
      </trkpt>
      <trkpt lat="43.55857" lon="1.44586">
        <ele>879</ele>
        <time>2020-11-29T08:22:59Z</time>
      </trkpt>
      <trkpt lat="43.55855" lon="1.44587">
        <ele>879</ele>
        <time>2020-11-29T08:23:00Z</time>
      </trkpt>
      <trkpt lat="43.55852" lon="1.44588">
        <ele>879</ele>
        <time>2020-11-29T08:23:01Z</time>
      </trkpt>
      <trkpt lat="43.5585" lon="1.44588">
        <ele>879</ele>
        <time>2020-11-29T08:23:02Z</time>
      </trkpt>
      <trkpt lat="43.55847" lon="1.44589">
        <ele>879</ele>
        <time>2020-11-29T08:23:03Z</time>
      </trkpt>
      <trkpt lat="43.55845" lon="1.4459">
        <ele>879</ele>
        <time>2020-11-29T08:23:04Z</time>
      </trkpt>
      <trkpt lat="43.55842" lon="1.4459">
        <ele>879</ele>
        <time>2020-11-29T08:23:05Z</time>
      </trkpt>
      <trkpt lat="43.5584" lon="1.4459">
        <ele>879</ele>
        <time>2020-11-29T08:23:06Z</time>
      </trkpt>
      <trkpt lat="43.55837" lon="1.44591">
        <ele>878</ele>
        <time>2020-11-29T08:23:07Z</time>
      </trkpt>
      <trkpt lat="43.55835" lon="1.44591">
        <ele>878</ele>
        <time>2020-11-29T08:23:08Z</time>
      </trkpt>
      <trkpt lat="43.55832" lon="1.44591">
        <ele>878</ele>
        <time>2020-11-29T08:23:09Z</time>
      </trkpt>
      <trkpt lat="43.5583" lon="1.44591">
        <ele>878</ele>
        <time>2020-11-29T08:23:10Z</time>
      </trkpt>
      <trkpt lat="43.55827" lon="1.44591">
        <ele>878</ele>
        <time>2020-11-29T08:23:11Z</time>
      </trkpt>
      <trkpt lat="43.55825" lon="1.44591">
        <ele>878</ele>
        <time>2020-11-29T08:23:12Z</time>
      </trkpt>
      <trkpt lat="43.55822" lon="1.44591">
        <ele>878</ele>
        <time>2020-11-29T08:23:13Z</time>
      </trkpt>
      <trkpt lat="43.55819" lon="1.44591">
        <ele>878</ele>
        <time>2020-11-29T08:23:14Z</time>
      </trkpt>
      <trkpt lat="43.55817" lon="1.44591">
        <ele>877</ele>
        <time>2020-11-29T08:23:15Z</time>
      </trkpt>
      <trkpt lat="43.55814" lon="1.4459">
        <ele>877</ele>
        <time>2020-11-29T08:23:16Z</time>
      </trkpt>
      <trkpt lat="43.55811" lon="1.4459">
        <ele>877</ele>
        <time>2020-11-29T08:23:17Z</time>
      </trkpt>
      <trkpt lat="43.55809" lon="1.44589">
        <ele>877</ele>
        <time>2020-11-29T08:23:18Z</time>
      </trkpt>
      <trkpt lat="43.55806" lon="1.44588">
        <ele>877</ele>
        <time>2020-11-29T08:23:19Z</time>
      </trkpt>
      <trkpt lat="43.55803" lon="1.44587">
        <ele>877</ele>
        <time>2020-11-29T08:23:20Z</time>
      </trkpt>
      <trkpt lat="43.55801" lon="1.44585">
        <ele>877</ele>
        <time>2020-11-29T08:23:21Z</time>
      </trkpt>
      <trkpt lat="43.55798" lon="1.44584">
        <ele>877</ele>
        <time>2020-11-29T08:23:22Z</time>
      </trkpt>
      <trkpt lat="43.55795" lon="1.44583">
        <ele>877</ele>
        <time>2020-11-29T08:23:23Z</time>
      </trkpt>
      <trkpt lat="43.55793" lon="1.44581">
        <ele>877</ele>
        <time>2020-11-29T08:23:24Z</time>
      </trkpt>
      <trkpt lat="43.55791" lon="1.4458">
        <ele>877</ele>
        <time>2020-11-29T08:23:25Z</time>
      </trkpt>
      <trkpt lat="43.55788" lon="1.4458">
        <ele>877</ele>
        <time>2020-11-29T08:23:26Z</time>
      </trkpt>
      <trkpt lat="43.55786" lon="1.44578">
        <ele>877</ele>
        <time>2020-11-29T08:23:27Z</time>
      </trkpt>
      <trkpt lat="43.55783" lon="1.44577">
        <ele>877</ele>
        <time>2020-11-29T08:23:28Z</time>
      </trkpt>
      <trkpt lat="43.55781" lon="1.44576">
        <ele>876</ele>
        <time>2020-11-29T08:23:29Z</time>
      </trkpt>
      <trkpt lat="43.55778" lon="1.44574">
        <ele>876</ele>
        <time>2020-11-29T08:23:30Z</time>
      </trkpt>
      <trkpt lat="43.55775" lon="1.44574">
        <ele>876</ele>
        <time>2020-11-29T08:23:31Z</time>
      </trkpt>
      <trkpt lat="43.55773" lon="1.44572">
        <ele>875</ele>
        <time>2020-11-29T08:23:32Z</time>
      </trkpt>
      <trkpt lat="43.5577" lon="1.44571">
        <ele>875</ele>
        <time>2020-11-29T08:23:33Z</time>
      </trkpt>
      <trkpt lat="43.55768" lon="1.4457">
        <ele>875</ele>
        <time>2020-11-29T08:23:34Z</time>
      </trkpt>
      <trkpt lat="43.55766" lon="1.44568">
        <ele>875</ele>
        <time>2020-11-29T08:23:35Z</time>
      </trkpt>
      <trkpt lat="43.55763" lon="1.44567">
        <ele>875</ele>
        <time>2020-11-29T08:23:36Z</time>
      </trkpt>
      <trkpt lat="43.55761" lon="1.44566">
        <ele>875</ele>
        <time>2020-11-29T08:23:37Z</time>
      </trkpt>
      <trkpt lat="43.55759" lon="1.44565">
        <ele>875</ele>
        <time>2020-11-29T08:23:38Z</time>
      </trkpt>
      <trkpt lat="43.55756" lon="1.44564">
        <ele>874</ele>
        <time>2020-11-29T08:23:39Z</time>
      </trkpt>
      <trkpt lat="43.55753" lon="1.44563">
        <ele>873</ele>
        <time>2020-11-29T08:23:40Z</time>
      </trkpt>
      <trkpt lat="43.55751" lon="1.44563">
        <ele>872</ele>
        <time>2020-11-29T08:23:41Z</time>
      </trkpt>
      <trkpt lat="43.55748" lon="1.44562">
        <ele>871</ele>
        <time>2020-11-29T08:23:42Z</time>
      </trkpt>
      <trkpt lat="43.55745" lon="1.44561">
        <ele>871</ele>
        <time>2020-11-29T08:23:43Z</time>
      </trkpt>
      <trkpt lat="43.55743" lon="1.4456">
        <ele>871</ele>
        <time>2020-11-29T08:23:44Z</time>
      </trkpt>
      <trkpt lat="43.5574" lon="1.44558">
        <ele>871</ele>
        <time>2020-11-29T08:23:45Z</time>
      </trkpt>
      <trkpt lat="43.55738" lon="1.44556">
        <ele>870</ele>
        <time>2020-11-29T08:23:46Z</time>
      </trkpt>
      <trkpt lat="43.55735" lon="1.44554">
        <ele>870</ele>
        <time>2020-11-29T08:23:47Z</time>
      </trkpt>
      <trkpt lat="43.55734" lon="1.44552">
        <ele>869</ele>
        <time>2020-11-29T08:23:48Z</time>
      </trkpt>
      <trkpt lat="43.55731" lon="1.44549">
        <ele>868</ele>
        <time>2020-11-29T08:23:49Z</time>
      </trkpt>
      <trkpt lat="43.55729" lon="1.44546">
        <ele>868</ele>
        <time>2020-11-29T08:23:50Z</time>
      </trkpt>
      <trkpt lat="43.55727" lon="1.44544">
        <ele>868</ele>
        <time>2020-11-29T08:23:51Z</time>
      </trkpt>
      <trkpt lat="43.55724" lon="1.44541">
        <ele>868</ele>
        <time>2020-11-29T08:23:52Z</time>
      </trkpt>
      <trkpt lat="43.55722" lon="1.44539">
        <ele>868</ele>
        <time>2020-11-29T08:23:53Z</time>
      </trkpt>
      <trkpt lat="43.55719" lon="1.44537">
        <ele>868</ele>
        <time>2020-11-29T08:23:54Z</time>
      </trkpt>
      <trkpt lat="43.55717" lon="1.44535">
        <ele>868</ele>
        <time>2020-11-29T08:23:55Z</time>
      </trkpt>
      <trkpt lat="43.55715" lon="1.44533">
        <ele>868</ele>
        <time>2020-11-29T08:23:56Z</time>
      </trkpt>
      <trkpt lat="43.55712" lon="1.44532">
        <ele>868</ele>
        <time>2020-11-29T08:23:57Z</time>
      </trkpt>
      <trkpt lat="43.5571" lon="1.4453">
        <ele>868</ele>
        <time>2020-11-29T08:23:58Z</time>
      </trkpt>
      <trkpt lat="43.55708" lon="1.44529">
        <ele>868</ele>
        <time>2020-11-29T08:23:59Z</time>
      </trkpt>
      <trkpt lat="43.55706" lon="1.44527">
        <ele>867</ele>
        <time>2020-11-29T08:24:00Z</time>
      </trkpt>
      <trkpt lat="43.55703" lon="1.44525">
        <ele>867</ele>
        <time>2020-11-29T08:24:01Z</time>
      </trkpt>
      <trkpt lat="43.55702" lon="1.44522">
        <ele>866</ele>
        <time>2020-11-29T08:24:02Z</time>
      </trkpt>
      <trkpt lat="43.557" lon="1.4452">
        <ele>866</ele>
        <time>2020-11-29T08:24:03Z</time>
      </trkpt>
      <trkpt lat="43.55698" lon="1.44518">
        <ele>866</ele>
        <time>2020-11-29T08:24:04Z</time>
      </trkpt>
      <trkpt lat="43.55696" lon="1.44516">
        <ele>865</ele>
        <time>2020-11-29T08:24:05Z</time>
      </trkpt>
      <trkpt lat="43.55694" lon="1.44513">
        <ele>865</ele>
        <time>2020-11-29T08:24:06Z</time>
      </trkpt>
      <trkpt lat="43.55692" lon="1.44509">
        <ele>864</ele>
        <time>2020-11-29T08:24:07Z</time>
      </trkpt>
      <trkpt lat="43.55691" lon="1.44507">
        <ele>864</ele>
        <time>2020-11-29T08:24:08Z</time>
      </trkpt>
      <trkpt lat="43.55689" lon="1.44504">
        <ele>864</ele>
        <time>2020-11-29T08:24:09Z</time>
      </trkpt>
      <trkpt lat="43.55686" lon="1.44502">
        <ele>863</ele>
        <time>2020-11-29T08:24:10Z</time>
      </trkpt>
      <trkpt lat="43.55684" lon="1.44499">
        <ele>862</ele>
        <time>2020-11-29T08:24:11Z</time>
      </trkpt>
      <trkpt lat="43.55683" lon="1.44496">
        <ele>862</ele>
        <time>2020-11-29T08:24:12Z</time>
      </trkpt>
      <trkpt lat="43.55681" lon="1.44495">
        <ele>861</ele>
        <time>2020-11-29T08:24:13Z</time>
      </trkpt>
      <trkpt lat="43.55679" lon="1.44494">
        <ele>861</ele>
        <time>2020-11-29T08:24:14Z</time>
      </trkpt>
      <trkpt lat="43.55677" lon="1.44492">
        <ele>861</ele>
        <time>2020-11-29T08:24:15Z</time>
      </trkpt>
      <trkpt lat="43.55675" lon="1.44489">
        <ele>860</ele>
        <time>2020-11-29T08:24:16Z</time>
      </trkpt>
      <trkpt lat="43.55673" lon="1.44486">
        <ele>859</ele>
        <time>2020-11-29T08:24:17Z</time>
      </trkpt>
      <trkpt lat="43.5567" lon="1.44484">
        <ele>858</ele>
        <time>2020-11-29T08:24:18Z</time>
      </trkpt>
      <trkpt lat="43.55667" lon="1.44483">
        <ele>857</ele>
        <time>2020-11-29T08:24:19Z</time>
      </trkpt>
      <trkpt lat="43.55664" lon="1.44482">
        <ele>856</ele>
        <time>2020-11-29T08:24:20Z</time>
      </trkpt>
      <trkpt lat="43.55662" lon="1.44481">
        <ele>856</ele>
        <time>2020-11-29T08:24:21Z</time>
      </trkpt>
      <trkpt lat="43.55659" lon="1.4448">
        <ele>856</ele>
        <time>2020-11-29T08:24:22Z</time>
      </trkpt>
      <trkpt lat="43.55656" lon="1.44478">
        <ele>855</ele>
        <time>2020-11-29T08:24:23Z</time>
      </trkpt>
      <trkpt lat="43.55654" lon="1.44478">
        <ele>854</ele>
        <time>2020-11-29T08:24:24Z</time>
      </trkpt>
      <trkpt lat="43.55651" lon="1.44477">
        <ele>854</ele>
        <time>2020-11-29T08:24:25Z</time>
      </trkpt>
      <trkpt lat="43.55649" lon="1.44476">
        <ele>854</ele>
        <time>2020-11-29T08:24:26Z</time>
      </trkpt>
      <trkpt lat="43.55646" lon="1.44476">
        <ele>854</ele>
        <time>2020-11-29T08:24:27Z</time>
      </trkpt>
      <trkpt lat="43.55643" lon="1.44475">
        <ele>853</ele>
        <time>2020-11-29T08:24:28Z</time>
      </trkpt>
      <trkpt lat="43.5564" lon="1.44474">
        <ele>852</ele>
        <time>2020-11-29T08:24:29Z</time>
      </trkpt>
      <trkpt lat="43.55637" lon="1.44474">
        <ele>851</ele>
        <time>2020-11-29T08:24:30Z</time>
      </trkpt>
      <trkpt lat="43.55634" lon="1.44474">
        <ele>851</ele>
        <time>2020-11-29T08:24:31Z</time>
      </trkpt>
      <trkpt lat="43.55631" lon="1.44474">
        <ele>850</ele>
        <time>2020-11-29T08:24:32Z</time>
      </trkpt>
      <trkpt lat="43.55629" lon="1.44473">
        <ele>850</ele>
        <time>2020-11-29T08:24:33Z</time>
      </trkpt>
      <trkpt lat="43.55626" lon="1.44471">
        <ele>850</ele>
        <time>2020-11-29T08:24:34Z</time>
      </trkpt>
      <trkpt lat="43.55623" lon="1.44469">
        <ele>849</ele>
        <time>2020-11-29T08:24:35Z</time>
      </trkpt>
      <trkpt lat="43.55621" lon="1.44466">
        <ele>849</ele>
        <time>2020-11-29T08:24:36Z</time>
      </trkpt>
      <trkpt lat="43.55618" lon="1.44464">
        <ele>849</ele>
        <time>2020-11-29T08:24:37Z</time>
      </trkpt>
      <trkpt lat="43.55616" lon="1.44462">
        <ele>849</ele>
        <time>2020-11-29T08:24:38Z</time>
      </trkpt>
      <trkpt lat="43.55614" lon="1.44459">
        <ele>849</ele>
        <time>2020-11-29T08:24:39Z</time>
      </trkpt>
      <trkpt lat="43.55611" lon="1.44457">
        <ele>848</ele>
        <time>2020-11-29T08:24:40Z</time>
      </trkpt>
      <trkpt lat="43.55608" lon="1.44454">
        <ele>848</ele>
        <time>2020-11-29T08:24:41Z</time>
      </trkpt>
      <trkpt lat="43.55606" lon="1.44452">
        <ele>847</ele>
        <time>2020-11-29T08:24:42Z</time>
      </trkpt>
      <trkpt lat="43.55604" lon="1.4445">
        <ele>847</ele>
        <time>2020-11-29T08:24:43Z</time>
      </trkpt>
      <trkpt lat="43.55601" lon="1.44448">
        <ele>846</ele>
        <time>2020-11-29T08:24:44Z</time>
      </trkpt>
      <trkpt lat="43.55599" lon="1.44446">
        <ele>846</ele>
        <time>2020-11-29T08:24:45Z</time>
      </trkpt>
      <trkpt lat="43.55596" lon="1.44445">
        <ele>845</ele>
        <time>2020-11-29T08:24:46Z</time>
      </trkpt>
      <trkpt lat="43.55594" lon="1.44443">
        <ele>845</ele>
        <time>2020-11-29T08:24:47Z</time>
      </trkpt>
      <trkpt lat="43.55592" lon="1.44441">
        <ele>845</ele>
        <time>2020-11-29T08:24:48Z</time>
      </trkpt>
      <trkpt lat="43.55589" lon="1.4444">
        <ele>845</ele>
        <time>2020-11-29T08:24:49Z</time>
      </trkpt>
      <trkpt lat="43.55587" lon="1.44438">
        <ele>844</ele>
        <time>2020-11-29T08:24:50Z</time>
      </trkpt>
      <trkpt lat="43.55585" lon="1.44437">
        <ele>844</ele>
        <time>2020-11-29T08:24:51Z</time>
      </trkpt>
      <trkpt lat="43.55582" lon="1.44435">
        <ele>844</ele>
        <time>2020-11-29T08:24:52Z</time>
      </trkpt>
      <trkpt lat="43.55579" lon="1.44434">
        <ele>843</ele>
        <time>2020-11-29T08:24:53Z</time>
      </trkpt>
      <trkpt lat="43.55576" lon="1.44432">
        <ele>842</ele>
        <time>2020-11-29T08:24:54Z</time>
      </trkpt>
      <trkpt lat="43.55574" lon="1.4443">
        <ele>842</ele>
        <time>2020-11-29T08:24:55Z</time>
      </trkpt>
      <trkpt lat="43.55571" lon="1.44429">
        <ele>842</ele>
        <time>2020-11-29T08:24:56Z</time>
      </trkpt>
      <trkpt lat="43.55569" lon="1.44427">
        <ele>842</ele>
        <time>2020-11-29T08:24:57Z</time>
      </trkpt>
      <trkpt lat="43.55566" lon="1.44426">
        <ele>841</ele>
        <time>2020-11-29T08:24:58Z</time>
      </trkpt>
      <trkpt lat="43.55563" lon="1.44424">
        <ele>841</ele>
        <time>2020-11-29T08:24:59Z</time>
      </trkpt>
      <trkpt lat="43.55561" lon="1.44422">
        <ele>841</ele>
        <time>2020-11-29T08:25:00Z</time>
      </trkpt>
      <trkpt lat="43.55558" lon="1.44421">
        <ele>841</ele>
        <time>2020-11-29T08:25:01Z</time>
      </trkpt>
      <trkpt lat="43.55556" lon="1.44419">
        <ele>841</ele>
        <time>2020-11-29T08:25:02Z</time>
      </trkpt>
      <trkpt lat="43.55553" lon="1.44418">
        <ele>841</ele>
        <time>2020-11-29T08:25:03Z</time>
      </trkpt>
      <trkpt lat="43.55551" lon="1.44416">
        <ele>841</ele>
        <time>2020-11-29T08:25:04Z</time>
      </trkpt>
      <trkpt lat="43.55549" lon="1.44415">
        <ele>840</ele>
        <time>2020-11-29T08:25:05Z</time>
      </trkpt>
      <trkpt lat="43.55546" lon="1.44413">
        <ele>840</ele>
        <time>2020-11-29T08:25:06Z</time>
      </trkpt>
      <trkpt lat="43.55544" lon="1.44412">
        <ele>840</ele>
        <time>2020-11-29T08:25:07Z</time>
      </trkpt>
      <trkpt lat="43.55542" lon="1.4441">
        <ele>839</ele>
        <time>2020-11-29T08:25:08Z</time>
      </trkpt>
      <trkpt lat="43.55539" lon="1.44408">
        <ele>839</ele>
        <time>2020-11-29T08:25:09Z</time>
      </trkpt>
      <trkpt lat="43.55537" lon="1.44406">
        <ele>838</ele>
        <time>2020-11-29T08:25:10Z</time>
      </trkpt>
      <trkpt lat="43.55535" lon="1.44404">
        <ele>838</ele>
        <time>2020-11-29T08:25:11Z</time>
      </trkpt>
      <trkpt lat="43.55532" lon="1.44402">
        <ele>835</ele>
        <time>2020-11-29T08:25:12Z</time>
      </trkpt>
      <trkpt lat="43.5553" lon="1.44401">
        <ele>835</ele>
        <time>2020-11-29T08:25:13Z</time>
      </trkpt>
      <trkpt lat="43.55527" lon="1.44399">
        <ele>835</ele>
        <time>2020-11-29T08:25:14Z</time>
      </trkpt>
      <trkpt lat="43.55525" lon="1.44398">
        <ele>835</ele>
        <time>2020-11-29T08:25:15Z</time>
      </trkpt>
      <trkpt lat="43.55523" lon="1.44396">
        <ele>835</ele>
        <time>2020-11-29T08:25:16Z</time>
      </trkpt>
      <trkpt lat="43.5552" lon="1.44394">
        <ele>834</ele>
        <time>2020-11-29T08:25:17Z</time>
      </trkpt>
      <trkpt lat="43.55518" lon="1.44393">
        <ele>833</ele>
        <time>2020-11-29T08:25:18Z</time>
      </trkpt>
      <trkpt lat="43.55516" lon="1.44391">
        <ele>832</ele>
        <time>2020-11-29T08:25:19Z</time>
      </trkpt>
      <trkpt lat="43.55513" lon="1.44389">
        <ele>832</ele>
        <time>2020-11-29T08:25:20Z</time>
      </trkpt>
      <trkpt lat="43.55511" lon="1.44387">
        <ele>832</ele>
        <time>2020-11-29T08:25:21Z</time>
      </trkpt>
      <trkpt lat="43.55508" lon="1.44385">
        <ele>832</ele>
        <time>2020-11-29T08:25:22Z</time>
      </trkpt>
      <trkpt lat="43.55505" lon="1.44383">
        <ele>832</ele>
        <time>2020-11-29T08:25:23Z</time>
      </trkpt>
      <trkpt lat="43.55502" lon="1.44381">
        <ele>831</ele>
        <time>2020-11-29T08:25:24Z</time>
      </trkpt>
      <trkpt lat="43.555" lon="1.44379">
        <ele>831</ele>
        <time>2020-11-29T08:25:25Z</time>
      </trkpt>
      <trkpt lat="43.55497" lon="1.44378">
        <ele>830</ele>
        <time>2020-11-29T08:25:26Z</time>
      </trkpt>
      <trkpt lat="43.55495" lon="1.44376">
        <ele>830</ele>
        <time>2020-11-29T08:25:27Z</time>
      </trkpt>
      <trkpt lat="43.55492" lon="1.44374">
        <ele>830</ele>
        <time>2020-11-29T08:25:28Z</time>
      </trkpt>
      <trkpt lat="43.5549" lon="1.44372">
        <ele>829</ele>
        <time>2020-11-29T08:25:29Z</time>
      </trkpt>
      <trkpt lat="43.55487" lon="1.44371">
        <ele>829</ele>
        <time>2020-11-29T08:25:30Z</time>
      </trkpt>
      <trkpt lat="43.55484" lon="1.44369">
        <ele>828</ele>
        <time>2020-11-29T08:25:31Z</time>
      </trkpt>
      <trkpt lat="43.55482" lon="1.44367">
        <ele>827</ele>
        <time>2020-11-29T08:25:32Z</time>
      </trkpt>
      <trkpt lat="43.55479" lon="1.44365">
        <ele>827</ele>
        <time>2020-11-29T08:25:33Z</time>
      </trkpt>
      <trkpt lat="43.55477" lon="1.44363">
        <ele>827</ele>
        <time>2020-11-29T08:25:34Z</time>
      </trkpt>
      <trkpt lat="43.55474" lon="1.44361">
        <ele>827</ele>
        <time>2020-11-29T08:25:35Z</time>
      </trkpt>
      <trkpt lat="43.55472" lon="1.44359">
        <ele>827</ele>
        <time>2020-11-29T08:25:36Z</time>
      </trkpt>
      <trkpt lat="43.55469" lon="1.44357">
        <ele>826</ele>
        <time>2020-11-29T08:25:37Z</time>
      </trkpt>
      <trkpt lat="43.55467" lon="1.44356">
        <ele>826</ele>
        <time>2020-11-29T08:25:38Z</time>
      </trkpt>
      <trkpt lat="43.55464" lon="1.44354">
        <ele>825</ele>
        <time>2020-11-29T08:25:39Z</time>
      </trkpt>
      <trkpt lat="43.55461" lon="1.44352">
        <ele>825</ele>
        <time>2020-11-29T08:25:40Z</time>
      </trkpt>
      <trkpt lat="43.55459" lon="1.44351">
        <ele>824</ele>
        <time>2020-11-29T08:25:41Z</time>
      </trkpt>
      <trkpt lat="43.55456" lon="1.44349">
        <ele>824</ele>
        <time>2020-11-29T08:25:42Z</time>
      </trkpt>
      <trkpt lat="43.55453" lon="1.44348">
        <ele>824</ele>
        <time>2020-11-29T08:25:43Z</time>
      </trkpt>
      <trkpt lat="43.55451" lon="1.44346">
        <ele>824</ele>
        <time>2020-11-29T08:25:44Z</time>
      </trkpt>
      <trkpt lat="43.55448" lon="1.44344">
        <ele>824</ele>
        <time>2020-11-29T08:25:45Z</time>
      </trkpt>
      <trkpt lat="43.55446" lon="1.44343">
        <ele>824</ele>
        <time>2020-11-29T08:25:46Z</time>
      </trkpt>
      <trkpt lat="43.55443" lon="1.44342">
        <ele>824</ele>
        <time>2020-11-29T08:25:47Z</time>
      </trkpt>
      <trkpt lat="43.55441" lon="1.4434">
        <ele>824</ele>
        <time>2020-11-29T08:25:48Z</time>
      </trkpt>
      <trkpt lat="43.55438" lon="1.44339">
        <ele>824</ele>
        <time>2020-11-29T08:25:49Z</time>
      </trkpt>
      <trkpt lat="43.55435" lon="1.44337">
        <ele>824</ele>
        <time>2020-11-29T08:25:50Z</time>
      </trkpt>
      <trkpt lat="43.55433" lon="1.44335">
        <ele>825</ele>
        <time>2020-11-29T08:25:51Z</time>
      </trkpt>
      <trkpt lat="43.55431" lon="1.44334">
        <ele>825</ele>
        <time>2020-11-29T08:25:52Z</time>
      </trkpt>
      <trkpt lat="43.55428" lon="1.44332">
        <ele>825</ele>
        <time>2020-11-29T08:25:53Z</time>
      </trkpt>
      <trkpt lat="43.55427" lon="1.4433">
        <ele>825</ele>
        <time>2020-11-29T08:25:54Z</time>
      </trkpt>
      <trkpt lat="43.55425" lon="1.44328">
        <ele>825</ele>
        <time>2020-11-29T08:25:55Z</time>
      </trkpt>
      <trkpt lat="43.55424" lon="1.44325">
        <ele>828</ele>
        <time>2020-11-29T08:25:58Z</time>
      </trkpt>
      <trkpt lat="43.55422" lon="1.44322">
        <ele>828</ele>
        <time>2020-11-29T08:25:59Z</time>
      </trkpt>
      <trkpt lat="43.55421" lon="1.44319">
        <ele>828</ele>
        <time>2020-11-29T08:26:00Z</time>
      </trkpt>
      <trkpt lat="43.5542" lon="1.44316">
        <ele>828</ele>
        <time>2020-11-29T08:26:01Z</time>
      </trkpt>
      <trkpt lat="43.55418" lon="1.44313">
        <ele>828</ele>
        <time>2020-11-29T08:26:02Z</time>
      </trkpt>
      <trkpt lat="43.55416" lon="1.44311">
        <ele>829</ele>
        <time>2020-11-29T08:26:03Z</time>
      </trkpt>
      <trkpt lat="43.55414" lon="1.44308">
        <ele>829</ele>
        <time>2020-11-29T08:26:04Z</time>
      </trkpt>
      <trkpt lat="43.55411" lon="1.44307">
        <ele>830</ele>
        <time>2020-11-29T08:26:05Z</time>
      </trkpt>
      <trkpt lat="43.55409" lon="1.44306">
        <ele>830</ele>
        <time>2020-11-29T08:26:06Z</time>
      </trkpt>
      <trkpt lat="43.55406" lon="1.44305">
        <ele>830</ele>
        <time>2020-11-29T08:26:07Z</time>
      </trkpt>
      <trkpt lat="43.55404" lon="1.44305">
        <ele>830</ele>
        <time>2020-11-29T08:26:08Z</time>
      </trkpt>
      <trkpt lat="43.55401" lon="1.44306">
        <ele>831</ele>
        <time>2020-11-29T08:26:09Z</time>
      </trkpt>
      <trkpt lat="43.55399" lon="1.44306">
        <ele>831</ele>
        <time>2020-11-29T08:26:10Z</time>
      </trkpt>
      <trkpt lat="43.55396" lon="1.44306">
        <ele>831</ele>
        <time>2020-11-29T08:26:11Z</time>
      </trkpt>
      <trkpt lat="43.55394" lon="1.44307">
        <ele>831</ele>
        <time>2020-11-29T08:26:12Z</time>
      </trkpt>
      <trkpt lat="43.55391" lon="1.44307">
        <ele>831</ele>
        <time>2020-11-29T08:26:13Z</time>
      </trkpt>
      <trkpt lat="43.55389" lon="1.44307">
        <ele>832</ele>
        <time>2020-11-29T08:26:14Z</time>
      </trkpt>
      <trkpt lat="43.55386" lon="1.44307">
        <ele>832</ele>
        <time>2020-11-29T08:26:15Z</time>
      </trkpt>
      <trkpt lat="43.55384" lon="1.44307">
        <ele>832</ele>
        <time>2020-11-29T08:26:16Z</time>
      </trkpt>
      <trkpt lat="43.55381" lon="1.44307">
        <ele>832</ele>
        <time>2020-11-29T08:26:17Z</time>
      </trkpt>
      <trkpt lat="43.55379" lon="1.44306">
        <ele>832</ele>
        <time>2020-11-29T08:26:18Z</time>
      </trkpt>
      <trkpt lat="43.55376" lon="1.44307">
        <ele>832</ele>
        <time>2020-11-29T08:26:19Z</time>
      </trkpt>
      <trkpt lat="43.55374" lon="1.44307">
        <ele>832</ele>
        <time>2020-11-29T08:26:20Z</time>
      </trkpt>
      <trkpt lat="43.55371" lon="1.44307">
        <ele>832</ele>
        <time>2020-11-29T08:26:21Z</time>
      </trkpt>
      <trkpt lat="43.55368" lon="1.44306">
        <ele>832</ele>
        <time>2020-11-29T08:26:22Z</time>
      </trkpt>
      <trkpt lat="43.55366" lon="1.44306">
        <ele>833</ele>
        <time>2020-11-29T08:26:23Z</time>
      </trkpt>
      <trkpt lat="43.55363" lon="1.44306">
        <ele>833</ele>
        <time>2020-11-29T08:26:24Z</time>
      </trkpt>
      <trkpt lat="43.5536" lon="1.44306">
        <ele>833</ele>
        <time>2020-11-29T08:26:25Z</time>
      </trkpt>
      <trkpt lat="43.55357" lon="1.44305">
        <ele>833</ele>
        <time>2020-11-29T08:26:26Z</time>
      </trkpt>
      <trkpt lat="43.55354" lon="1.44304">
        <ele>833</ele>
        <time>2020-11-29T08:26:27Z</time>
      </trkpt>
      <trkpt lat="43.55352" lon="1.44303">
        <ele>833</ele>
        <time>2020-11-29T08:26:28Z</time>
      </trkpt>
      <trkpt lat="43.55348" lon="1.44302">
        <ele>833</ele>
        <time>2020-11-29T08:26:29Z</time>
      </trkpt>
      <trkpt lat="43.55346" lon="1.44301">
        <ele>833</ele>
        <time>2020-11-29T08:26:30Z</time>
      </trkpt>
      <trkpt lat="43.55343" lon="1.443">
        <ele>833</ele>
        <time>2020-11-29T08:26:31Z</time>
      </trkpt>
      <trkpt lat="43.5534" lon="1.44299">
        <ele>833</ele>
        <time>2020-11-29T08:26:32Z</time>
      </trkpt>
      <trkpt lat="43.55338" lon="1.44297">
        <ele>833</ele>
        <time>2020-11-29T08:26:33Z</time>
      </trkpt>
      <trkpt lat="43.55336" lon="1.44295">
        <ele>833</ele>
        <time>2020-11-29T08:26:34Z</time>
      </trkpt>
      <trkpt lat="43.55333" lon="1.44293">
        <ele>832</ele>
        <time>2020-11-29T08:26:35Z</time>
      </trkpt>
      <trkpt lat="43.55331" lon="1.44292">
        <ele>832</ele>
        <time>2020-11-29T08:26:36Z</time>
      </trkpt>
      <trkpt lat="43.55328" lon="1.4429">
        <ele>832</ele>
        <time>2020-11-29T08:26:37Z</time>
      </trkpt>
      <trkpt lat="43.55326" lon="1.44289">
        <ele>832</ele>
        <time>2020-11-29T08:26:38Z</time>
      </trkpt>
      <trkpt lat="43.55323" lon="1.44289">
        <ele>832</ele>
        <time>2020-11-29T08:26:39Z</time>
      </trkpt>
      <trkpt lat="43.5532" lon="1.44288">
        <ele>832</ele>
        <time>2020-11-29T08:26:40Z</time>
      </trkpt>
      <trkpt lat="43.55317" lon="1.44288">
        <ele>832</ele>
        <time>2020-11-29T08:26:41Z</time>
      </trkpt>
      <trkpt lat="43.55315" lon="1.44288">
        <ele>832</ele>
        <time>2020-11-29T08:26:42Z</time>
      </trkpt>
      <trkpt lat="43.55312" lon="1.44287">
        <ele>831</ele>
        <time>2020-11-29T08:26:43Z</time>
      </trkpt>
      <trkpt lat="43.5531" lon="1.44287">
        <ele>831</ele>
        <time>2020-11-29T08:26:44Z</time>
      </trkpt>
      <trkpt lat="43.55307" lon="1.44286">
        <ele>831</ele>
        <time>2020-11-29T08:26:45Z</time>
      </trkpt>
      <trkpt lat="43.55304" lon="1.44287">
        <ele>831</ele>
        <time>2020-11-29T08:26:46Z</time>
      </trkpt>
      <trkpt lat="43.55301" lon="1.44287">
        <ele>831</ele>
        <time>2020-11-29T08:26:47Z</time>
      </trkpt>
      <trkpt lat="43.55298" lon="1.44288">
        <ele>831</ele>
        <time>2020-11-29T08:26:48Z</time>
      </trkpt>
      <trkpt lat="43.55296" lon="1.44289">
        <ele>831</ele>
        <time>2020-11-29T08:26:49Z</time>
      </trkpt>
      <trkpt lat="43.55293" lon="1.4429">
        <ele>832</ele>
        <time>2020-11-29T08:26:50Z</time>
      </trkpt>
      <trkpt lat="43.5529" lon="1.4429">
        <ele>832</ele>
        <time>2020-11-29T08:26:51Z</time>
      </trkpt>
      <trkpt lat="43.55287" lon="1.44291">
        <ele>832</ele>
        <time>2020-11-29T08:26:52Z</time>
      </trkpt>
      <trkpt lat="43.55284" lon="1.44291">
        <ele>832</ele>
        <time>2020-11-29T08:26:53Z</time>
      </trkpt>
      <trkpt lat="43.55281" lon="1.44291">
        <ele>832</ele>
        <time>2020-11-29T08:26:54Z</time>
      </trkpt>
      <trkpt lat="43.55278" lon="1.44291">
        <ele>831</ele>
        <time>2020-11-29T08:26:55Z</time>
      </trkpt>
      <trkpt lat="43.55275" lon="1.44291">
        <ele>831</ele>
        <time>2020-11-29T08:26:56Z</time>
      </trkpt>
      <trkpt lat="43.55272" lon="1.4429">
        <ele>831</ele>
        <time>2020-11-29T08:26:57Z</time>
      </trkpt>
      <trkpt lat="43.5527" lon="1.44289">
        <ele>831</ele>
        <time>2020-11-29T08:26:58Z</time>
      </trkpt>
      <trkpt lat="43.55267" lon="1.44288">
        <ele>831</ele>
        <time>2020-11-29T08:26:59Z</time>
      </trkpt>
      <trkpt lat="43.55264" lon="1.44288">
        <ele>831</ele>
        <time>2020-11-29T08:27:00Z</time>
      </trkpt>
      <trkpt lat="43.55261" lon="1.44288">
        <ele>831</ele>
        <time>2020-11-29T08:27:01Z</time>
      </trkpt>
      <trkpt lat="43.55259" lon="1.44289">
        <ele>830</ele>
        <time>2020-11-29T08:27:02Z</time>
      </trkpt>
      <trkpt lat="43.55256" lon="1.4429">
        <ele>831</ele>
        <time>2020-11-29T08:27:03Z</time>
      </trkpt>
      <trkpt lat="43.55254" lon="1.44291">
        <ele>831</ele>
        <time>2020-11-29T08:27:04Z</time>
      </trkpt>
      <trkpt lat="43.55251" lon="1.44293">
        <ele>831</ele>
        <time>2020-11-29T08:27:05Z</time>
      </trkpt>
      <trkpt lat="43.55249" lon="1.44295">
        <ele>831</ele>
        <time>2020-11-29T08:27:06Z</time>
      </trkpt>
      <trkpt lat="43.55246" lon="1.44296">
        <ele>830</ele>
        <time>2020-11-29T08:27:07Z</time>
      </trkpt>
      <trkpt lat="43.55243" lon="1.44297">
        <ele>830</ele>
        <time>2020-11-29T08:27:08Z</time>
      </trkpt>
      <trkpt lat="43.5524" lon="1.44298">
        <ele>829</ele>
        <time>2020-11-29T08:27:09Z</time>
      </trkpt>
      <trkpt lat="43.55237" lon="1.443">
        <ele>828</ele>
        <time>2020-11-29T08:27:10Z</time>
      </trkpt>
      <trkpt lat="43.55234" lon="1.443">
        <ele>828</ele>
        <time>2020-11-29T08:27:11Z</time>
      </trkpt>
      <trkpt lat="43.55231" lon="1.443">
        <ele>828</ele>
        <time>2020-11-29T08:27:12Z</time>
      </trkpt>
      <trkpt lat="43.55228" lon="1.44301">
        <ele>827</ele>
        <time>2020-11-29T08:27:13Z</time>
      </trkpt>
      <trkpt lat="43.55224" lon="1.44301">
        <ele>827</ele>
        <time>2020-11-29T08:27:14Z</time>
      </trkpt>
      <trkpt lat="43.55221" lon="1.44302">
        <ele>826</ele>
        <time>2020-11-29T08:27:15Z</time>
      </trkpt>
      <trkpt lat="43.55218" lon="1.44303">
        <ele>825</ele>
        <time>2020-11-29T08:27:16Z</time>
      </trkpt>
      <trkpt lat="43.55215" lon="1.44304">
        <ele>825</ele>
        <time>2020-11-29T08:27:17Z</time>
      </trkpt>
      <trkpt lat="43.55212" lon="1.44305">
        <ele>824</ele>
        <time>2020-11-29T08:27:18Z</time>
      </trkpt>
      <trkpt lat="43.55209" lon="1.44306">
        <ele>824</ele>
        <time>2020-11-29T08:27:19Z</time>
      </trkpt>
      <trkpt lat="43.55206" lon="1.44307">
        <ele>824</ele>
        <time>2020-11-29T08:27:20Z</time>
      </trkpt>
      <trkpt lat="43.55203" lon="1.44308">
        <ele>824</ele>
        <time>2020-11-29T08:27:21Z</time>
      </trkpt>
      <trkpt lat="43.55201" lon="1.44309">
        <ele>824</ele>
        <time>2020-11-29T08:27:22Z</time>
      </trkpt>
      <trkpt lat="43.55198" lon="1.4431">
        <ele>824</ele>
        <time>2020-11-29T08:27:23Z</time>
      </trkpt>
      <trkpt lat="43.55195" lon="1.44311">
        <ele>824</ele>
        <time>2020-11-29T08:27:24Z</time>
      </trkpt>
      <trkpt lat="43.55193" lon="1.44311">
        <ele>824</ele>
        <time>2020-11-29T08:27:25Z</time>
      </trkpt>
      <trkpt lat="43.5519" lon="1.4431">
        <ele>824</ele>
        <time>2020-11-29T08:27:26Z</time>
      </trkpt>
      <trkpt lat="43.55188" lon="1.4431">
        <ele>824</ele>
        <time>2020-11-29T08:27:27Z</time>
      </trkpt>
      <trkpt lat="43.55186" lon="1.44308">
        <ele>824</ele>
        <time>2020-11-29T08:27:28Z</time>
      </trkpt>
      <trkpt lat="43.55184" lon="1.44306">
        <ele>824</ele>
        <time>2020-11-29T08:27:29Z</time>
      </trkpt>
      <trkpt lat="43.55181" lon="1.44304">
        <ele>824</ele>
        <time>2020-11-29T08:27:30Z</time>
      </trkpt>
      <trkpt lat="43.55179" lon="1.44302">
        <ele>824</ele>
        <time>2020-11-29T08:27:31Z</time>
      </trkpt>
      <trkpt lat="43.55177" lon="1.443">
        <ele>824</ele>
        <time>2020-11-29T08:27:32Z</time>
      </trkpt>
      <trkpt lat="43.55175" lon="1.44297">
        <ele>824</ele>
        <time>2020-11-29T08:27:33Z</time>
      </trkpt>
      <trkpt lat="43.55173" lon="1.44294">
        <ele>824</ele>
        <time>2020-11-29T08:27:34Z</time>
      </trkpt>
      <trkpt lat="43.55172" lon="1.44291">
        <ele>825</ele>
        <time>2020-11-29T08:27:35Z</time>
      </trkpt>
      <trkpt lat="43.5517" lon="1.44288">
        <ele>825</ele>
        <time>2020-11-29T08:27:36Z</time>
      </trkpt>
      <trkpt lat="43.55169" lon="1.44285">
        <ele>825</ele>
        <time>2020-11-29T08:27:37Z</time>
      </trkpt>
      <trkpt lat="43.55167" lon="1.44282">
        <ele>825</ele>
        <time>2020-11-29T08:27:38Z</time>
      </trkpt>
      <trkpt lat="43.55165" lon="1.4428">
        <ele>826</ele>
        <time>2020-11-29T08:27:39Z</time>
      </trkpt>
      <trkpt lat="43.55163" lon="1.44278">
        <ele>826</ele>
        <time>2020-11-29T08:27:40Z</time>
      </trkpt>
      <trkpt lat="43.55161" lon="1.44276">
        <ele>826</ele>
        <time>2020-11-29T08:27:41Z</time>
      </trkpt>
      <trkpt lat="43.55159" lon="1.44274">
        <ele>826</ele>
        <time>2020-11-29T08:27:42Z</time>
      </trkpt>
      <trkpt lat="43.55156" lon="1.44272">
        <ele>826</ele>
        <time>2020-11-29T08:27:43Z</time>
      </trkpt>
      <trkpt lat="43.55155" lon="1.4427">
        <ele>826</ele>
        <time>2020-11-29T08:27:44Z</time>
      </trkpt>
      <trkpt lat="43.55153" lon="1.44268">
        <ele>827</ele>
        <time>2020-11-29T08:27:45Z</time>
      </trkpt>
      <trkpt lat="43.55151" lon="1.44266">
        <ele>827</ele>
        <time>2020-11-29T08:27:46Z</time>
      </trkpt>
      <trkpt lat="43.5515" lon="1.44263">
        <ele>827</ele>
        <time>2020-11-29T08:27:47Z</time>
      </trkpt>
      <trkpt lat="43.55149" lon="1.44261">
        <ele>827</ele>
        <time>2020-11-29T08:27:48Z</time>
      </trkpt>
      <trkpt lat="43.55147" lon="1.44259">
        <ele>827</ele>
        <time>2020-11-29T08:27:49Z</time>
      </trkpt>
      <trkpt lat="43.55145" lon="1.44258">
        <ele>828</ele>
        <time>2020-11-29T08:27:50Z</time>
      </trkpt>
      <trkpt lat="43.55143" lon="1.44256">
        <ele>829</ele>
        <time>2020-11-29T08:27:51Z</time>
      </trkpt>
      <trkpt lat="43.55141" lon="1.44254">
        <ele>829</ele>
        <time>2020-11-29T08:27:52Z</time>
      </trkpt>
      <trkpt lat="43.55139" lon="1.44253">
        <ele>830</ele>
        <time>2020-11-29T08:27:53Z</time>
      </trkpt>
      <trkpt lat="43.55137" lon="1.44251">
        <ele>830</ele>
        <time>2020-11-29T08:27:54Z</time>
      </trkpt>
      <trkpt lat="43.55136" lon="1.44248">
        <ele>830</ele>
        <time>2020-11-29T08:27:55Z</time>
      </trkpt>
      <trkpt lat="43.55135" lon="1.44244">
        <ele>830</ele>
        <time>2020-11-29T08:27:56Z</time>
      </trkpt>
      <trkpt lat="43.55134" lon="1.44241">
        <ele>830</ele>
        <time>2020-11-29T08:27:57Z</time>
      </trkpt>
      <trkpt lat="43.55134" lon="1.44237">
        <ele>830</ele>
        <time>2020-11-29T08:27:58Z</time>
      </trkpt>
      <trkpt lat="43.55134" lon="1.44233">
        <ele>830</ele>
        <time>2020-11-29T08:27:59Z</time>
      </trkpt>
      <trkpt lat="43.55133" lon="1.44229">
        <ele>830</ele>
        <time>2020-11-29T08:28:00Z</time>
      </trkpt>
      <trkpt lat="43.55133" lon="1.44226">
        <ele>830</ele>
        <time>2020-11-29T08:28:01Z</time>
      </trkpt>
      <trkpt lat="43.55132" lon="1.44223">
        <ele>830</ele>
        <time>2020-11-29T08:28:02Z</time>
      </trkpt>
      <trkpt lat="43.5513" lon="1.44221">
        <ele>831</ele>
        <time>2020-11-29T08:28:03Z</time>
      </trkpt>
      <trkpt lat="43.55128" lon="1.4422">
        <ele>832</ele>
        <time>2020-11-29T08:28:04Z</time>
      </trkpt>
      <trkpt lat="43.55127" lon="1.44218">
        <ele>832</ele>
        <time>2020-11-29T08:28:05Z</time>
      </trkpt>
      <trkpt lat="43.55123" lon="1.44217">
        <ele>833</ele>
        <time>2020-11-29T08:28:07Z</time>
      </trkpt>
      <trkpt lat="43.55121" lon="1.44217">
        <ele>833</ele>
        <time>2020-11-29T08:28:08Z</time>
      </trkpt>
      <trkpt lat="43.55119" lon="1.44216">
        <ele>833</ele>
        <time>2020-11-29T08:28:09Z</time>
      </trkpt>
      <trkpt lat="43.55117" lon="1.44216">
        <ele>834</ele>
        <time>2020-11-29T08:28:10Z</time>
      </trkpt>
      <trkpt lat="43.55115" lon="1.44216">
        <ele>835</ele>
        <time>2020-11-29T08:28:11Z</time>
      </trkpt>
      <trkpt lat="43.55112" lon="1.44215">
        <ele>835</ele>
        <time>2020-11-29T08:28:12Z</time>
      </trkpt>
      <trkpt lat="43.5511" lon="1.44215">
        <ele>836</ele>
        <time>2020-11-29T08:28:13Z</time>
      </trkpt>
      <trkpt lat="43.55107" lon="1.44214">
        <ele>837</ele>
        <time>2020-11-29T08:28:15Z</time>
      </trkpt>
      <trkpt lat="43.55105" lon="1.44215">
        <ele>837</ele>
        <time>2020-11-29T08:28:17Z</time>
      </trkpt>
      <trkpt lat="43.55103" lon="1.44219">
        <ele>838</ele>
        <time>2020-11-29T08:28:19Z</time>
      </trkpt>
      <trkpt lat="43.55101" lon="1.44223">
        <ele>838</ele>
        <time>2020-11-29T08:28:21Z</time>
      </trkpt>
      <trkpt lat="43.55101" lon="1.44226">
        <ele>838</ele>
        <time>2020-11-29T08:28:22Z</time>
      </trkpt>
      <trkpt lat="43.551" lon="1.44229">
        <ele>838</ele>
        <time>2020-11-29T08:28:23Z</time>
      </trkpt>
      <trkpt lat="43.551" lon="1.44231">
        <ele>838</ele>
        <time>2020-11-29T08:28:24Z</time>
      </trkpt>
      <trkpt lat="43.55099" lon="1.44235">
        <ele>838</ele>
        <time>2020-11-29T08:28:25Z</time>
      </trkpt>
      <trkpt lat="43.55098" lon="1.44238">
        <ele>838</ele>
        <time>2020-11-29T08:28:26Z</time>
      </trkpt>
      <trkpt lat="43.55097" lon="1.4424">
        <ele>838</ele>
        <time>2020-11-29T08:28:27Z</time>
      </trkpt>
      <trkpt lat="43.55096" lon="1.44243">
        <ele>838</ele>
        <time>2020-11-29T08:28:28Z</time>
      </trkpt>
      <trkpt lat="43.55096" lon="1.44246">
        <ele>838</ele>
        <time>2020-11-29T08:28:29Z</time>
      </trkpt>
      <trkpt lat="43.55096" lon="1.44249">
        <ele>838</ele>
        <time>2020-11-29T08:28:30Z</time>
      </trkpt>
      <trkpt lat="43.55097" lon="1.44252">
        <ele>838</ele>
        <time>2020-11-29T08:28:31Z</time>
      </trkpt>
      <trkpt lat="43.55097" lon="1.44254">
        <ele>838</ele>
        <time>2020-11-29T08:28:32Z</time>
      </trkpt>
      <trkpt lat="43.55098" lon="1.44257">
        <ele>837</ele>
        <time>2020-11-29T08:28:33Z</time>
      </trkpt>
      <trkpt lat="43.55099" lon="1.4426">
        <ele>837</ele>
        <time>2020-11-29T08:28:34Z</time>
      </trkpt>
      <trkpt lat="43.551" lon="1.44262">
        <ele>837</ele>
        <time>2020-11-29T08:28:35Z</time>
      </trkpt>
      <trkpt lat="43.55102" lon="1.44265">
        <ele>836</ele>
        <time>2020-11-29T08:28:36Z</time>
      </trkpt>
      <trkpt lat="43.55103" lon="1.44269">
        <ele>836</ele>
        <time>2020-11-29T08:28:37Z</time>
      </trkpt>
      <trkpt lat="43.55104" lon="1.44273">
        <ele>835</ele>
        <time>2020-11-29T08:28:38Z</time>
      </trkpt>
      <trkpt lat="43.55105" lon="1.44276">
        <ele>835</ele>
        <time>2020-11-29T08:28:39Z</time>
      </trkpt>
      <trkpt lat="43.55105" lon="1.4428">
        <ele>835</ele>
        <time>2020-11-29T08:28:40Z</time>
      </trkpt>
      <trkpt lat="43.55106" lon="1.44283">
        <ele>835</ele>
        <time>2020-11-29T08:28:41Z</time>
      </trkpt>
      <trkpt lat="43.55106" lon="1.44286">
        <ele>834</ele>
        <time>2020-11-29T08:28:42Z</time>
      </trkpt>
      <trkpt lat="43.55107" lon="1.4429">
        <ele>834</ele>
        <time>2020-11-29T08:28:43Z</time>
      </trkpt>
      <trkpt lat="43.55107" lon="1.44294">
        <ele>834</ele>
        <time>2020-11-29T08:28:44Z</time>
      </trkpt>
      <trkpt lat="43.55107" lon="1.44297">
        <ele>833</ele>
        <time>2020-11-29T08:28:45Z</time>
      </trkpt>
      <trkpt lat="43.55107" lon="1.44301">
        <ele>833</ele>
        <time>2020-11-29T08:28:46Z</time>
      </trkpt>
      <trkpt lat="43.55106" lon="1.44305">
        <ele>833</ele>
        <time>2020-11-29T08:28:47Z</time>
      </trkpt>
      <trkpt lat="43.55106" lon="1.44309">
        <ele>833</ele>
        <time>2020-11-29T08:28:48Z</time>
      </trkpt>
      <trkpt lat="43.55105" lon="1.44312">
        <ele>832</ele>
        <time>2020-11-29T08:28:49Z</time>
      </trkpt>
      <trkpt lat="43.55104" lon="1.44315">
        <ele>832</ele>
        <time>2020-11-29T08:28:50Z</time>
      </trkpt>
      <trkpt lat="43.55104" lon="1.44319">
        <ele>832</ele>
        <time>2020-11-29T08:28:51Z</time>
      </trkpt>
      <trkpt lat="43.55103" lon="1.44322">
        <ele>832</ele>
        <time>2020-11-29T08:28:52Z</time>
      </trkpt>
      <trkpt lat="43.55103" lon="1.44325">
        <ele>832</ele>
        <time>2020-11-29T08:28:53Z</time>
      </trkpt>
      <trkpt lat="43.55102" lon="1.44329">
        <ele>832</ele>
        <time>2020-11-29T08:28:54Z</time>
      </trkpt>
      <trkpt lat="43.55102" lon="1.44332">
        <ele>832</ele>
        <time>2020-11-29T08:28:55Z</time>
      </trkpt>
      <trkpt lat="43.55103" lon="1.44336">
        <ele>832</ele>
        <time>2020-11-29T08:28:56Z</time>
      </trkpt>
      <trkpt lat="43.55104" lon="1.44339">
        <ele>832</ele>
        <time>2020-11-29T08:28:57Z</time>
      </trkpt>
      <trkpt lat="43.55105" lon="1.44342">
        <ele>832</ele>
        <time>2020-11-29T08:28:58Z</time>
      </trkpt>
      <trkpt lat="43.55106" lon="1.44344">
        <ele>832</ele>
        <time>2020-11-29T08:28:59Z</time>
      </trkpt>
      <trkpt lat="43.55108" lon="1.44346">
        <ele>832</ele>
        <time>2020-11-29T08:29:00Z</time>
      </trkpt>
      <trkpt lat="43.55109" lon="1.44348">
        <ele>832</ele>
        <time>2020-11-29T08:29:01Z</time>
      </trkpt>
      <trkpt lat="43.55111" lon="1.4435">
        <ele>832</ele>
        <time>2020-11-29T08:29:02Z</time>
      </trkpt>
      <trkpt lat="43.55113" lon="1.44353">
        <ele>832</ele>
        <time>2020-11-29T08:29:03Z</time>
      </trkpt>
      <trkpt lat="43.55114" lon="1.44355">
        <ele>832</ele>
        <time>2020-11-29T08:29:04Z</time>
      </trkpt>
      <trkpt lat="43.55116" lon="1.44357">
        <ele>832</ele>
        <time>2020-11-29T08:29:05Z</time>
      </trkpt>
      <trkpt lat="43.55118" lon="1.44359">
        <ele>832</ele>
        <time>2020-11-29T08:29:06Z</time>
      </trkpt>
      <trkpt lat="43.55119" lon="1.44361">
        <ele>832</ele>
        <time>2020-11-29T08:29:07Z</time>
      </trkpt>
      <trkpt lat="43.55121" lon="1.44363">
        <ele>832</ele>
        <time>2020-11-29T08:29:08Z</time>
      </trkpt>
      <trkpt lat="43.55123" lon="1.44366">
        <ele>832</ele>
        <time>2020-11-29T08:29:09Z</time>
      </trkpt>
      <trkpt lat="43.55124" lon="1.44369">
        <ele>832</ele>
        <time>2020-11-29T08:29:10Z</time>
      </trkpt>
      <trkpt lat="43.55125" lon="1.44373">
        <ele>832</ele>
        <time>2020-11-29T08:29:11Z</time>
      </trkpt>
      <trkpt lat="43.55126" lon="1.44376">
        <ele>832</ele>
        <time>2020-11-29T08:29:12Z</time>
      </trkpt>
      <trkpt lat="43.55126" lon="1.4438">
        <ele>832</ele>
        <time>2020-11-29T08:29:13Z</time>
      </trkpt>
      <trkpt lat="43.55126" lon="1.44384">
        <ele>832</ele>
        <time>2020-11-29T08:29:14Z</time>
      </trkpt>
      <trkpt lat="43.55126" lon="1.44388">
        <ele>832</ele>
        <time>2020-11-29T08:29:15Z</time>
      </trkpt>
      <trkpt lat="43.55126" lon="1.44391">
        <ele>832</ele>
        <time>2020-11-29T08:29:16Z</time>
      </trkpt>
      <trkpt lat="43.55125" lon="1.44395">
        <ele>832</ele>
        <time>2020-11-29T08:29:17Z</time>
      </trkpt>
      <trkpt lat="43.55125" lon="1.44398">
        <ele>832</ele>
        <time>2020-11-29T08:29:18Z</time>
      </trkpt>
      <trkpt lat="43.55124" lon="1.44401">
        <ele>832</ele>
        <time>2020-11-29T08:29:19Z</time>
      </trkpt>
      <trkpt lat="43.55123" lon="1.44404">
        <ele>832</ele>
        <time>2020-11-29T08:29:20Z</time>
      </trkpt>
      <trkpt lat="43.55122" lon="1.44408">
        <ele>832</ele>
        <time>2020-11-29T08:29:21Z</time>
      </trkpt>
      <trkpt lat="43.55121" lon="1.44411">
        <ele>833</ele>
        <time>2020-11-29T08:29:22Z</time>
      </trkpt>
      <trkpt lat="43.55121" lon="1.44414">
        <ele>833</ele>
        <time>2020-11-29T08:29:23Z</time>
      </trkpt>
      <trkpt lat="43.5512" lon="1.44417">
        <ele>833</ele>
        <time>2020-11-29T08:29:24Z</time>
      </trkpt>
      <trkpt lat="43.5512" lon="1.44421">
        <ele>833</ele>
        <time>2020-11-29T08:29:25Z</time>
      </trkpt>
      <trkpt lat="43.55119" lon="1.44424">
        <ele>833</ele>
        <time>2020-11-29T08:29:26Z</time>
      </trkpt>
      <trkpt lat="43.55119" lon="1.44427">
        <ele>833</ele>
        <time>2020-11-29T08:29:27Z</time>
      </trkpt>
      <trkpt lat="43.55118" lon="1.44431">
        <ele>833</ele>
        <time>2020-11-29T08:29:28Z</time>
      </trkpt>
      <trkpt lat="43.55117" lon="1.44434">
        <ele>834</ele>
        <time>2020-11-29T08:29:29Z</time>
      </trkpt>
      <trkpt lat="43.55117" lon="1.44437">
        <ele>834</ele>
        <time>2020-11-29T08:29:30Z</time>
      </trkpt>
      <trkpt lat="43.55116" lon="1.4444">
        <ele>834</ele>
        <time>2020-11-29T08:29:31Z</time>
      </trkpt>
      <trkpt lat="43.55115" lon="1.44443">
        <ele>834</ele>
        <time>2020-11-29T08:29:32Z</time>
      </trkpt>
      <trkpt lat="43.55114" lon="1.44446">
        <ele>834</ele>
        <time>2020-11-29T08:29:33Z</time>
      </trkpt>
      <trkpt lat="43.55114" lon="1.44449">
        <ele>835</ele>
        <time>2020-11-29T08:29:34Z</time>
      </trkpt>
      <trkpt lat="43.55113" lon="1.44452">
        <ele>835</ele>
        <time>2020-11-29T08:29:35Z</time>
      </trkpt>
      <trkpt lat="43.55112" lon="1.44455">
        <ele>835</ele>
        <time>2020-11-29T08:29:36Z</time>
      </trkpt>
      <trkpt lat="43.55111" lon="1.44458">
        <ele>835</ele>
        <time>2020-11-29T08:29:37Z</time>
      </trkpt>
      <trkpt lat="43.5511" lon="1.44461">
        <ele>835</ele>
        <time>2020-11-29T08:29:38Z</time>
      </trkpt>
      <trkpt lat="43.55109" lon="1.44464">
        <ele>835</ele>
        <time>2020-11-29T08:29:39Z</time>
      </trkpt>
      <trkpt lat="43.55108" lon="1.44468">
        <ele>835</ele>
        <time>2020-11-29T08:29:40Z</time>
      </trkpt>
      <trkpt lat="43.55108" lon="1.44471">
        <ele>835</ele>
        <time>2020-11-29T08:29:41Z</time>
      </trkpt>
      <trkpt lat="43.55107" lon="1.44474">
        <ele>835</ele>
        <time>2020-11-29T08:29:42Z</time>
      </trkpt>
      <trkpt lat="43.55106" lon="1.44477">
        <ele>835</ele>
        <time>2020-11-29T08:29:43Z</time>
      </trkpt>
      <trkpt lat="43.55105" lon="1.44481">
        <ele>835</ele>
        <time>2020-11-29T08:29:44Z</time>
      </trkpt>
      <trkpt lat="43.55105" lon="1.44484">
        <ele>836</ele>
        <time>2020-11-29T08:29:45Z</time>
      </trkpt>
      <trkpt lat="43.55104" lon="1.44488">
        <ele>836</ele>
        <time>2020-11-29T08:29:46Z</time>
      </trkpt>
      <trkpt lat="43.55103" lon="1.44491">
        <ele>836</ele>
        <time>2020-11-29T08:29:47Z</time>
      </trkpt>
      <trkpt lat="43.55102" lon="1.44494">
        <ele>836</ele>
        <time>2020-11-29T08:29:48Z</time>
      </trkpt>
      <trkpt lat="43.55102" lon="1.44498">
        <ele>836</ele>
        <time>2020-11-29T08:29:49Z</time>
      </trkpt>
      <trkpt lat="43.55101" lon="1.44501">
        <ele>836</ele>
        <time>2020-11-29T08:29:50Z</time>
      </trkpt>
      <trkpt lat="43.551" lon="1.44504">
        <ele>836</ele>
        <time>2020-11-29T08:29:51Z</time>
      </trkpt>
      <trkpt lat="43.551" lon="1.44507">
        <ele>836</ele>
        <time>2020-11-29T08:29:52Z</time>
      </trkpt>
      <trkpt lat="43.55099" lon="1.4451">
        <ele>837</ele>
        <time>2020-11-29T08:29:53Z</time>
      </trkpt>
      <trkpt lat="43.55098" lon="1.44514">
        <ele>837</ele>
        <time>2020-11-29T08:29:54Z</time>
      </trkpt>
      <trkpt lat="43.55098" lon="1.44517">
        <ele>837</ele>
        <time>2020-11-29T08:29:55Z</time>
      </trkpt>
      <trkpt lat="43.55097" lon="1.4452">
        <ele>837</ele>
        <time>2020-11-29T08:29:56Z</time>
      </trkpt>
      <trkpt lat="43.55096" lon="1.44523">
        <ele>837</ele>
        <time>2020-11-29T08:29:57Z</time>
      </trkpt>
      <trkpt lat="43.55095" lon="1.44527">
        <ele>837</ele>
        <time>2020-11-29T08:29:58Z</time>
      </trkpt>
      <trkpt lat="43.55094" lon="1.4453">
        <ele>837</ele>
        <time>2020-11-29T08:29:59Z</time>
      </trkpt>
      <trkpt lat="43.55094" lon="1.44533">
        <ele>837</ele>
        <time>2020-11-29T08:30:00Z</time>
      </trkpt>
      <trkpt lat="43.55093" lon="1.44537">
        <ele>837</ele>
        <time>2020-11-29T08:30:01Z</time>
      </trkpt>
      <trkpt lat="43.55092" lon="1.4454">
        <ele>837</ele>
        <time>2020-11-29T08:30:02Z</time>
      </trkpt>
      <trkpt lat="43.55091" lon="1.44544">
        <ele>837</ele>
        <time>2020-11-29T08:30:03Z</time>
      </trkpt>
      <trkpt lat="43.55091" lon="1.44547">
        <ele>838</ele>
        <time>2020-11-29T08:30:04Z</time>
      </trkpt>
      <trkpt lat="43.5509" lon="1.44551">
        <ele>838</ele>
        <time>2020-11-29T08:30:05Z</time>
      </trkpt>
      <trkpt lat="43.55089" lon="1.44554">
        <ele>838</ele>
        <time>2020-11-29T08:30:06Z</time>
      </trkpt>
      <trkpt lat="43.55088" lon="1.44557">
        <ele>839</ele>
        <time>2020-11-29T08:30:07Z</time>
      </trkpt>
      <trkpt lat="43.55087" lon="1.44559">
        <ele>839</ele>
        <time>2020-11-29T08:30:08Z</time>
      </trkpt>
      <trkpt lat="43.55087" lon="1.44563">
        <ele>839</ele>
        <time>2020-11-29T08:30:09Z</time>
      </trkpt>
      <trkpt lat="43.55086" lon="1.44566">
        <ele>839</ele>
        <time>2020-11-29T08:30:10Z</time>
      </trkpt>
      <trkpt lat="43.55086" lon="1.44569">
        <ele>839</ele>
        <time>2020-11-29T08:30:11Z</time>
      </trkpt>
      <trkpt lat="43.55085" lon="1.44572">
        <ele>839</ele>
        <time>2020-11-29T08:30:12Z</time>
      </trkpt>
      <trkpt lat="43.55084" lon="1.44575">
        <ele>839</ele>
        <time>2020-11-29T08:30:13Z</time>
      </trkpt>
      <trkpt lat="43.55083" lon="1.44578">
        <ele>839</ele>
        <time>2020-11-29T08:30:14Z</time>
      </trkpt>
      <trkpt lat="43.55082" lon="1.44582">
        <ele>839</ele>
        <time>2020-11-29T08:30:15Z</time>
      </trkpt>
      <trkpt lat="43.55082" lon="1.44585">
        <ele>839</ele>
        <time>2020-11-29T08:30:16Z</time>
      </trkpt>
      <trkpt lat="43.55081" lon="1.44588">
        <ele>840</ele>
        <time>2020-11-29T08:30:17Z</time>
      </trkpt>
      <trkpt lat="43.5508" lon="1.44591">
        <ele>840</ele>
        <time>2020-11-29T08:30:18Z</time>
      </trkpt>
      <trkpt lat="43.55079" lon="1.44593">
        <ele>840</ele>
        <time>2020-11-29T08:30:19Z</time>
      </trkpt>
      <trkpt lat="43.55079" lon="1.44596">
        <ele>840</ele>
        <time>2020-11-29T08:30:20Z</time>
      </trkpt>
      <trkpt lat="43.55078" lon="1.44599">
        <ele>840</ele>
        <time>2020-11-29T08:30:21Z</time>
      </trkpt>
      <trkpt lat="43.55077" lon="1.44603">
        <ele>840</ele>
        <time>2020-11-29T08:30:22Z</time>
      </trkpt>
      <trkpt lat="43.55076" lon="1.44606">
        <ele>840</ele>
        <time>2020-11-29T08:30:23Z</time>
      </trkpt>
      <trkpt lat="43.55075" lon="1.44609">
        <ele>840</ele>
        <time>2020-11-29T08:30:24Z</time>
      </trkpt>
      <trkpt lat="43.55075" lon="1.44612">
        <ele>840</ele>
        <time>2020-11-29T08:30:25Z</time>
      </trkpt>
      <trkpt lat="43.55074" lon="1.44615">
        <ele>841</ele>
        <time>2020-11-29T08:30:26Z</time>
      </trkpt>
      <trkpt lat="43.55073" lon="1.44618">
        <ele>841</ele>
        <time>2020-11-29T08:30:27Z</time>
      </trkpt>
      <trkpt lat="43.55072" lon="1.44621">
        <ele>841</ele>
        <time>2020-11-29T08:30:28Z</time>
      </trkpt>
      <trkpt lat="43.55072" lon="1.44624">
        <ele>841</ele>
        <time>2020-11-29T08:30:29Z</time>
      </trkpt>
      <trkpt lat="43.55071" lon="1.44627">
        <ele>841</ele>
        <time>2020-11-29T08:30:30Z</time>
      </trkpt>
      <trkpt lat="43.5507" lon="1.44631">
        <ele>841</ele>
        <time>2020-11-29T08:30:31Z</time>
      </trkpt>
      <trkpt lat="43.55069" lon="1.44634">
        <ele>841</ele>
        <time>2020-11-29T08:30:32Z</time>
      </trkpt>
      <trkpt lat="43.55069" lon="1.44637">
        <ele>841</ele>
        <time>2020-11-29T08:30:33Z</time>
      </trkpt>
      <trkpt lat="43.55068" lon="1.4464">
        <ele>841</ele>
        <time>2020-11-29T08:30:34Z</time>
      </trkpt>
      <trkpt lat="43.55067" lon="1.44643">
        <ele>841</ele>
        <time>2020-11-29T08:30:35Z</time>
      </trkpt>
      <trkpt lat="43.55066" lon="1.44646">
        <ele>841</ele>
        <time>2020-11-29T08:30:36Z</time>
      </trkpt>
      <trkpt lat="43.55066" lon="1.4465">
        <ele>841</ele>
        <time>2020-11-29T08:30:37Z</time>
      </trkpt>
      <trkpt lat="43.55065" lon="1.44653">
        <ele>841</ele>
        <time>2020-11-29T08:30:38Z</time>
      </trkpt>
      <trkpt lat="43.55064" lon="1.44656">
        <ele>841</ele>
        <time>2020-11-29T08:30:39Z</time>
      </trkpt>
      <trkpt lat="43.55063" lon="1.4466">
        <ele>841</ele>
        <time>2020-11-29T08:30:40Z</time>
      </trkpt>
      <trkpt lat="43.55062" lon="1.44663">
        <ele>841</ele>
        <time>2020-11-29T08:30:41Z</time>
      </trkpt>
      <trkpt lat="43.55062" lon="1.44666">
        <ele>841</ele>
        <time>2020-11-29T08:30:42Z</time>
      </trkpt>
      <trkpt lat="43.55061" lon="1.4467">
        <ele>841</ele>
        <time>2020-11-29T08:30:43Z</time>
      </trkpt>
      <trkpt lat="43.5506" lon="1.44673">
        <ele>841</ele>
        <time>2020-11-29T08:30:44Z</time>
      </trkpt>
      <trkpt lat="43.55059" lon="1.44676">
        <ele>841</ele>
        <time>2020-11-29T08:30:45Z</time>
      </trkpt>
      <trkpt lat="43.55059" lon="1.44679">
        <ele>841</ele>
        <time>2020-11-29T08:30:46Z</time>
      </trkpt>
      <trkpt lat="43.55058" lon="1.44683">
        <ele>841</ele>
        <time>2020-11-29T08:30:47Z</time>
      </trkpt>
      <trkpt lat="43.55058" lon="1.44686">
        <ele>841</ele>
        <time>2020-11-29T08:30:48Z</time>
      </trkpt>
      <trkpt lat="43.55057" lon="1.4469">
        <ele>841</ele>
        <time>2020-11-29T08:30:49Z</time>
      </trkpt>
      <trkpt lat="43.55056" lon="1.44693">
        <ele>841</ele>
        <time>2020-11-29T08:30:50Z</time>
      </trkpt>
      <trkpt lat="43.55055" lon="1.44696">
        <ele>841</ele>
        <time>2020-11-29T08:30:51Z</time>
      </trkpt>
      <trkpt lat="43.55054" lon="1.44699">
        <ele>841</ele>
        <time>2020-11-29T08:30:52Z</time>
      </trkpt>
      <trkpt lat="43.55054" lon="1.44702">
        <ele>841</ele>
        <time>2020-11-29T08:30:53Z</time>
      </trkpt>
      <trkpt lat="43.55053" lon="1.44706">
        <ele>841</ele>
        <time>2020-11-29T08:30:54Z</time>
      </trkpt>
      <trkpt lat="43.55051" lon="1.44709">
        <ele>841</ele>
        <time>2020-11-29T08:30:55Z</time>
      </trkpt>
      <trkpt lat="43.5505" lon="1.44712">
        <ele>841</ele>
        <time>2020-11-29T08:30:56Z</time>
      </trkpt>
      <trkpt lat="43.5505" lon="1.44715">
        <ele>841</ele>
        <time>2020-11-29T08:30:57Z</time>
      </trkpt>
      <trkpt lat="43.5505" lon="1.44718">
        <ele>841</ele>
        <time>2020-11-29T08:30:58Z</time>
      </trkpt>
      <trkpt lat="43.55052" lon="1.44721">
        <ele>841</ele>
        <time>2020-11-29T08:30:59Z</time>
      </trkpt>
      <trkpt lat="43.55053" lon="1.44722">
        <ele>842</ele>
        <time>2020-11-29T08:31:00Z</time>
      </trkpt>
      <trkpt lat="43.55056" lon="1.44724">
        <ele>842</ele>
        <time>2020-11-29T08:31:01Z</time>
      </trkpt>
      <trkpt lat="43.55058" lon="1.44725">
        <ele>842</ele>
        <time>2020-11-29T08:31:02Z</time>
      </trkpt>
      <trkpt lat="43.5506" lon="1.44726">
        <ele>842</ele>
        <time>2020-11-29T08:31:03Z</time>
      </trkpt>
      <trkpt lat="43.55061" lon="1.44728">
        <ele>842</ele>
        <time>2020-11-29T08:31:04Z</time>
      </trkpt>
      <trkpt lat="43.55064" lon="1.4473">
        <ele>842</ele>
        <time>2020-11-29T08:31:05Z</time>
      </trkpt>
      <trkpt lat="43.55066" lon="1.44731">
        <ele>842</ele>
        <time>2020-11-29T08:31:06Z</time>
      </trkpt>
      <trkpt lat="43.55068" lon="1.44733">
        <ele>842</ele>
        <time>2020-11-29T08:31:07Z</time>
      </trkpt>
      <trkpt lat="43.5507" lon="1.44734">
        <ele>842</ele>
        <time>2020-11-29T08:31:08Z</time>
      </trkpt>
      <trkpt lat="43.55072" lon="1.44735">
        <ele>842</ele>
        <time>2020-11-29T08:31:09Z</time>
      </trkpt>
      <trkpt lat="43.55074" lon="1.44737">
        <ele>842</ele>
        <time>2020-11-29T08:31:10Z</time>
      </trkpt>
      <trkpt lat="43.55076" lon="1.44738">
        <ele>842</ele>
        <time>2020-11-29T08:31:11Z</time>
      </trkpt>
      <trkpt lat="43.55078" lon="1.4474">
        <ele>842</ele>
        <time>2020-11-29T08:31:12Z</time>
      </trkpt>
      <trkpt lat="43.5508" lon="1.44741">
        <ele>842</ele>
        <time>2020-11-29T08:31:13Z</time>
      </trkpt>
      <trkpt lat="43.55082" lon="1.44743">
        <ele>842</ele>
        <time>2020-11-29T08:31:14Z</time>
      </trkpt>
      <trkpt lat="43.55085" lon="1.44744">
        <ele>842</ele>
        <time>2020-11-29T08:31:15Z</time>
      </trkpt>
      <trkpt lat="43.55087" lon="1.44746">
        <ele>842</ele>
        <time>2020-11-29T08:31:16Z</time>
      </trkpt>
      <trkpt lat="43.55089" lon="1.44748">
        <ele>842</ele>
        <time>2020-11-29T08:31:17Z</time>
      </trkpt>
      <trkpt lat="43.55091" lon="1.44749">
        <ele>842</ele>
        <time>2020-11-29T08:31:18Z</time>
      </trkpt>
      <trkpt lat="43.55093" lon="1.44751">
        <ele>842</ele>
        <time>2020-11-29T08:31:19Z</time>
      </trkpt>
      <trkpt lat="43.55095" lon="1.44753">
        <ele>842</ele>
        <time>2020-11-29T08:31:20Z</time>
      </trkpt>
      <trkpt lat="43.55097" lon="1.44754">
        <ele>842</ele>
        <time>2020-11-29T08:31:21Z</time>
      </trkpt>
      <trkpt lat="43.55099" lon="1.44756">
        <ele>843</ele>
        <time>2020-11-29T08:31:22Z</time>
      </trkpt>
      <trkpt lat="43.55101" lon="1.44758">
        <ele>843</ele>
        <time>2020-11-29T08:31:23Z</time>
      </trkpt>
      <trkpt lat="43.55103" lon="1.44756">
        <ele>842</ele>
        <time>2020-11-29T08:31:25Z</time>
      </trkpt>
      <trkpt lat="43.55103" lon="1.44754">
        <ele>843</ele>
        <time>2020-11-29T08:31:26Z</time>
      </trkpt>
      <trkpt lat="43.55103" lon="1.4475">
        <ele>843</ele>
        <time>2020-11-29T08:31:27Z</time>
      </trkpt>
      <trkpt lat="43.55103" lon="1.44747">
        <ele>843</ele>
        <time>2020-11-29T08:31:28Z</time>
      </trkpt>
      <trkpt lat="43.55104" lon="1.44743">
        <ele>843</ele>
        <time>2020-11-29T08:31:29Z</time>
      </trkpt>
      <trkpt lat="43.55105" lon="1.4474">
        <ele>843</ele>
        <time>2020-11-29T08:31:30Z</time>
      </trkpt>
      <trkpt lat="43.55107" lon="1.44737">
        <ele>843</ele>
        <time>2020-11-29T08:31:31Z</time>
      </trkpt>
      <trkpt lat="43.55109" lon="1.44734">
        <ele>843</ele>
        <time>2020-11-29T08:31:32Z</time>
      </trkpt>
      <trkpt lat="43.5511" lon="1.44731">
        <ele>843</ele>
        <time>2020-11-29T08:31:33Z</time>
      </trkpt>
      <trkpt lat="43.55112" lon="1.44728">
        <ele>843</ele>
        <time>2020-11-29T08:31:34Z</time>
      </trkpt>
      <trkpt lat="43.55113" lon="1.44726">
        <ele>843</ele>
        <time>2020-11-29T08:31:35Z</time>
      </trkpt>
      <trkpt lat="43.55115" lon="1.44723">
        <ele>842</ele>
        <time>2020-11-29T08:31:36Z</time>
      </trkpt>
      <trkpt lat="43.55117" lon="1.4472">
        <ele>842</ele>
        <time>2020-11-29T08:31:37Z</time>
      </trkpt>
      <trkpt lat="43.55119" lon="1.44717">
        <ele>842</ele>
        <time>2020-11-29T08:31:38Z</time>
      </trkpt>
      <trkpt lat="43.5512" lon="1.44713">
        <ele>842</ele>
        <time>2020-11-29T08:31:39Z</time>
      </trkpt>
      <trkpt lat="43.55121" lon="1.4471">
        <ele>842</ele>
        <time>2020-11-29T08:31:40Z</time>
      </trkpt>
      <trkpt lat="43.55123" lon="1.44707">
        <ele>842</ele>
        <time>2020-11-29T08:31:41Z</time>
      </trkpt>
      <trkpt lat="43.55124" lon="1.44704">
        <ele>842</ele>
        <time>2020-11-29T08:31:42Z</time>
      </trkpt>
      <trkpt lat="43.55126" lon="1.44701">
        <ele>842</ele>
        <time>2020-11-29T08:31:43Z</time>
      </trkpt>
      <trkpt lat="43.55127" lon="1.44698">
        <ele>842</ele>
        <time>2020-11-29T08:31:44Z</time>
      </trkpt>
      <trkpt lat="43.55129" lon="1.44695">
        <ele>842</ele>
        <time>2020-11-29T08:31:45Z</time>
      </trkpt>
      <trkpt lat="43.55131" lon="1.44692">
        <ele>841</ele>
        <time>2020-11-29T08:31:46Z</time>
      </trkpt>
      <trkpt lat="43.55133" lon="1.44689">
        <ele>841</ele>
        <time>2020-11-29T08:31:47Z</time>
      </trkpt>
      <trkpt lat="43.55135" lon="1.44687">
        <ele>841</ele>
        <time>2020-11-29T08:31:48Z</time>
      </trkpt>
      <trkpt lat="43.55138" lon="1.44686">
        <ele>841</ele>
        <time>2020-11-29T08:31:49Z</time>
      </trkpt>
      <trkpt lat="43.5514" lon="1.44684">
        <ele>841</ele>
        <time>2020-11-29T08:31:50Z</time>
      </trkpt>
      <trkpt lat="43.55143" lon="1.44683">
        <ele>841</ele>
        <time>2020-11-29T08:31:51Z</time>
      </trkpt>
      <trkpt lat="43.55145" lon="1.44681">
        <ele>841</ele>
        <time>2020-11-29T08:31:52Z</time>
      </trkpt>
      <trkpt lat="43.55148" lon="1.44679">
        <ele>841</ele>
        <time>2020-11-29T08:31:53Z</time>
      </trkpt>
      <trkpt lat="43.55149" lon="1.44677">
        <ele>841</ele>
        <time>2020-11-29T08:31:54Z</time>
      </trkpt>
      <trkpt lat="43.55151" lon="1.44674">
        <ele>841</ele>
        <time>2020-11-29T08:31:55Z</time>
      </trkpt>
      <trkpt lat="43.55153" lon="1.44671">
        <ele>841</ele>
        <time>2020-11-29T08:31:56Z</time>
      </trkpt>
      <trkpt lat="43.55154" lon="1.44667">
        <ele>841</ele>
        <time>2020-11-29T08:31:57Z</time>
      </trkpt>
      <trkpt lat="43.55155" lon="1.44664">
        <ele>841</ele>
        <time>2020-11-29T08:31:58Z</time>
      </trkpt>
      <trkpt lat="43.55157" lon="1.44661">
        <ele>841</ele>
        <time>2020-11-29T08:31:59Z</time>
      </trkpt>
      <trkpt lat="43.55158" lon="1.44658">
        <ele>841</ele>
        <time>2020-11-29T08:32:00Z</time>
      </trkpt>
      <trkpt lat="43.55159" lon="1.44654">
        <ele>841</ele>
        <time>2020-11-29T08:32:01Z</time>
      </trkpt>
      <trkpt lat="43.55161" lon="1.44652">
        <ele>841</ele>
        <time>2020-11-29T08:32:02Z</time>
      </trkpt>
      <trkpt lat="43.55163" lon="1.4465">
        <ele>841</ele>
        <time>2020-11-29T08:32:03Z</time>
      </trkpt>
      <trkpt lat="43.55166" lon="1.4465">
        <ele>841</ele>
        <time>2020-11-29T08:32:04Z</time>
      </trkpt>
      <trkpt lat="43.55169" lon="1.44651">
        <ele>841</ele>
        <time>2020-11-29T08:32:05Z</time>
      </trkpt>
      <trkpt lat="43.55172" lon="1.44652">
        <ele>841</ele>
        <time>2020-11-29T08:32:06Z</time>
      </trkpt>
      <trkpt lat="43.55175" lon="1.44652">
        <ele>841</ele>
        <time>2020-11-29T08:32:07Z</time>
      </trkpt>
      <trkpt lat="43.55177" lon="1.44653">
        <ele>841</ele>
        <time>2020-11-29T08:32:08Z</time>
      </trkpt>
      <trkpt lat="43.5518" lon="1.44654">
        <ele>841</ele>
        <time>2020-11-29T08:32:09Z</time>
      </trkpt>
      <trkpt lat="43.55182" lon="1.44655">
        <ele>841</ele>
        <time>2020-11-29T08:32:10Z</time>
      </trkpt>
      <trkpt lat="43.55185" lon="1.44655">
        <ele>841</ele>
        <time>2020-11-29T08:32:11Z</time>
      </trkpt>
      <trkpt lat="43.55187" lon="1.44656">
        <ele>841</ele>
        <time>2020-11-29T08:32:12Z</time>
      </trkpt>
      <trkpt lat="43.5519" lon="1.44656">
        <ele>841</ele>
        <time>2020-11-29T08:32:13Z</time>
      </trkpt>
      <trkpt lat="43.55193" lon="1.44656">
        <ele>841</ele>
        <time>2020-11-29T08:32:14Z</time>
      </trkpt>
      <trkpt lat="43.55195" lon="1.44656">
        <ele>841</ele>
        <time>2020-11-29T08:32:15Z</time>
      </trkpt>
      <trkpt lat="43.55197" lon="1.44655">
        <ele>841</ele>
        <time>2020-11-29T08:32:16Z</time>
      </trkpt>
      <trkpt lat="43.552" lon="1.44654">
        <ele>841</ele>
        <time>2020-11-29T08:32:17Z</time>
      </trkpt>
      <trkpt lat="43.55202" lon="1.44651">
        <ele>841</ele>
        <time>2020-11-29T08:32:18Z</time>
      </trkpt>
      <trkpt lat="43.55203" lon="1.44648">
        <ele>841</ele>
        <time>2020-11-29T08:32:19Z</time>
      </trkpt>
      <trkpt lat="43.55205" lon="1.44644">
        <ele>841</ele>
        <time>2020-11-29T08:32:20Z</time>
      </trkpt>
      <trkpt lat="43.55206" lon="1.44641">
        <ele>841</ele>
        <time>2020-11-29T08:32:21Z</time>
      </trkpt>
      <trkpt lat="43.55207" lon="1.44637">
        <ele>841</ele>
        <time>2020-11-29T08:32:22Z</time>
      </trkpt>
      <trkpt lat="43.55208" lon="1.44634">
        <ele>841</ele>
        <time>2020-11-29T08:32:23Z</time>
      </trkpt>
      <trkpt lat="43.55209" lon="1.4463">
        <ele>841</ele>
        <time>2020-11-29T08:32:24Z</time>
      </trkpt>
      <trkpt lat="43.55209" lon="1.44626">
        <ele>841</ele>
        <time>2020-11-29T08:32:25Z</time>
      </trkpt>
      <trkpt lat="43.5521" lon="1.44622">
        <ele>841</ele>
        <time>2020-11-29T08:32:26Z</time>
      </trkpt>
      <trkpt lat="43.55211" lon="1.44618">
        <ele>841</ele>
        <time>2020-11-29T08:32:27Z</time>
      </trkpt>
      <trkpt lat="43.55212" lon="1.44615">
        <ele>841</ele>
        <time>2020-11-29T08:32:28Z</time>
      </trkpt>
      <trkpt lat="43.55213" lon="1.44611">
        <ele>841</ele>
        <time>2020-11-29T08:32:29Z</time>
      </trkpt>
      <trkpt lat="43.55214" lon="1.44608">
        <ele>841</ele>
        <time>2020-11-29T08:32:30Z</time>
      </trkpt>
      <trkpt lat="43.55215" lon="1.44604">
        <ele>841</ele>
        <time>2020-11-29T08:32:31Z</time>
      </trkpt>
      <trkpt lat="43.55216" lon="1.44601">
        <ele>841</ele>
        <time>2020-11-29T08:32:32Z</time>
      </trkpt>
      <trkpt lat="43.55218" lon="1.44597">
        <ele>841</ele>
        <time>2020-11-29T08:32:33Z</time>
      </trkpt>
      <trkpt lat="43.55219" lon="1.44594">
        <ele>841</ele>
        <time>2020-11-29T08:32:34Z</time>
      </trkpt>
      <trkpt lat="43.5522" lon="1.44591">
        <ele>841</ele>
        <time>2020-11-29T08:32:35Z</time>
      </trkpt>
      <trkpt lat="43.55221" lon="1.44587">
        <ele>841</ele>
        <time>2020-11-29T08:32:36Z</time>
      </trkpt>
      <trkpt lat="43.55222" lon="1.44583">
        <ele>841</ele>
        <time>2020-11-29T08:32:37Z</time>
      </trkpt>
      <trkpt lat="43.55222" lon="1.44579">
        <ele>841</ele>
        <time>2020-11-29T08:32:38Z</time>
      </trkpt>
      <trkpt lat="43.55223" lon="1.44575">
        <ele>841</ele>
        <time>2020-11-29T08:32:39Z</time>
      </trkpt>
      <trkpt lat="43.55224" lon="1.44572">
        <ele>840</ele>
        <time>2020-11-29T08:32:40Z</time>
      </trkpt>
      <trkpt lat="43.55225" lon="1.44568">
        <ele>840</ele>
        <time>2020-11-29T08:32:41Z</time>
      </trkpt>
      <trkpt lat="43.55226" lon="1.44565">
        <ele>840</ele>
        <time>2020-11-29T08:32:42Z</time>
      </trkpt>
      <trkpt lat="43.55227" lon="1.44562">
        <ele>840</ele>
        <time>2020-11-29T08:32:43Z</time>
      </trkpt>
      <trkpt lat="43.55228" lon="1.44559">
        <ele>840</ele>
        <time>2020-11-29T08:32:44Z</time>
      </trkpt>
      <trkpt lat="43.5523" lon="1.44555">
        <ele>840</ele>
        <time>2020-11-29T08:32:45Z</time>
      </trkpt>
      <trkpt lat="43.55231" lon="1.44552">
        <ele>840</ele>
        <time>2020-11-29T08:32:46Z</time>
      </trkpt>
      <trkpt lat="43.55232" lon="1.44549">
        <ele>840</ele>
        <time>2020-11-29T08:32:47Z</time>
      </trkpt>
      <trkpt lat="43.55234" lon="1.44546">
        <ele>839</ele>
        <time>2020-11-29T08:32:48Z</time>
      </trkpt>
      <trkpt lat="43.55235" lon="1.44542">
        <ele>839</ele>
        <time>2020-11-29T08:32:49Z</time>
      </trkpt>
      <trkpt lat="43.55237" lon="1.44539">
        <ele>839</ele>
        <time>2020-11-29T08:32:50Z</time>
      </trkpt>
      <trkpt lat="43.55238" lon="1.44536">
        <ele>839</ele>
        <time>2020-11-29T08:32:51Z</time>
      </trkpt>
      <trkpt lat="43.5524" lon="1.44533">
        <ele>839</ele>
        <time>2020-11-29T08:32:52Z</time>
      </trkpt>
      <trkpt lat="43.55241" lon="1.4453">
        <ele>839</ele>
        <time>2020-11-29T08:32:53Z</time>
      </trkpt>
      <trkpt lat="43.55243" lon="1.44527">
        <ele>839</ele>
        <time>2020-11-29T08:32:54Z</time>
      </trkpt>
      <trkpt lat="43.55245" lon="1.44524">
        <ele>839</ele>
        <time>2020-11-29T08:32:55Z</time>
      </trkpt>
      <trkpt lat="43.55246" lon="1.44521">
        <ele>839</ele>
        <time>2020-11-29T08:32:56Z</time>
      </trkpt>
      <trkpt lat="43.55247" lon="1.44518">
        <ele>839</ele>
        <time>2020-11-29T08:32:57Z</time>
      </trkpt>
      <trkpt lat="43.55249" lon="1.44514">
        <ele>839</ele>
        <time>2020-11-29T08:32:58Z</time>
      </trkpt>
      <trkpt lat="43.5525" lon="1.44511">
        <ele>839</ele>
        <time>2020-11-29T08:32:59Z</time>
      </trkpt>
      <trkpt lat="43.55251" lon="1.44508">
        <ele>839</ele>
        <time>2020-11-29T08:33:00Z</time>
      </trkpt>
      <trkpt lat="43.55253" lon="1.44504">
        <ele>839</ele>
        <time>2020-11-29T08:33:01Z</time>
      </trkpt>
      <trkpt lat="43.55254" lon="1.44501">
        <ele>839</ele>
        <time>2020-11-29T08:33:02Z</time>
      </trkpt>
      <trkpt lat="43.55255" lon="1.44498">
        <ele>839</ele>
        <time>2020-11-29T08:33:03Z</time>
      </trkpt>
      <trkpt lat="43.55256" lon="1.44494">
        <ele>839</ele>
        <time>2020-11-29T08:33:04Z</time>
      </trkpt>
      <trkpt lat="43.55257" lon="1.44491">
        <ele>839</ele>
        <time>2020-11-29T08:33:05Z</time>
      </trkpt>
      <trkpt lat="43.55258" lon="1.44488">
        <ele>839</ele>
        <time>2020-11-29T08:33:06Z</time>
      </trkpt>
      <trkpt lat="43.55259" lon="1.44485">
        <ele>837</ele>
        <time>2020-11-29T08:33:07Z</time>
      </trkpt>
      <trkpt lat="43.5526" lon="1.44482">
        <ele>836</ele>
        <time>2020-11-29T08:33:08Z</time>
      </trkpt>
      <trkpt lat="43.55261" lon="1.44479">
        <ele>836</ele>
        <time>2020-11-29T08:33:09Z</time>
      </trkpt>
      <trkpt lat="43.55262" lon="1.44475">
        <ele>837</ele>
        <time>2020-11-29T08:33:10Z</time>
      </trkpt>
      <trkpt lat="43.55263" lon="1.44472">
        <ele>837</ele>
        <time>2020-11-29T08:33:11Z</time>
      </trkpt>
      <trkpt lat="43.55265" lon="1.44468">
        <ele>837</ele>
        <time>2020-11-29T08:33:12Z</time>
      </trkpt>
      <trkpt lat="43.55266" lon="1.44465">
        <ele>837</ele>
        <time>2020-11-29T08:33:13Z</time>
      </trkpt>
      <trkpt lat="43.55267" lon="1.44462">
        <ele>836</ele>
        <time>2020-11-29T08:33:14Z</time>
      </trkpt>
      <trkpt lat="43.5527" lon="1.4446">
        <ele>836</ele>
        <time>2020-11-29T08:33:15Z</time>
      </trkpt>
      <trkpt lat="43.55272" lon="1.44458">
        <ele>836</ele>
        <time>2020-11-29T08:33:16Z</time>
      </trkpt>
      <trkpt lat="43.55274" lon="1.44456">
        <ele>837</ele>
        <time>2020-11-29T08:33:17Z</time>
      </trkpt>
      <trkpt lat="43.55276" lon="1.44453">
        <ele>837</ele>
        <time>2020-11-29T08:33:18Z</time>
      </trkpt>
      <trkpt lat="43.55277" lon="1.4445">
        <ele>837</ele>
        <time>2020-11-29T08:33:19Z</time>
      </trkpt>
      <trkpt lat="43.55279" lon="1.44448">
        <ele>837</ele>
        <time>2020-11-29T08:33:20Z</time>
      </trkpt>
      <trkpt lat="43.5528" lon="1.44445">
        <ele>837</ele>
        <time>2020-11-29T08:33:21Z</time>
      </trkpt>
      <trkpt lat="43.55282" lon="1.44443">
        <ele>837</ele>
        <time>2020-11-29T08:33:22Z</time>
      </trkpt>
      <trkpt lat="43.55284" lon="1.4444">
        <ele>837</ele>
        <time>2020-11-29T08:33:23Z</time>
      </trkpt>
      <trkpt lat="43.55286" lon="1.44438">
        <ele>837</ele>
        <time>2020-11-29T08:33:24Z</time>
      </trkpt>
      <trkpt lat="43.55288" lon="1.44435">
        <ele>837</ele>
        <time>2020-11-29T08:33:25Z</time>
      </trkpt>
      <trkpt lat="43.5529" lon="1.44432">
        <ele>837</ele>
        <time>2020-11-29T08:33:26Z</time>
      </trkpt>
      <trkpt lat="43.55292" lon="1.4443">
        <ele>836</ele>
        <time>2020-11-29T08:33:27Z</time>
      </trkpt>
      <trkpt lat="43.55293" lon="1.44427">
        <ele>836</ele>
        <time>2020-11-29T08:33:28Z</time>
      </trkpt>
      <trkpt lat="43.55295" lon="1.44424">
        <ele>836</ele>
        <time>2020-11-29T08:33:29Z</time>
      </trkpt>
      <trkpt lat="43.55296" lon="1.44421">
        <ele>836</ele>
        <time>2020-11-29T08:33:30Z</time>
      </trkpt>
      <trkpt lat="43.55297" lon="1.44418">
        <ele>836</ele>
        <time>2020-11-29T08:33:31Z</time>
      </trkpt>
      <trkpt lat="43.55297" lon="1.44415">
        <ele>836</ele>
        <time>2020-11-29T08:33:32Z</time>
      </trkpt>
      <trkpt lat="43.55297" lon="1.44411">
        <ele>836</ele>
        <time>2020-11-29T08:33:33Z</time>
      </trkpt>
      <trkpt lat="43.55297" lon="1.44407">
        <ele>836</ele>
        <time>2020-11-29T08:33:34Z</time>
      </trkpt>
      <trkpt lat="43.55297" lon="1.44403">
        <ele>836</ele>
        <time>2020-11-29T08:33:35Z</time>
      </trkpt>
      <trkpt lat="43.55297" lon="1.444">
        <ele>836</ele>
        <time>2020-11-29T08:33:36Z</time>
      </trkpt>
      <trkpt lat="43.55298" lon="1.44396">
        <ele>836</ele>
        <time>2020-11-29T08:33:37Z</time>
      </trkpt>
      <trkpt lat="43.55299" lon="1.44392">
        <ele>835</ele>
        <time>2020-11-29T08:33:38Z</time>
      </trkpt>
      <trkpt lat="43.553" lon="1.44389">
        <ele>834</ele>
        <time>2020-11-29T08:33:39Z</time>
      </trkpt>
      <trkpt lat="43.55301" lon="1.44385">
        <ele>834</ele>
        <time>2020-11-29T08:33:40Z</time>
      </trkpt>
      <trkpt lat="43.55302" lon="1.44382">
        <ele>834</ele>
        <time>2020-11-29T08:33:41Z</time>
      </trkpt>
      <trkpt lat="43.55303" lon="1.44378">
        <ele>834</ele>
        <time>2020-11-29T08:33:42Z</time>
      </trkpt>
      <trkpt lat="43.55305" lon="1.44375">
        <ele>834</ele>
        <time>2020-11-29T08:33:43Z</time>
      </trkpt>
      <trkpt lat="43.55306" lon="1.44371">
        <ele>834</ele>
        <time>2020-11-29T08:33:44Z</time>
      </trkpt>
      <trkpt lat="43.55308" lon="1.44368">
        <ele>834</ele>
        <time>2020-11-29T08:33:45Z</time>
      </trkpt>
      <trkpt lat="43.55309" lon="1.44365">
        <ele>835</ele>
        <time>2020-11-29T08:33:46Z</time>
      </trkpt>
      <trkpt lat="43.5531" lon="1.44361">
        <ele>835</ele>
        <time>2020-11-29T08:33:47Z</time>
      </trkpt>
      <trkpt lat="43.55312" lon="1.44358">
        <ele>835</ele>
        <time>2020-11-29T08:33:48Z</time>
      </trkpt>
      <trkpt lat="43.55313" lon="1.44355">
        <ele>834</ele>
        <time>2020-11-29T08:33:49Z</time>
      </trkpt>
      <trkpt lat="43.55315" lon="1.44352">
        <ele>834</ele>
        <time>2020-11-29T08:33:50Z</time>
      </trkpt>
      <trkpt lat="43.55316" lon="1.44349">
        <ele>834</ele>
        <time>2020-11-29T08:33:51Z</time>
      </trkpt>
      <trkpt lat="43.55318" lon="1.44346">
        <ele>834</ele>
        <time>2020-11-29T08:33:52Z</time>
      </trkpt>
      <trkpt lat="43.55319" lon="1.44343">
        <ele>834</ele>
        <time>2020-11-29T08:33:53Z</time>
      </trkpt>
      <trkpt lat="43.55321" lon="1.4434">
        <ele>834</ele>
        <time>2020-11-29T08:33:54Z</time>
      </trkpt>
      <trkpt lat="43.55322" lon="1.44336">
        <ele>834</ele>
        <time>2020-11-29T08:33:55Z</time>
      </trkpt>
      <trkpt lat="43.55323" lon="1.44333">
        <ele>834</ele>
        <time>2020-11-29T08:33:56Z</time>
      </trkpt>
      <trkpt lat="43.55325" lon="1.44329">
        <ele>833</ele>
        <time>2020-11-29T08:33:57Z</time>
      </trkpt>
      <trkpt lat="43.55326" lon="1.44326">
        <ele>833</ele>
        <time>2020-11-29T08:33:58Z</time>
      </trkpt>
      <trkpt lat="43.55328" lon="1.44323">
        <ele>833</ele>
        <time>2020-11-29T08:33:59Z</time>
      </trkpt>
      <trkpt lat="43.55329" lon="1.44321">
        <ele>833</ele>
        <time>2020-11-29T08:34:00Z</time>
      </trkpt>
      <trkpt lat="43.55331" lon="1.44318">
        <ele>832</ele>
        <time>2020-11-29T08:34:01Z</time>
      </trkpt>
      <trkpt lat="43.55333" lon="1.44315">
        <ele>832</ele>
        <time>2020-11-29T08:34:02Z</time>
      </trkpt>
      <trkpt lat="43.55335" lon="1.44312">
        <ele>832</ele>
        <time>2020-11-29T08:34:03Z</time>
      </trkpt>
      <trkpt lat="43.55337" lon="1.4431">
        <ele>833</ele>
        <time>2020-11-29T08:34:04Z</time>
      </trkpt>
      <trkpt lat="43.55339" lon="1.44308">
        <ele>833</ele>
        <time>2020-11-29T08:34:05Z</time>
      </trkpt>
      <trkpt lat="43.55342" lon="1.44306">
        <ele>832</ele>
        <time>2020-11-29T08:34:06Z</time>
      </trkpt>
      <trkpt lat="43.55344" lon="1.44305">
        <ele>832</ele>
        <time>2020-11-29T08:34:07Z</time>
      </trkpt>
      <trkpt lat="43.55347" lon="1.44304">
        <ele>832</ele>
        <time>2020-11-29T08:34:08Z</time>
      </trkpt>
      <trkpt lat="43.5535" lon="1.44303">
        <ele>832</ele>
        <time>2020-11-29T08:34:09Z</time>
      </trkpt>
      <trkpt lat="43.55353" lon="1.44302">
        <ele>833</ele>
        <time>2020-11-29T08:34:10Z</time>
      </trkpt>
      <trkpt lat="43.55356" lon="1.44301">
        <ele>833</ele>
        <time>2020-11-29T08:34:11Z</time>
      </trkpt>
      <trkpt lat="43.55358" lon="1.44301">
        <ele>833</ele>
        <time>2020-11-29T08:34:12Z</time>
      </trkpt>
      <trkpt lat="43.55361" lon="1.443">
        <ele>833</ele>
        <time>2020-11-29T08:34:13Z</time>
      </trkpt>
      <trkpt lat="43.55364" lon="1.443">
        <ele>833</ele>
        <time>2020-11-29T08:34:14Z</time>
      </trkpt>
      <trkpt lat="43.55367" lon="1.443">
        <ele>833</ele>
        <time>2020-11-29T08:34:15Z</time>
      </trkpt>
      <trkpt lat="43.55369" lon="1.443">
        <ele>833</ele>
        <time>2020-11-29T08:34:16Z</time>
      </trkpt>
      <trkpt lat="43.55372" lon="1.443">
        <ele>833</ele>
        <time>2020-11-29T08:34:17Z</time>
      </trkpt>
      <trkpt lat="43.55375" lon="1.44301">
        <ele>833</ele>
        <time>2020-11-29T08:34:18Z</time>
      </trkpt>
      <trkpt lat="43.55378" lon="1.443">
        <ele>833</ele>
        <time>2020-11-29T08:34:19Z</time>
      </trkpt>
      <trkpt lat="43.55381" lon="1.44299">
        <ele>833</ele>
        <time>2020-11-29T08:34:20Z</time>
      </trkpt>
      <trkpt lat="43.55383" lon="1.44299">
        <ele>833</ele>
        <time>2020-11-29T08:34:21Z</time>
      </trkpt>
      <trkpt lat="43.55386" lon="1.44299">
        <ele>833</ele>
        <time>2020-11-29T08:34:22Z</time>
      </trkpt>
      <trkpt lat="43.55389" lon="1.44298">
        <ele>833</ele>
        <time>2020-11-29T08:34:23Z</time>
      </trkpt>
      <trkpt lat="43.55392" lon="1.44298">
        <ele>832</ele>
        <time>2020-11-29T08:34:24Z</time>
      </trkpt>
      <trkpt lat="43.55394" lon="1.44297">
        <ele>832</ele>
        <time>2020-11-29T08:34:25Z</time>
      </trkpt>
      <trkpt lat="43.55397" lon="1.44297">
        <ele>832</ele>
        <time>2020-11-29T08:34:26Z</time>
      </trkpt>
      <trkpt lat="43.554" lon="1.44296">
        <ele>832</ele>
        <time>2020-11-29T08:34:27Z</time>
      </trkpt>
      <trkpt lat="43.55403" lon="1.44296">
        <ele>831</ele>
        <time>2020-11-29T08:34:28Z</time>
      </trkpt>
      <trkpt lat="43.55406" lon="1.44297">
        <ele>831</ele>
        <time>2020-11-29T08:34:29Z</time>
      </trkpt>
      <trkpt lat="43.55409" lon="1.44299">
        <ele>831</ele>
        <time>2020-11-29T08:34:30Z</time>
      </trkpt>
      <trkpt lat="43.55412" lon="1.44301">
        <ele>831</ele>
        <time>2020-11-29T08:34:31Z</time>
      </trkpt>
      <trkpt lat="43.55414" lon="1.44303">
        <ele>831</ele>
        <time>2020-11-29T08:34:32Z</time>
      </trkpt>
      <trkpt lat="43.55417" lon="1.44306">
        <ele>830</ele>
        <time>2020-11-29T08:34:33Z</time>
      </trkpt>
      <trkpt lat="43.55419" lon="1.44309">
        <ele>830</ele>
        <time>2020-11-29T08:34:34Z</time>
      </trkpt>
      <trkpt lat="43.5542" lon="1.44312">
        <ele>830</ele>
        <time>2020-11-29T08:34:35Z</time>
      </trkpt>
      <trkpt lat="43.55422" lon="1.44316">
        <ele>830</ele>
        <time>2020-11-29T08:34:36Z</time>
      </trkpt>
      <trkpt lat="43.55424" lon="1.44319">
        <ele>829</ele>
        <time>2020-11-29T08:34:37Z</time>
      </trkpt>
      <trkpt lat="43.55426" lon="1.44322">
        <ele>828</ele>
        <time>2020-11-29T08:34:38Z</time>
      </trkpt>
      <trkpt lat="43.55428" lon="1.44324">
        <ele>828</ele>
        <time>2020-11-29T08:34:39Z</time>
      </trkpt>
      <trkpt lat="43.55431" lon="1.44327">
        <ele>828</ele>
        <time>2020-11-29T08:34:40Z</time>
      </trkpt>
      <trkpt lat="43.55433" lon="1.44328">
        <ele>828</ele>
        <time>2020-11-29T08:34:41Z</time>
      </trkpt>
      <trkpt lat="43.55435" lon="1.4433">
        <ele>827</ele>
        <time>2020-11-29T08:34:42Z</time>
      </trkpt>
      <trkpt lat="43.55438" lon="1.44332">
        <ele>826</ele>
        <time>2020-11-29T08:34:43Z</time>
      </trkpt>
      <trkpt lat="43.5544" lon="1.44333">
        <ele>825</ele>
        <time>2020-11-29T08:34:44Z</time>
      </trkpt>
      <trkpt lat="43.55443" lon="1.44335">
        <ele>825</ele>
        <time>2020-11-29T08:34:45Z</time>
      </trkpt>
      <trkpt lat="43.55445" lon="1.44337">
        <ele>825</ele>
        <time>2020-11-29T08:34:46Z</time>
      </trkpt>
      <trkpt lat="43.55448" lon="1.44338">
        <ele>825</ele>
        <time>2020-11-29T08:34:47Z</time>
      </trkpt>
      <trkpt lat="43.55451" lon="1.4434">
        <ele>825</ele>
        <time>2020-11-29T08:34:48Z</time>
      </trkpt>
      <trkpt lat="43.55453" lon="1.44341">
        <ele>825</ele>
        <time>2020-11-29T08:34:49Z</time>
      </trkpt>
      <trkpt lat="43.55456" lon="1.44342">
        <ele>825</ele>
        <time>2020-11-29T08:34:50Z</time>
      </trkpt>
      <trkpt lat="43.55459" lon="1.44344">
        <ele>825</ele>
        <time>2020-11-29T08:34:51Z</time>
      </trkpt>
      <trkpt lat="43.55462" lon="1.44345">
        <ele>824</ele>
        <time>2020-11-29T08:34:52Z</time>
      </trkpt>
      <trkpt lat="43.55465" lon="1.44347">
        <ele>824</ele>
        <time>2020-11-29T08:34:53Z</time>
      </trkpt>
      <trkpt lat="43.55467" lon="1.44349">
        <ele>824</ele>
        <time>2020-11-29T08:34:54Z</time>
      </trkpt>
      <trkpt lat="43.55469" lon="1.4435">
        <ele>824</ele>
        <time>2020-11-29T08:34:55Z</time>
      </trkpt>
      <trkpt lat="43.55472" lon="1.44351">
        <ele>824</ele>
        <time>2020-11-29T08:34:56Z</time>
      </trkpt>
      <trkpt lat="43.55474" lon="1.44352">
        <ele>825</ele>
        <time>2020-11-29T08:34:57Z</time>
      </trkpt>
      <trkpt lat="43.55476" lon="1.44354">
        <ele>825</ele>
        <time>2020-11-29T08:34:58Z</time>
      </trkpt>
      <trkpt lat="43.55478" lon="1.44355">
        <ele>826</ele>
        <time>2020-11-29T08:34:59Z</time>
      </trkpt>
      <trkpt lat="43.5548" lon="1.44356">
        <ele>826</ele>
        <time>2020-11-29T08:35:00Z</time>
      </trkpt>
      <trkpt lat="43.55483" lon="1.44357">
        <ele>827</ele>
        <time>2020-11-29T08:35:01Z</time>
      </trkpt>
      <trkpt lat="43.55485" lon="1.44359">
        <ele>827</ele>
        <time>2020-11-29T08:35:02Z</time>
      </trkpt>
      <trkpt lat="43.55487" lon="1.4436">
        <ele>827</ele>
        <time>2020-11-29T08:35:03Z</time>
      </trkpt>
      <trkpt lat="43.5549" lon="1.44362">
        <ele>827</ele>
        <time>2020-11-29T08:35:04Z</time>
      </trkpt>
      <trkpt lat="43.55492" lon="1.44364">
        <ele>827</ele>
        <time>2020-11-29T08:35:05Z</time>
      </trkpt>
      <trkpt lat="43.55494" lon="1.44365">
        <ele>827</ele>
        <time>2020-11-29T08:35:06Z</time>
      </trkpt>
      <trkpt lat="43.55496" lon="1.44367">
        <ele>827</ele>
        <time>2020-11-29T08:35:07Z</time>
      </trkpt>
      <trkpt lat="43.55498" lon="1.44369">
        <ele>828</ele>
        <time>2020-11-29T08:35:08Z</time>
      </trkpt>
      <trkpt lat="43.555" lon="1.44371">
        <ele>828</ele>
        <time>2020-11-29T08:35:09Z</time>
      </trkpt>
      <trkpt lat="43.55502" lon="1.44373">
        <ele>828</ele>
        <time>2020-11-29T08:35:10Z</time>
      </trkpt>
      <trkpt lat="43.55505" lon="1.44375">
        <ele>828</ele>
        <time>2020-11-29T08:35:11Z</time>
      </trkpt>
      <trkpt lat="43.55507" lon="1.44376">
        <ele>829</ele>
        <time>2020-11-29T08:35:12Z</time>
      </trkpt>
      <trkpt lat="43.55509" lon="1.44378">
        <ele>830</ele>
        <time>2020-11-29T08:35:13Z</time>
      </trkpt>
      <trkpt lat="43.55511" lon="1.4438">
        <ele>830</ele>
        <time>2020-11-29T08:35:14Z</time>
      </trkpt>
      <trkpt lat="43.55513" lon="1.44381">
        <ele>831</ele>
        <time>2020-11-29T08:35:15Z</time>
      </trkpt>
      <trkpt lat="43.55515" lon="1.44383">
        <ele>831</ele>
        <time>2020-11-29T08:35:16Z</time>
      </trkpt>
      <trkpt lat="43.55517" lon="1.44384">
        <ele>831</ele>
        <time>2020-11-29T08:35:17Z</time>
      </trkpt>
      <trkpt lat="43.55518" lon="1.44385">
        <ele>831</ele>
        <time>2020-11-29T08:35:18Z</time>
      </trkpt>
      <trkpt lat="43.5552" lon="1.44386">
        <ele>831</ele>
        <time>2020-11-29T08:35:19Z</time>
      </trkpt>
      <trkpt lat="43.55522" lon="1.44388">
        <ele>832</ele>
        <time>2020-11-29T08:35:20Z</time>
      </trkpt>
      <trkpt lat="43.55524" lon="1.44389">
        <ele>832</ele>
        <time>2020-11-29T08:35:21Z</time>
      </trkpt>
      <trkpt lat="43.55525" lon="1.4439">
        <ele>833</ele>
        <time>2020-11-29T08:35:22Z</time>
      </trkpt>
      <trkpt lat="43.55527" lon="1.44392">
        <ele>833</ele>
        <time>2020-11-29T08:35:23Z</time>
      </trkpt>
      <trkpt lat="43.55529" lon="1.44393">
        <ele>834</ele>
        <time>2020-11-29T08:35:24Z</time>
      </trkpt>
      <trkpt lat="43.55531" lon="1.44394">
        <ele>834</ele>
        <time>2020-11-29T08:35:25Z</time>
      </trkpt>
      <trkpt lat="43.55533" lon="1.44394">
        <ele>835</ele>
        <time>2020-11-29T08:35:26Z</time>
      </trkpt>
      <trkpt lat="43.55535" lon="1.44396">
        <ele>835</ele>
        <time>2020-11-29T08:35:27Z</time>
      </trkpt>
      <trkpt lat="43.55537" lon="1.44397">
        <ele>835</ele>
        <time>2020-11-29T08:35:28Z</time>
      </trkpt>
      <trkpt lat="43.55539" lon="1.44399">
        <ele>835</ele>
        <time>2020-11-29T08:35:29Z</time>
      </trkpt>
      <trkpt lat="43.55541" lon="1.444">
        <ele>835</ele>
        <time>2020-11-29T08:35:30Z</time>
      </trkpt>
      <trkpt lat="43.55544" lon="1.44401">
        <ele>836</ele>
        <time>2020-11-29T08:35:31Z</time>
      </trkpt>
      <trkpt lat="43.55545" lon="1.44402">
        <ele>836</ele>
        <time>2020-11-29T08:35:32Z</time>
      </trkpt>
      <trkpt lat="43.55548" lon="1.44403">
        <ele>837</ele>
        <time>2020-11-29T08:35:33Z</time>
      </trkpt>
      <trkpt lat="43.5555" lon="1.44405">
        <ele>837</ele>
        <time>2020-11-29T08:35:34Z</time>
      </trkpt>
      <trkpt lat="43.55552" lon="1.44406">
        <ele>837</ele>
        <time>2020-11-29T08:35:35Z</time>
      </trkpt>
      <trkpt lat="43.55554" lon="1.44407">
        <ele>837</ele>
        <time>2020-11-29T08:35:36Z</time>
      </trkpt>
      <trkpt lat="43.55556" lon="1.44408">
        <ele>838</ele>
        <time>2020-11-29T08:35:37Z</time>
      </trkpt>
      <trkpt lat="43.55558" lon="1.4441">
        <ele>838</ele>
        <time>2020-11-29T08:35:38Z</time>
      </trkpt>
      <trkpt lat="43.5556" lon="1.44411">
        <ele>839</ele>
        <time>2020-11-29T08:35:39Z</time>
      </trkpt>
      <trkpt lat="43.55562" lon="1.44413">
        <ele>840</ele>
        <time>2020-11-29T08:35:40Z</time>
      </trkpt>
      <trkpt lat="43.55564" lon="1.44415">
        <ele>840</ele>
        <time>2020-11-29T08:35:41Z</time>
      </trkpt>
      <trkpt lat="43.55566" lon="1.44416">
        <ele>840</ele>
        <time>2020-11-29T08:35:42Z</time>
      </trkpt>
      <trkpt lat="43.55568" lon="1.44418">
        <ele>840</ele>
        <time>2020-11-29T08:35:43Z</time>
      </trkpt>
      <trkpt lat="43.55571" lon="1.44419">
        <ele>841</ele>
        <time>2020-11-29T08:35:44Z</time>
      </trkpt>
      <trkpt lat="43.55573" lon="1.44421">
        <ele>841</ele>
        <time>2020-11-29T08:35:45Z</time>
      </trkpt>
      <trkpt lat="43.55575" lon="1.44422">
        <ele>841</ele>
        <time>2020-11-29T08:35:46Z</time>
      </trkpt>
      <trkpt lat="43.55577" lon="1.44423">
        <ele>841</ele>
        <time>2020-11-29T08:35:47Z</time>
      </trkpt>
      <trkpt lat="43.55579" lon="1.44424">
        <ele>841</ele>
        <time>2020-11-29T08:35:48Z</time>
      </trkpt>
      <trkpt lat="43.5558" lon="1.44426">
        <ele>841</ele>
        <time>2020-11-29T08:35:49Z</time>
      </trkpt>
      <trkpt lat="43.55583" lon="1.44427">
        <ele>842</ele>
        <time>2020-11-29T08:35:50Z</time>
      </trkpt>
      <trkpt lat="43.55585" lon="1.44428">
        <ele>842</ele>
        <time>2020-11-29T08:35:51Z</time>
      </trkpt>
      <trkpt lat="43.55587" lon="1.4443">
        <ele>842</ele>
        <time>2020-11-29T08:35:52Z</time>
      </trkpt>
      <trkpt lat="43.55588" lon="1.44431">
        <ele>842</ele>
        <time>2020-11-29T08:35:53Z</time>
      </trkpt>
      <trkpt lat="43.5559" lon="1.44432">
        <ele>843</ele>
        <time>2020-11-29T08:35:54Z</time>
      </trkpt>
      <trkpt lat="43.55592" lon="1.44434">
        <ele>843</ele>
        <time>2020-11-29T08:35:55Z</time>
      </trkpt>
      <trkpt lat="43.55594" lon="1.44435">
        <ele>843</ele>
        <time>2020-11-29T08:35:56Z</time>
      </trkpt>
      <trkpt lat="43.55596" lon="1.44437">
        <ele>843</ele>
        <time>2020-11-29T08:35:57Z</time>
      </trkpt>
      <trkpt lat="43.55597" lon="1.44439">
        <ele>843</ele>
        <time>2020-11-29T08:35:58Z</time>
      </trkpt>
      <trkpt lat="43.55599" lon="1.4444">
        <ele>844</ele>
        <time>2020-11-29T08:35:59Z</time>
      </trkpt>
      <trkpt lat="43.55602" lon="1.44443">
        <ele>844</ele>
        <time>2020-11-29T08:36:01Z</time>
      </trkpt>
      <trkpt lat="43.55603" lon="1.44444">
        <ele>844</ele>
        <time>2020-11-29T08:36:02Z</time>
      </trkpt>
      <trkpt lat="43.55605" lon="1.44445">
        <ele>844</ele>
        <time>2020-11-29T08:36:03Z</time>
      </trkpt>
      <trkpt lat="43.55607" lon="1.44447">
        <ele>845</ele>
        <time>2020-11-29T08:36:04Z</time>
      </trkpt>
      <trkpt lat="43.55609" lon="1.44448">
        <ele>845</ele>
        <time>2020-11-29T08:36:05Z</time>
      </trkpt>
      <trkpt lat="43.5561" lon="1.44449">
        <ele>846</ele>
        <time>2020-11-29T08:36:06Z</time>
      </trkpt>
      <trkpt lat="43.55612" lon="1.44451">
        <ele>846</ele>
        <time>2020-11-29T08:36:07Z</time>
      </trkpt>
      <trkpt lat="43.55614" lon="1.44452">
        <ele>846</ele>
        <time>2020-11-29T08:36:08Z</time>
      </trkpt>
      <trkpt lat="43.55616" lon="1.44453">
        <ele>846</ele>
        <time>2020-11-29T08:36:09Z</time>
      </trkpt>
      <trkpt lat="43.55617" lon="1.44455">
        <ele>846</ele>
        <time>2020-11-29T08:36:10Z</time>
      </trkpt>
      <trkpt lat="43.55619" lon="1.44456">
        <ele>846</ele>
        <time>2020-11-29T08:36:11Z</time>
      </trkpt>
      <trkpt lat="43.55622" lon="1.44458">
        <ele>847</ele>
        <time>2020-11-29T08:36:13Z</time>
      </trkpt>
      <trkpt lat="43.55625" lon="1.4446">
        <ele>848</ele>
        <time>2020-11-29T08:36:15Z</time>
      </trkpt>
      <trkpt lat="43.55627" lon="1.44462">
        <ele>848</ele>
        <time>2020-11-29T08:36:16Z</time>
      </trkpt>
      <trkpt lat="43.55629" lon="1.44463">
        <ele>848</ele>
        <time>2020-11-29T08:36:17Z</time>
      </trkpt>
      <trkpt lat="43.55631" lon="1.44465">
        <ele>849</ele>
        <time>2020-11-29T08:36:18Z</time>
      </trkpt>
      <trkpt lat="43.55632" lon="1.44466">
        <ele>849</ele>
        <time>2020-11-29T08:36:19Z</time>
      </trkpt>
      <trkpt lat="43.55634" lon="1.44468">
        <ele>849</ele>
        <time>2020-11-29T08:36:20Z</time>
      </trkpt>
      <trkpt lat="43.55636" lon="1.44469">
        <ele>849</ele>
        <time>2020-11-29T08:36:21Z</time>
      </trkpt>
      <trkpt lat="43.55637" lon="1.4447">
        <ele>850</ele>
        <time>2020-11-29T08:36:22Z</time>
      </trkpt>
      <trkpt lat="43.55639" lon="1.44472">
        <ele>850</ele>
        <time>2020-11-29T08:36:23Z</time>
      </trkpt>
      <trkpt lat="43.55641" lon="1.44474">
        <ele>850</ele>
        <time>2020-11-29T08:36:24Z</time>
      </trkpt>
      <trkpt lat="43.55643" lon="1.44475">
        <ele>850</ele>
        <time>2020-11-29T08:36:25Z</time>
      </trkpt>
      <trkpt lat="43.55646" lon="1.44477">
        <ele>851</ele>
        <time>2020-11-29T08:36:27Z</time>
      </trkpt>
      <trkpt lat="43.55649" lon="1.4448">
        <ele>852</ele>
        <time>2020-11-29T08:36:29Z</time>
      </trkpt>
      <trkpt lat="43.55651" lon="1.44482">
        <ele>853</ele>
        <time>2020-11-29T08:36:31Z</time>
      </trkpt>
      <trkpt lat="43.55653" lon="1.44483">
        <ele>854</ele>
        <time>2020-11-29T08:36:33Z</time>
      </trkpt>
      <trkpt lat="43.55656" lon="1.44485">
        <ele>854</ele>
        <time>2020-11-29T08:36:35Z</time>
      </trkpt>
      <trkpt lat="43.55658" lon="1.44487">
        <ele>855</ele>
        <time>2020-11-29T08:36:37Z</time>
      </trkpt>
      <trkpt lat="43.5566" lon="1.4449">
        <ele>855</ele>
        <time>2020-11-29T08:36:39Z</time>
      </trkpt>
      <trkpt lat="43.55662" lon="1.44492">
        <ele>856</ele>
        <time>2020-11-29T08:36:41Z</time>
      </trkpt>
      <trkpt lat="43.55663" lon="1.44493">
        <ele>856</ele>
        <time>2020-11-29T08:36:43Z</time>
      </trkpt>
      <trkpt lat="43.55666" lon="1.44495">
        <ele>856</ele>
        <time>2020-11-29T08:36:45Z</time>
      </trkpt>
      <trkpt lat="43.55668" lon="1.44496">
        <ele>857</ele>
        <time>2020-11-29T08:36:47Z</time>
      </trkpt>
      <trkpt lat="43.55669" lon="1.44499">
        <ele>857</ele>
        <time>2020-11-29T08:36:49Z</time>
      </trkpt>
      <trkpt lat="43.55671" lon="1.445">
        <ele>857</ele>
        <time>2020-11-29T08:36:51Z</time>
      </trkpt>
      <trkpt lat="43.55674" lon="1.445">
        <ele>859</ele>
        <time>2020-11-29T08:36:54Z</time>
      </trkpt>
      <trkpt lat="43.55676" lon="1.44501">
        <ele>860</ele>
        <time>2020-11-29T08:36:57Z</time>
      </trkpt>
      <trkpt lat="43.55678" lon="1.44501">
        <ele>860</ele>
        <time>2020-11-29T08:37:00Z</time>
      </trkpt>
      <trkpt lat="43.55681" lon="1.44503">
        <ele>861</ele>
        <time>2020-11-29T08:37:03Z</time>
      </trkpt>
      <trkpt lat="43.55683" lon="1.44504">
        <ele>861</ele>
        <time>2020-11-29T08:37:05Z</time>
      </trkpt>
      <trkpt lat="43.55685" lon="1.44505">
        <ele>862</ele>
        <time>2020-11-29T08:37:07Z</time>
      </trkpt>
      <trkpt lat="43.55687" lon="1.44506">
        <ele>862</ele>
        <time>2020-11-29T08:37:09Z</time>
      </trkpt>
      <trkpt lat="43.55689" lon="1.44508">
        <ele>862</ele>
        <time>2020-11-29T08:37:11Z</time>
      </trkpt>
      <trkpt lat="43.55691" lon="1.4451">
        <ele>863</ele>
        <time>2020-11-29T08:37:13Z</time>
      </trkpt>
      <trkpt lat="43.55694" lon="1.44511">
        <ele>863</ele>
        <time>2020-11-29T08:37:15Z</time>
      </trkpt>
      <trkpt lat="43.55696" lon="1.44513">
        <ele>863</ele>
        <time>2020-11-29T08:37:17Z</time>
      </trkpt>
      <trkpt lat="43.55698" lon="1.44515">
        <ele>864</ele>
        <time>2020-11-29T08:37:19Z</time>
      </trkpt>
      <trkpt lat="43.557" lon="1.44517">
        <ele>865</ele>
        <time>2020-11-29T08:37:21Z</time>
      </trkpt>
      <trkpt lat="43.55702" lon="1.44519">
        <ele>866</ele>
        <time>2020-11-29T08:37:23Z</time>
      </trkpt>
      <trkpt lat="43.55705" lon="1.44521">
        <ele>867</ele>
        <time>2020-11-29T08:37:25Z</time>
      </trkpt>
      <trkpt lat="43.55707" lon="1.44523">
        <ele>867</ele>
        <time>2020-11-29T08:37:27Z</time>
      </trkpt>
      <trkpt lat="43.55709" lon="1.44524">
        <ele>867</ele>
        <time>2020-11-29T08:37:29Z</time>
      </trkpt>
      <trkpt lat="43.55712" lon="1.44525">
        <ele>867</ele>
        <time>2020-11-29T08:37:31Z</time>
      </trkpt>
      <trkpt lat="43.55715" lon="1.44526">
        <ele>866</ele>
        <time>2020-11-29T08:37:33Z</time>
      </trkpt>
      <trkpt lat="43.55717" lon="1.44528">
        <ele>867</ele>
        <time>2020-11-29T08:37:35Z</time>
      </trkpt>
      <trkpt lat="43.55719" lon="1.4453">
        <ele>867</ele>
        <time>2020-11-29T08:37:37Z</time>
      </trkpt>
      <trkpt lat="43.55721" lon="1.44532">
        <ele>867</ele>
        <time>2020-11-29T08:37:39Z</time>
      </trkpt>
      <trkpt lat="43.55724" lon="1.44534">
        <ele>867</ele>
        <time>2020-11-29T08:37:41Z</time>
      </trkpt>
      <trkpt lat="43.55727" lon="1.44536">
        <ele>867</ele>
        <time>2020-11-29T08:37:43Z</time>
      </trkpt>
      <trkpt lat="43.55729" lon="1.44538">
        <ele>867</ele>
        <time>2020-11-29T08:37:45Z</time>
      </trkpt>
      <trkpt lat="43.55732" lon="1.4454">
        <ele>868</ele>
        <time>2020-11-29T08:37:47Z</time>
      </trkpt>
      <trkpt lat="43.55734" lon="1.44543">
        <ele>868</ele>
        <time>2020-11-29T08:37:49Z</time>
      </trkpt>
      <trkpt lat="43.55736" lon="1.44546">
        <ele>868</ele>
        <time>2020-11-29T08:37:51Z</time>
      </trkpt>
      <trkpt lat="43.55738" lon="1.44549">
        <ele>868</ele>
        <time>2020-11-29T08:37:53Z</time>
      </trkpt>
      <trkpt lat="43.5574" lon="1.44551">
        <ele>868</ele>
        <time>2020-11-29T08:37:55Z</time>
      </trkpt>
      <trkpt lat="43.55742" lon="1.44553">
        <ele>869</ele>
        <time>2020-11-29T08:37:57Z</time>
      </trkpt>
      <trkpt lat="43.55745" lon="1.44554">
        <ele>869</ele>
        <time>2020-11-29T08:37:59Z</time>
      </trkpt>
      <trkpt lat="43.55747" lon="1.44555">
        <ele>869</ele>
        <time>2020-11-29T08:38:01Z</time>
      </trkpt>
      <trkpt lat="43.55749" lon="1.44556">
        <ele>870</ele>
        <time>2020-11-29T08:38:03Z</time>
      </trkpt>
      <trkpt lat="43.55751" lon="1.44558">
        <ele>871</ele>
        <time>2020-11-29T08:38:05Z</time>
      </trkpt>
      <trkpt lat="43.55753" lon="1.44559">
        <ele>871</ele>
        <time>2020-11-29T08:38:07Z</time>
      </trkpt>
      <trkpt lat="43.55755" lon="1.44561">
        <ele>871</ele>
        <time>2020-11-29T08:38:09Z</time>
      </trkpt>
      <trkpt lat="43.55758" lon="1.44563">
        <ele>871</ele>
        <time>2020-11-29T08:38:11Z</time>
      </trkpt>
      <trkpt lat="43.5576" lon="1.44565">
        <ele>871</ele>
        <time>2020-11-29T08:38:13Z</time>
      </trkpt>
      <trkpt lat="43.55762" lon="1.44567">
        <ele>871</ele>
        <time>2020-11-29T08:38:15Z</time>
      </trkpt>
      <trkpt lat="43.55765" lon="1.44568">
        <ele>872</ele>
        <time>2020-11-29T08:38:17Z</time>
      </trkpt>
      <trkpt lat="43.55767" lon="1.44568">
        <ele>872</ele>
        <time>2020-11-29T08:38:19Z</time>
      </trkpt>
      <trkpt lat="43.5577" lon="1.44569">
        <ele>873</ele>
        <time>2020-11-29T08:38:21Z</time>
      </trkpt>
      <trkpt lat="43.55772" lon="1.4457">
        <ele>874</ele>
        <time>2020-11-29T08:38:23Z</time>
      </trkpt>
      <trkpt lat="43.55775" lon="1.44571">
        <ele>874</ele>
        <time>2020-11-29T08:38:25Z</time>
      </trkpt>
      <trkpt lat="43.55778" lon="1.44572">
        <ele>874</ele>
        <time>2020-11-29T08:38:27Z</time>
      </trkpt>
      <trkpt lat="43.55781" lon="1.44572">
        <ele>875</ele>
        <time>2020-11-29T08:38:29Z</time>
      </trkpt>
      <trkpt lat="43.55784" lon="1.44573">
        <ele>875</ele>
        <time>2020-11-29T08:38:31Z</time>
      </trkpt>
      <trkpt lat="43.55786" lon="1.44574">
        <ele>875</ele>
        <time>2020-11-29T08:38:33Z</time>
      </trkpt>
      <trkpt lat="43.55789" lon="1.44575">
        <ele>875</ele>
        <time>2020-11-29T08:38:35Z</time>
      </trkpt>
      <trkpt lat="43.55791" lon="1.44575">
        <ele>875</ele>
        <time>2020-11-29T08:38:36Z</time>
      </trkpt>
      <trkpt lat="43.55793" lon="1.44576">
        <ele>875</ele>
        <time>2020-11-29T08:38:37Z</time>
      </trkpt>
      <trkpt lat="43.55796" lon="1.44577">
        <ele>875</ele>
        <time>2020-11-29T08:38:38Z</time>
      </trkpt>
      <trkpt lat="43.55798" lon="1.44578">
        <ele>875</ele>
        <time>2020-11-29T08:38:39Z</time>
      </trkpt>
      <trkpt lat="43.558" lon="1.44579">
        <ele>876</ele>
        <time>2020-11-29T08:38:40Z</time>
      </trkpt>
      <trkpt lat="43.55802" lon="1.4458">
        <ele>876</ele>
        <time>2020-11-29T08:38:41Z</time>
      </trkpt>
      <trkpt lat="43.55804" lon="1.44581">
        <ele>876</ele>
        <time>2020-11-29T08:38:42Z</time>
      </trkpt>
      <trkpt lat="43.55807" lon="1.44582">
        <ele>876</ele>
        <time>2020-11-29T08:38:43Z</time>
      </trkpt>
      <trkpt lat="43.55809" lon="1.44582">
        <ele>876</ele>
        <time>2020-11-29T08:38:44Z</time>
      </trkpt>
      <trkpt lat="43.55811" lon="1.44583">
        <ele>877</ele>
        <time>2020-11-29T08:38:45Z</time>
      </trkpt>
      <trkpt lat="43.55814" lon="1.44583">
        <ele>877</ele>
        <time>2020-11-29T08:38:46Z</time>
      </trkpt>
      <trkpt lat="43.55816" lon="1.44584">
        <ele>877</ele>
        <time>2020-11-29T08:38:47Z</time>
      </trkpt>
      <trkpt lat="43.55818" lon="1.44584">
        <ele>877</ele>
        <time>2020-11-29T08:38:48Z</time>
      </trkpt>
      <trkpt lat="43.55821" lon="1.44584">
        <ele>877</ele>
        <time>2020-11-29T08:38:49Z</time>
      </trkpt>
      <trkpt lat="43.55823" lon="1.44585">
        <ele>877</ele>
        <time>2020-11-29T08:38:50Z</time>
      </trkpt>
      <trkpt lat="43.55825" lon="1.44584">
        <ele>877</ele>
        <time>2020-11-29T08:38:51Z</time>
      </trkpt>
      <trkpt lat="43.55828" lon="1.44584">
        <ele>877</ele>
        <time>2020-11-29T08:38:52Z</time>
      </trkpt>
      <trkpt lat="43.5583" lon="1.44584">
        <ele>877</ele>
        <time>2020-11-29T08:38:53Z</time>
      </trkpt>
      <trkpt lat="43.55833" lon="1.44583">
        <ele>877</ele>
        <time>2020-11-29T08:38:54Z</time>
      </trkpt>
      <trkpt lat="43.55835" lon="1.44583">
        <ele>877</ele>
        <time>2020-11-29T08:38:55Z</time>
      </trkpt>
      <trkpt lat="43.55837" lon="1.44583">
        <ele>877</ele>
        <time>2020-11-29T08:38:56Z</time>
      </trkpt>
      <trkpt lat="43.5584" lon="1.44582">
        <ele>877</ele>
        <time>2020-11-29T08:38:57Z</time>
      </trkpt>
      <trkpt lat="43.55842" lon="1.44581">
        <ele>877</ele>
        <time>2020-11-29T08:38:58Z</time>
      </trkpt>
      <trkpt lat="43.55845" lon="1.44581">
        <ele>877</ele>
        <time>2020-11-29T08:38:59Z</time>
      </trkpt>
      <trkpt lat="43.55847" lon="1.44581">
        <ele>877</ele>
        <time>2020-11-29T08:39:00Z</time>
      </trkpt>
      <trkpt lat="43.5585" lon="1.4458">
        <ele>877</ele>
        <time>2020-11-29T08:39:01Z</time>
      </trkpt>
      <trkpt lat="43.55852" lon="1.44579">
        <ele>877</ele>
        <time>2020-11-29T08:39:02Z</time>
      </trkpt>
      <trkpt lat="43.55855" lon="1.44579">
        <ele>877</ele>
        <time>2020-11-29T08:39:03Z</time>
      </trkpt>
      <trkpt lat="43.55857" lon="1.44578">
        <ele>877</ele>
        <time>2020-11-29T08:39:04Z</time>
      </trkpt>
      <trkpt lat="43.5586" lon="1.44577">
        <ele>877</ele>
        <time>2020-11-29T08:39:05Z</time>
      </trkpt>
      <trkpt lat="43.55862" lon="1.44577">
        <ele>877</ele>
        <time>2020-11-29T08:39:06Z</time>
      </trkpt>
      <trkpt lat="43.55865" lon="1.44576">
        <ele>877</ele>
        <time>2020-11-29T08:39:07Z</time>
      </trkpt>
      <trkpt lat="43.55867" lon="1.44575">
        <ele>877</ele>
        <time>2020-11-29T08:39:08Z</time>
      </trkpt>
      <trkpt lat="43.5587" lon="1.44575">
        <ele>878</ele>
        <time>2020-11-29T08:39:09Z</time>
      </trkpt>
      <trkpt lat="43.55872" lon="1.44574">
        <ele>878</ele>
        <time>2020-11-29T08:39:10Z</time>
      </trkpt>
      <trkpt lat="43.55875" lon="1.44573">
        <ele>877</ele>
        <time>2020-11-29T08:39:11Z</time>
      </trkpt>
      <trkpt lat="43.55877" lon="1.44572">
        <ele>877</ele>
        <time>2020-11-29T08:39:12Z</time>
      </trkpt>
      <trkpt lat="43.55879" lon="1.4457">
        <ele>877</ele>
        <time>2020-11-29T08:39:13Z</time>
      </trkpt>
      <trkpt lat="43.55882" lon="1.44568">
        <ele>877</ele>
        <time>2020-11-29T08:39:14Z</time>
      </trkpt>
      <trkpt lat="43.55884" lon="1.44566">
        <ele>877</ele>
        <time>2020-11-29T08:39:15Z</time>
      </trkpt>
      <trkpt lat="43.55887" lon="1.44565">
        <ele>877</ele>
        <time>2020-11-29T08:39:16Z</time>
      </trkpt>
      <trkpt lat="43.55889" lon="1.44563">
        <ele>877</ele>
        <time>2020-11-29T08:39:17Z</time>
      </trkpt>
      <trkpt lat="43.55892" lon="1.44561">
        <ele>877</ele>
        <time>2020-11-29T08:39:18Z</time>
      </trkpt>
      <trkpt lat="43.55894" lon="1.4456">
        <ele>877</ele>
        <time>2020-11-29T08:39:19Z</time>
      </trkpt>
      <trkpt lat="43.55897" lon="1.44558">
        <ele>877</ele>
        <time>2020-11-29T08:39:20Z</time>
      </trkpt>
      <trkpt lat="43.55899" lon="1.44556">
        <ele>877</ele>
        <time>2020-11-29T08:39:21Z</time>
      </trkpt>
      <trkpt lat="43.55901" lon="1.44553">
        <ele>877</ele>
        <time>2020-11-29T08:39:22Z</time>
      </trkpt>
      <trkpt lat="43.55903" lon="1.44551">
        <ele>877</ele>
        <time>2020-11-29T08:39:23Z</time>
      </trkpt>
      <trkpt lat="43.55906" lon="1.44549">
        <ele>877</ele>
        <time>2020-11-29T08:39:24Z</time>
      </trkpt>
      <trkpt lat="43.55908" lon="1.44548">
        <ele>877</ele>
        <time>2020-11-29T08:39:25Z</time>
      </trkpt>
      <trkpt lat="43.5591" lon="1.44546">
        <ele>877</ele>
        <time>2020-11-29T08:39:26Z</time>
      </trkpt>
      <trkpt lat="43.55913" lon="1.44544">
        <ele>877</ele>
        <time>2020-11-29T08:39:27Z</time>
      </trkpt>
      <trkpt lat="43.55915" lon="1.44543">
        <ele>877</ele>
        <time>2020-11-29T08:39:28Z</time>
      </trkpt>
      <trkpt lat="43.55917" lon="1.44542">
        <ele>877</ele>
        <time>2020-11-29T08:39:29Z</time>
      </trkpt>
      <trkpt lat="43.5592" lon="1.44541">
        <ele>877</ele>
        <time>2020-11-29T08:39:30Z</time>
      </trkpt>
      <trkpt lat="43.55922" lon="1.4454">
        <ele>877</ele>
        <time>2020-11-29T08:39:31Z</time>
      </trkpt>
      <trkpt lat="43.55924" lon="1.44539">
        <ele>877</ele>
        <time>2020-11-29T08:39:32Z</time>
      </trkpt>
      <trkpt lat="43.55927" lon="1.44539">
        <ele>877</ele>
        <time>2020-11-29T08:39:33Z</time>
      </trkpt>
      <trkpt lat="43.5593" lon="1.44538">
        <ele>877</ele>
        <time>2020-11-29T08:39:34Z</time>
      </trkpt>
      <trkpt lat="43.55932" lon="1.44537">
        <ele>877</ele>
        <time>2020-11-29T08:39:35Z</time>
      </trkpt>
      <trkpt lat="43.55934" lon="1.44536">
        <ele>877</ele>
        <time>2020-11-29T08:39:36Z</time>
      </trkpt>
      <trkpt lat="43.55937" lon="1.44535">
        <ele>877</ele>
        <time>2020-11-29T08:39:37Z</time>
      </trkpt>
      <trkpt lat="43.55939" lon="1.44534">
        <ele>877</ele>
        <time>2020-11-29T08:39:38Z</time>
      </trkpt>
      <trkpt lat="43.55942" lon="1.44533">
        <ele>877</ele>
        <time>2020-11-29T08:39:39Z</time>
      </trkpt>
      <trkpt lat="43.55944" lon="1.44531">
        <ele>877</ele>
        <time>2020-11-29T08:39:40Z</time>
      </trkpt>
      <trkpt lat="43.55947" lon="1.4453">
        <ele>877</ele>
        <time>2020-11-29T08:39:41Z</time>
      </trkpt>
      <trkpt lat="43.55949" lon="1.44528">
        <ele>876</ele>
        <time>2020-11-29T08:39:42Z</time>
      </trkpt>
      <trkpt lat="43.55952" lon="1.44526">
        <ele>876</ele>
        <time>2020-11-29T08:39:43Z</time>
      </trkpt>
      <trkpt lat="43.55954" lon="1.44524">
        <ele>876</ele>
        <time>2020-11-29T08:39:44Z</time>
      </trkpt>
      <trkpt lat="43.55956" lon="1.44521">
        <ele>876</ele>
        <time>2020-11-29T08:39:45Z</time>
      </trkpt>
      <trkpt lat="43.55959" lon="1.44519">
        <ele>876</ele>
        <time>2020-11-29T08:39:46Z</time>
      </trkpt>
      <trkpt lat="43.55961" lon="1.44517">
        <ele>875</ele>
        <time>2020-11-29T08:39:47Z</time>
      </trkpt>
      <trkpt lat="43.55963" lon="1.44515">
        <ele>875</ele>
        <time>2020-11-29T08:39:48Z</time>
      </trkpt>
      <trkpt lat="43.55965" lon="1.44513">
        <ele>874</ele>
        <time>2020-11-29T08:39:49Z</time>
      </trkpt>
      <trkpt lat="43.55967" lon="1.44511">
        <ele>873</ele>
        <time>2020-11-29T08:39:50Z</time>
      </trkpt>
      <trkpt lat="43.55969" lon="1.44508">
        <ele>873</ele>
        <time>2020-11-29T08:39:51Z</time>
      </trkpt>
      <trkpt lat="43.55971" lon="1.44506">
        <ele>872</ele>
        <time>2020-11-29T08:39:52Z</time>
      </trkpt>
      <trkpt lat="43.55974" lon="1.44505">
        <ele>872</ele>
        <time>2020-11-29T08:39:53Z</time>
      </trkpt>
      <trkpt lat="43.55975" lon="1.44503">
        <ele>872</ele>
        <time>2020-11-29T08:39:54Z</time>
      </trkpt>
      <trkpt lat="43.55976" lon="1.445">
        <ele>872</ele>
        <time>2020-11-29T08:39:55Z</time>
      </trkpt>
      <trkpt lat="43.55978" lon="1.44498">
        <ele>872</ele>
        <time>2020-11-29T08:39:56Z</time>
      </trkpt>
      <trkpt lat="43.5598" lon="1.44496">
        <ele>871</ele>
        <time>2020-11-29T08:39:57Z</time>
      </trkpt>
      <trkpt lat="43.55983" lon="1.44494">
        <ele>870</ele>
        <time>2020-11-29T08:39:58Z</time>
      </trkpt>
      <trkpt lat="43.55986" lon="1.44492">
        <ele>869</ele>
        <time>2020-11-29T08:39:59Z</time>
      </trkpt>
      <trkpt lat="43.55988" lon="1.4449">
        <ele>868</ele>
        <time>2020-11-29T08:40:00Z</time>
      </trkpt>
      <trkpt lat="43.5599" lon="1.44487">
        <ele>868</ele>
        <time>2020-11-29T08:40:01Z</time>
      </trkpt>
      <trkpt lat="43.55992" lon="1.44484">
        <ele>868</ele>
        <time>2020-11-29T08:40:02Z</time>
      </trkpt>
      <trkpt lat="43.55993" lon="1.44481">
        <ele>868</ele>
        <time>2020-11-29T08:40:03Z</time>
      </trkpt>
      <trkpt lat="43.55994" lon="1.44478">
        <ele>868</ele>
        <time>2020-11-29T08:40:04Z</time>
      </trkpt>
      <trkpt lat="43.55995" lon="1.44474">
        <ele>868</ele>
        <time>2020-11-29T08:40:05Z</time>
      </trkpt>
      <trkpt lat="43.55997" lon="1.44472">
        <ele>867</ele>
        <time>2020-11-29T08:40:06Z</time>
      </trkpt>
      <trkpt lat="43.55998" lon="1.44469">
        <ele>867</ele>
        <time>2020-11-29T08:40:07Z</time>
      </trkpt>
      <trkpt lat="43.56001" lon="1.44467">
        <ele>867</ele>
        <time>2020-11-29T08:40:08Z</time>
      </trkpt>
      <trkpt lat="43.56003" lon="1.44464">
        <ele>867</ele>
        <time>2020-11-29T08:40:09Z</time>
      </trkpt>
      <trkpt lat="43.56005" lon="1.44461">
        <ele>867</ele>
        <time>2020-11-29T08:40:10Z</time>
      </trkpt>
      <trkpt lat="43.56007" lon="1.44459">
        <ele>866</ele>
        <time>2020-11-29T08:40:11Z</time>
      </trkpt>
      <trkpt lat="43.56009" lon="1.44457">
        <ele>865</ele>
        <time>2020-11-29T08:40:12Z</time>
      </trkpt>
      <trkpt lat="43.56012" lon="1.44455">
        <ele>865</ele>
        <time>2020-11-29T08:40:13Z</time>
      </trkpt>
      <trkpt lat="43.56015" lon="1.44453">
        <ele>864</ele>
        <time>2020-11-29T08:40:14Z</time>
      </trkpt>
      <trkpt lat="43.56017" lon="1.4445">
        <ele>863</ele>
        <time>2020-11-29T08:40:15Z</time>
      </trkpt>
      <trkpt lat="43.5602" lon="1.44447">
        <ele>863</ele>
        <time>2020-11-29T08:40:16Z</time>
      </trkpt>
      <trkpt lat="43.56022" lon="1.44444">
        <ele>862</ele>
        <time>2020-11-29T08:40:17Z</time>
      </trkpt>
      <trkpt lat="43.56024" lon="1.44441">
        <ele>862</ele>
        <time>2020-11-29T08:40:18Z</time>
      </trkpt>
      <trkpt lat="43.56026" lon="1.44439">
        <ele>861</ele>
        <time>2020-11-29T08:40:19Z</time>
      </trkpt>
      <trkpt lat="43.56028" lon="1.44436">
        <ele>860</ele>
        <time>2020-11-29T08:40:20Z</time>
      </trkpt>
      <trkpt lat="43.56031" lon="1.44434">
        <ele>860</ele>
        <time>2020-11-29T08:40:21Z</time>
      </trkpt>
      <trkpt lat="43.56033" lon="1.44431">
        <ele>859</ele>
        <time>2020-11-29T08:40:22Z</time>
      </trkpt>
      <trkpt lat="43.56035" lon="1.44429">
        <ele>859</ele>
        <time>2020-11-29T08:40:23Z</time>
      </trkpt>
      <trkpt lat="43.56037" lon="1.44426">
        <ele>859</ele>
        <time>2020-11-29T08:40:24Z</time>
      </trkpt>
      <trkpt lat="43.56039" lon="1.44423">
        <ele>859</ele>
        <time>2020-11-29T08:40:25Z</time>
      </trkpt>
      <trkpt lat="43.56042" lon="1.4442">
        <ele>859</ele>
        <time>2020-11-29T08:40:26Z</time>
      </trkpt>
      <trkpt lat="43.56044" lon="1.44417">
        <ele>859</ele>
        <time>2020-11-29T08:40:27Z</time>
      </trkpt>
      <trkpt lat="43.56046" lon="1.44415">
        <ele>859</ele>
        <time>2020-11-29T08:40:28Z</time>
      </trkpt>
      <trkpt lat="43.56048" lon="1.44412">
        <ele>858</ele>
        <time>2020-11-29T08:40:29Z</time>
      </trkpt>
      <trkpt lat="43.56051" lon="1.4441">
        <ele>858</ele>
        <time>2020-11-29T08:40:30Z</time>
      </trkpt>
      <trkpt lat="43.56053" lon="1.44407">
        <ele>858</ele>
        <time>2020-11-29T08:40:31Z</time>
      </trkpt>
      <trkpt lat="43.56055" lon="1.44404">
        <ele>858</ele>
        <time>2020-11-29T08:40:32Z</time>
      </trkpt>
      <trkpt lat="43.56057" lon="1.444">
        <ele>858</ele>
        <time>2020-11-29T08:40:33Z</time>
      </trkpt>
      <trkpt lat="43.56058" lon="1.44397">
        <ele>858</ele>
        <time>2020-11-29T08:40:34Z</time>
      </trkpt>
      <trkpt lat="43.5606" lon="1.44393">
        <ele>857</ele>
        <time>2020-11-29T08:40:35Z</time>
      </trkpt>
      <trkpt lat="43.56061" lon="1.4439">
        <ele>858</ele>
        <time>2020-11-29T08:40:36Z</time>
      </trkpt>
      <trkpt lat="43.56062" lon="1.44386">
        <ele>858</ele>
        <time>2020-11-29T08:40:37Z</time>
      </trkpt>
      <trkpt lat="43.56063" lon="1.44382">
        <ele>858</ele>
        <time>2020-11-29T08:40:38Z</time>
      </trkpt>
      <trkpt lat="43.56065" lon="1.44378">
        <ele>858</ele>
        <time>2020-11-29T08:40:39Z</time>
      </trkpt>
      <trkpt lat="43.56066" lon="1.44375">
        <ele>857</ele>
        <time>2020-11-29T08:40:40Z</time>
      </trkpt>
      <trkpt lat="43.56067" lon="1.44371">
        <ele>857</ele>
        <time>2020-11-29T08:40:41Z</time>
      </trkpt>
      <trkpt lat="43.56068" lon="1.44368">
        <ele>857</ele>
        <time>2020-11-29T08:40:42Z</time>
      </trkpt>
      <trkpt lat="43.56069" lon="1.44364">
        <ele>857</ele>
        <time>2020-11-29T08:40:43Z</time>
      </trkpt>
      <trkpt lat="43.5607" lon="1.44359">
        <ele>857</ele>
        <time>2020-11-29T08:40:44Z</time>
      </trkpt>
      <trkpt lat="43.56071" lon="1.44355">
        <ele>857</ele>
        <time>2020-11-29T08:40:45Z</time>
      </trkpt>
      <trkpt lat="43.56073" lon="1.44352">
        <ele>857</ele>
        <time>2020-11-29T08:40:46Z</time>
      </trkpt>
      <trkpt lat="43.56075" lon="1.4435">
        <ele>857</ele>
        <time>2020-11-29T08:40:47Z</time>
      </trkpt>
      <trkpt lat="43.56077" lon="1.44347">
        <ele>857</ele>
        <time>2020-11-29T08:40:48Z</time>
      </trkpt>
      <trkpt lat="43.56078" lon="1.44346">
        <ele>857</ele>
        <time>2020-11-29T08:40:49Z</time>
      </trkpt>
      <trkpt lat="43.56081" lon="1.44344">
        <ele>857</ele>
        <time>2020-11-29T08:40:50Z</time>
      </trkpt>
      <trkpt lat="43.56083" lon="1.44345">
        <ele>857</ele>
        <time>2020-11-29T08:40:51Z</time>
      </trkpt>
      <trkpt lat="43.56085" lon="1.44346">
        <ele>857</ele>
        <time>2020-11-29T08:40:52Z</time>
      </trkpt>
      <trkpt lat="43.56088" lon="1.44348">
        <ele>856</ele>
        <time>2020-11-29T08:40:53Z</time>
      </trkpt>
      <trkpt lat="43.5609" lon="1.4435">
        <ele>855</ele>
        <time>2020-11-29T08:40:54Z</time>
      </trkpt>
      <trkpt lat="43.56092" lon="1.44351">
        <ele>855</ele>
        <time>2020-11-29T08:40:55Z</time>
      </trkpt>
      <trkpt lat="43.56095" lon="1.44352">
        <ele>853</ele>
        <time>2020-11-29T08:40:57Z</time>
      </trkpt>
      <trkpt lat="43.56097" lon="1.44352">
        <ele>853</ele>
        <time>2020-11-29T08:40:58Z</time>
      </trkpt>
      <trkpt lat="43.56099" lon="1.44351">
        <ele>853</ele>
        <time>2020-11-29T08:40:59Z</time>
      </trkpt>
      <trkpt lat="43.56101" lon="1.44351">
        <ele>852</ele>
        <time>2020-11-29T08:41:00Z</time>
      </trkpt>
      <trkpt lat="43.56103" lon="1.44351">
        <ele>852</ele>
        <time>2020-11-29T08:41:01Z</time>
      </trkpt>
      <trkpt lat="43.56105" lon="1.44352">
        <ele>850</ele>
        <time>2020-11-29T08:41:02Z</time>
      </trkpt>
      <trkpt lat="43.56107" lon="1.44354">
        <ele>849</ele>
        <time>2020-11-29T08:41:03Z</time>
      </trkpt>
      <trkpt lat="43.56111" lon="1.44355">
        <ele>849</ele>
        <time>2020-11-29T08:41:05Z</time>
      </trkpt>
      <trkpt lat="43.56112" lon="1.44356">
        <ele>849</ele>
        <time>2020-11-29T08:41:06Z</time>
      </trkpt>
      <trkpt lat="43.56114" lon="1.44358">
        <ele>848</ele>
        <time>2020-11-29T08:41:07Z</time>
      </trkpt>
      <trkpt lat="43.56115" lon="1.4436">
        <ele>848</ele>
        <time>2020-11-29T08:41:08Z</time>
      </trkpt>
      <trkpt lat="43.56116" lon="1.44363">
        <ele>848</ele>
        <time>2020-11-29T08:41:09Z</time>
      </trkpt>
      <trkpt lat="43.56117" lon="1.44365">
        <ele>847</ele>
        <time>2020-11-29T08:41:10Z</time>
      </trkpt>
      <trkpt lat="43.56118" lon="1.44369">
        <ele>846</ele>
        <time>2020-11-29T08:41:12Z</time>
      </trkpt>
      <trkpt lat="43.5612" lon="1.44373">
        <ele>844</ele>
        <time>2020-11-29T08:41:14Z</time>
      </trkpt>
      <trkpt lat="43.56121" lon="1.44375">
        <ele>844</ele>
        <time>2020-11-29T08:41:15Z</time>
      </trkpt>
      <trkpt lat="43.56123" lon="1.44377">
        <ele>843</ele>
        <time>2020-11-29T08:41:16Z</time>
      </trkpt>
      <trkpt lat="43.56125" lon="1.44379">
        <ele>842</ele>
        <time>2020-11-29T08:41:17Z</time>
      </trkpt>
      <trkpt lat="43.56127" lon="1.44382">
        <ele>841</ele>
        <time>2020-11-29T08:41:18Z</time>
      </trkpt>
      <trkpt lat="43.56129" lon="1.44386">
        <ele>841</ele>
        <time>2020-11-29T08:41:19Z</time>
      </trkpt>
      <trkpt lat="43.56131" lon="1.4439">
        <ele>841</ele>
        <time>2020-11-29T08:41:20Z</time>
      </trkpt>
      <trkpt lat="43.56133" lon="1.44393">
        <ele>841</ele>
        <time>2020-11-29T08:41:21Z</time>
      </trkpt>
      <trkpt lat="43.56135" lon="1.44396">
        <ele>841</ele>
        <time>2020-11-29T08:41:22Z</time>
      </trkpt>
      <trkpt lat="43.56137" lon="1.44399">
        <ele>841</ele>
        <time>2020-11-29T08:41:23Z</time>
      </trkpt>
      <trkpt lat="43.56139" lon="1.44402">
        <ele>840</ele>
        <time>2020-11-29T08:41:24Z</time>
      </trkpt>
      <trkpt lat="43.56141" lon="1.44405">
        <ele>840</ele>
        <time>2020-11-29T08:41:25Z</time>
      </trkpt>
      <trkpt lat="43.56143" lon="1.44408">
        <ele>840</ele>
        <time>2020-11-29T08:41:26Z</time>
      </trkpt>
      <trkpt lat="43.56145" lon="1.44411">
        <ele>840</ele>
        <time>2020-11-29T08:41:27Z</time>
      </trkpt>
      <trkpt lat="43.56147" lon="1.44413">
        <ele>840</ele>
        <time>2020-11-29T08:41:28Z</time>
      </trkpt>
      <trkpt lat="43.56148" lon="1.44416">
        <ele>840</ele>
        <time>2020-11-29T08:41:29Z</time>
      </trkpt>
      <trkpt lat="43.5615" lon="1.4442">
        <ele>840</ele>
        <time>2020-11-29T08:41:30Z</time>
      </trkpt>
      <trkpt lat="43.56152" lon="1.44423">
        <ele>840</ele>
        <time>2020-11-29T08:41:31Z</time>
      </trkpt>
      <trkpt lat="43.56154" lon="1.44426">
        <ele>841</ele>
        <time>2020-11-29T08:41:32Z</time>
      </trkpt>
      <trkpt lat="43.56156" lon="1.44429">
        <ele>841</ele>
        <time>2020-11-29T08:41:33Z</time>
      </trkpt>
      <trkpt lat="43.56158" lon="1.44432">
        <ele>841</ele>
        <time>2020-11-29T08:41:34Z</time>
      </trkpt>
      <trkpt lat="43.56159" lon="1.44436">
        <ele>840</ele>
        <time>2020-11-29T08:41:35Z</time>
      </trkpt>
      <trkpt lat="43.56161" lon="1.44439">
        <ele>840</ele>
        <time>2020-11-29T08:41:36Z</time>
      </trkpt>
      <trkpt lat="43.56163" lon="1.44442">
        <ele>840</ele>
        <time>2020-11-29T08:41:37Z</time>
      </trkpt>
      <trkpt lat="43.56165" lon="1.44445">
        <ele>840</ele>
        <time>2020-11-29T08:41:38Z</time>
      </trkpt>
      <trkpt lat="43.56166" lon="1.44448">
        <ele>840</ele>
        <time>2020-11-29T08:41:39Z</time>
      </trkpt>
      <trkpt lat="43.56168" lon="1.44451">
        <ele>840</ele>
        <time>2020-11-29T08:41:40Z</time>
      </trkpt>
      <trkpt lat="43.5617" lon="1.44454">
        <ele>840</ele>
        <time>2020-11-29T08:41:41Z</time>
      </trkpt>
      <trkpt lat="43.56171" lon="1.44457">
        <ele>840</ele>
        <time>2020-11-29T08:41:42Z</time>
      </trkpt>
      <trkpt lat="43.56173" lon="1.4446">
        <ele>840</ele>
        <time>2020-11-29T08:41:43Z</time>
      </trkpt>
      <trkpt lat="43.56175" lon="1.44463">
        <ele>840</ele>
        <time>2020-11-29T08:41:44Z</time>
      </trkpt>
      <trkpt lat="43.56177" lon="1.44466">
        <ele>841</ele>
        <time>2020-11-29T08:41:45Z</time>
      </trkpt>
      <trkpt lat="43.56179" lon="1.44468">
        <ele>841</ele>
        <time>2020-11-29T08:41:46Z</time>
      </trkpt>
      <trkpt lat="43.56181" lon="1.44471">
        <ele>841</ele>
        <time>2020-11-29T08:41:47Z</time>
      </trkpt>
      <trkpt lat="43.56183" lon="1.44473">
        <ele>841</ele>
        <time>2020-11-29T08:41:48Z</time>
      </trkpt>
      <trkpt lat="43.56185" lon="1.44476">
        <ele>841</ele>
        <time>2020-11-29T08:41:49Z</time>
      </trkpt>
      <trkpt lat="43.56187" lon="1.44479">
        <ele>841</ele>
        <time>2020-11-29T08:41:50Z</time>
      </trkpt>
      <trkpt lat="43.56188" lon="1.44482">
        <ele>841</ele>
        <time>2020-11-29T08:41:51Z</time>
      </trkpt>
      <trkpt lat="43.5619" lon="1.44485">
        <ele>841</ele>
        <time>2020-11-29T08:41:52Z</time>
      </trkpt>
      <trkpt lat="43.56191" lon="1.44488">
        <ele>841</ele>
        <time>2020-11-29T08:41:53Z</time>
      </trkpt>
      <trkpt lat="43.56193" lon="1.4449">
        <ele>841</ele>
        <time>2020-11-29T08:41:54Z</time>
      </trkpt>
      <trkpt lat="43.56194" lon="1.44493">
        <ele>841</ele>
        <time>2020-11-29T08:41:55Z</time>
      </trkpt>
      <trkpt lat="43.56196" lon="1.44497">
        <ele>841</ele>
        <time>2020-11-29T08:41:56Z</time>
      </trkpt>
      <trkpt lat="43.56197" lon="1.445">
        <ele>841</ele>
        <time>2020-11-29T08:41:57Z</time>
      </trkpt>
      <trkpt lat="43.56198" lon="1.44503">
        <ele>841</ele>
        <time>2020-11-29T08:41:58Z</time>
      </trkpt>
      <trkpt lat="43.56198" lon="1.44507">
        <ele>841</ele>
        <time>2020-11-29T08:41:59Z</time>
      </trkpt>
      <trkpt lat="43.56198" lon="1.4451">
        <ele>841</ele>
        <time>2020-11-29T08:42:00Z</time>
      </trkpt>
      <trkpt lat="43.56197" lon="1.44513">
        <ele>841</ele>
        <time>2020-11-29T08:42:01Z</time>
      </trkpt>
      <trkpt lat="43.56196" lon="1.44516">
        <ele>842</ele>
        <time>2020-11-29T08:42:02Z</time>
      </trkpt>
      <trkpt lat="43.56195" lon="1.44519">
        <ele>842</ele>
        <time>2020-11-29T08:42:03Z</time>
      </trkpt>
      <trkpt lat="43.56194" lon="1.44522">
        <ele>842</ele>
        <time>2020-11-29T08:42:04Z</time>
      </trkpt>
      <trkpt lat="43.56193" lon="1.44525">
        <ele>843</ele>
        <time>2020-11-29T08:42:05Z</time>
      </trkpt>
      <trkpt lat="43.56191" lon="1.44528">
        <ele>843</ele>
        <time>2020-11-29T08:42:06Z</time>
      </trkpt>
      <trkpt lat="43.5619" lon="1.4453">
        <ele>843</ele>
        <time>2020-11-29T08:42:07Z</time>
      </trkpt>
      <trkpt lat="43.5619" lon="1.44533">
        <ele>843</ele>
        <time>2020-11-29T08:42:08Z</time>
      </trkpt>
      <trkpt lat="43.56191" lon="1.44537">
        <ele>843</ele>
        <time>2020-11-29T08:42:10Z</time>
      </trkpt>
      <trkpt lat="43.56193" lon="1.4454">
        <ele>843</ele>
        <time>2020-11-29T08:42:11Z</time>
      </trkpt>
      <trkpt lat="43.56195" lon="1.44543">
        <ele>843</ele>
        <time>2020-11-29T08:42:12Z</time>
      </trkpt>
      <trkpt lat="43.56197" lon="1.44545">
        <ele>843</ele>
        <time>2020-11-29T08:42:13Z</time>
      </trkpt>
      <trkpt lat="43.56199" lon="1.44547">
        <ele>843</ele>
        <time>2020-11-29T08:42:14Z</time>
      </trkpt>
      <trkpt lat="43.562" lon="1.4455">
        <ele>843</ele>
        <time>2020-11-29T08:42:15Z</time>
      </trkpt>
      <trkpt lat="43.56202" lon="1.44553">
        <ele>843</ele>
        <time>2020-11-29T08:42:16Z</time>
      </trkpt>
      <trkpt lat="43.56203" lon="1.44555">
        <ele>843</ele>
        <time>2020-11-29T08:42:17Z</time>
      </trkpt>
      <trkpt lat="43.56204" lon="1.44558">
        <ele>843</ele>
        <time>2020-11-29T08:42:18Z</time>
      </trkpt>
      <trkpt lat="43.56204" lon="1.44562">
        <ele>842</ele>
        <time>2020-11-29T08:42:19Z</time>
      </trkpt>
      <trkpt lat="43.56205" lon="1.44565">
        <ele>842</ele>
        <time>2020-11-29T08:42:20Z</time>
      </trkpt>
      <trkpt lat="43.56206" lon="1.44568">
        <ele>842</ele>
        <time>2020-11-29T08:42:21Z</time>
      </trkpt>
      <trkpt lat="43.56206" lon="1.44572">
        <ele>842</ele>
        <time>2020-11-29T08:42:22Z</time>
      </trkpt>
      <trkpt lat="43.56206" lon="1.44576">
        <ele>841</ele>
        <time>2020-11-29T08:42:23Z</time>
      </trkpt>
      <trkpt lat="43.56206" lon="1.44579">
        <ele>841</ele>
        <time>2020-11-29T08:42:24Z</time>
      </trkpt>
      <trkpt lat="43.56207" lon="1.44582">
        <ele>841</ele>
        <time>2020-11-29T08:42:25Z</time>
      </trkpt>
      <trkpt lat="43.56208" lon="1.44584">
        <ele>841</ele>
        <time>2020-11-29T08:42:26Z</time>
      </trkpt>
      <trkpt lat="43.5621" lon="1.44587">
        <ele>841</ele>
        <time>2020-11-29T08:42:28Z</time>
      </trkpt>
      <trkpt lat="43.56212" lon="1.44589">
        <ele>841</ele>
        <time>2020-11-29T08:42:29Z</time>
      </trkpt>
      <trkpt lat="43.56213" lon="1.44591">
        <ele>841</ele>
        <time>2020-11-29T08:42:30Z</time>
      </trkpt>
      <trkpt lat="43.56213" lon="1.44594">
        <ele>841</ele>
        <time>2020-11-29T08:42:31Z</time>
      </trkpt>
      <trkpt lat="43.56215" lon="1.44597">
        <ele>841</ele>
        <time>2020-11-29T08:42:32Z</time>
      </trkpt>
      <trkpt lat="43.56216" lon="1.446">
        <ele>841</ele>
        <time>2020-11-29T08:42:33Z</time>
      </trkpt>
      <trkpt lat="43.56217" lon="1.44604">
        <ele>841</ele>
        <time>2020-11-29T08:42:34Z</time>
      </trkpt>
      <trkpt lat="43.56218" lon="1.44607">
        <ele>841</ele>
        <time>2020-11-29T08:42:35Z</time>
      </trkpt>
      <trkpt lat="43.5622" lon="1.44609">
        <ele>841</ele>
        <time>2020-11-29T08:42:36Z</time>
      </trkpt>
      <trkpt lat="43.56222" lon="1.44611">
        <ele>842</ele>
        <time>2020-11-29T08:42:37Z</time>
      </trkpt>
      <trkpt lat="43.56224" lon="1.44613">
        <ele>842</ele>
        <time>2020-11-29T08:42:38Z</time>
      </trkpt>
      <trkpt lat="43.56225" lon="1.44616">
        <ele>842</ele>
        <time>2020-11-29T08:42:39Z</time>
      </trkpt>
      <trkpt lat="43.56225" lon="1.44618">
        <ele>843</ele>
        <time>2020-11-29T08:42:40Z</time>
      </trkpt>
      <trkpt lat="43.56226" lon="1.44621">
        <ele>843</ele>
        <time>2020-11-29T08:42:41Z</time>
      </trkpt>
      <trkpt lat="43.56227" lon="1.44623">
        <ele>844</ele>
        <time>2020-11-29T08:42:42Z</time>
      </trkpt>
      <trkpt lat="43.56228" lon="1.44625">
        <ele>845</ele>
        <time>2020-11-29T08:42:43Z</time>
      </trkpt>
      <trkpt lat="43.56229" lon="1.44629">
        <ele>846</ele>
        <time>2020-11-29T08:42:45Z</time>
      </trkpt>
      <trkpt lat="43.56228" lon="1.44633">
        <ele>848</ele>
        <time>2020-11-29T08:42:47Z</time>
      </trkpt>
      <trkpt lat="43.56226" lon="1.44635">
        <ele>848</ele>
        <time>2020-11-29T08:42:48Z</time>
      </trkpt>
      <trkpt lat="43.56225" lon="1.44638">
        <ele>849</ele>
        <time>2020-11-29T08:42:49Z</time>
      </trkpt>
      <trkpt lat="43.56226" lon="1.4464">
        <ele>849</ele>
        <time>2020-11-29T08:42:50Z</time>
      </trkpt>
      <trkpt lat="43.56225" lon="1.44644">
        <ele>850</ele>
        <time>2020-11-29T08:42:52Z</time>
      </trkpt>
      <trkpt lat="43.56225" lon="1.44649">
        <ele>850</ele>
        <time>2020-11-29T08:42:54Z</time>
      </trkpt>
      <trkpt lat="43.56227" lon="1.44651">
        <ele>851</ele>
        <time>2020-11-29T08:42:56Z</time>
      </trkpt>
      <trkpt lat="43.56229" lon="1.44653">
        <ele>851</ele>
        <time>2020-11-29T08:42:57Z</time>
      </trkpt>
      <trkpt lat="43.56231" lon="1.44655">
        <ele>851</ele>
        <time>2020-11-29T08:42:58Z</time>
      </trkpt>
      <trkpt lat="43.56231" lon="1.44658">
        <ele>853</ele>
        <time>2020-11-29T08:43:00Z</time>
      </trkpt>
      <trkpt lat="43.5623" lon="1.44661">
        <ele>853</ele>
        <time>2020-11-29T08:43:01Z</time>
      </trkpt>
      <trkpt lat="43.56229" lon="1.44663">
        <ele>853</ele>
        <time>2020-11-29T08:43:02Z</time>
      </trkpt>
      <trkpt lat="43.56228" lon="1.44667">
        <ele>853</ele>
        <time>2020-11-29T08:43:03Z</time>
      </trkpt>
      <trkpt lat="43.56228" lon="1.44669">
        <ele>854</ele>
        <time>2020-11-29T08:43:04Z</time>
      </trkpt>
      <trkpt lat="43.56229" lon="1.44672">
        <ele>854</ele>
        <time>2020-11-29T08:43:05Z</time>
      </trkpt>
      <trkpt lat="43.56229" lon="1.44674">
        <ele>855</ele>
        <time>2020-11-29T08:43:06Z</time>
      </trkpt>
      <trkpt lat="43.56229" lon="1.44678">
        <ele>855</ele>
        <time>2020-11-29T08:43:08Z</time>
      </trkpt>
      <trkpt lat="43.56229" lon="1.44681">
        <ele>855</ele>
        <time>2020-11-29T08:43:10Z</time>
      </trkpt>
    </trkseg>
  </trk>
</gpx>